<?xml version="1.0" encoding="UTF-8" standalone="no" ?>
<gpx xmlns="http://www.topografix.com/GPX/1/1" xmlns:xsi="http://www.w3.org/2001/XMLSchema-instance" xsi:schemaLocation="http://www.topografix.com/GPX/1/1 http://www.topografix.com/GPX/1/1/gpx.xsd" version="1.1" creator="VisuGPX - https://www.visugpx.com">
  <metadata>
    <name>2020-06-23 J4 Belledonne</name>
  </metadata>
  <trk>
    <name><![CDATA[2020-06-23 J4 Belledonne]]></name>
    <extensions>
      <line xmlns="http://www.topografix.com/GPX/gpx_style/0/2">
        <color>0000FF</color>
        <opacity>0.59</opacity>
        <width>6</width>
      </line>
    </extensions>
    <trkseg>
      <trkpt lat="45.34395" lon="6.13222">
        <ele>1486.56</ele>
        <time>2020-06-23T05:58:58.000Z</time>
      </trkpt>
      <trkpt lat="45.34386" lon="6.13226">
        <ele>1486.81</ele>
        <time>2020-06-23T05:59:17.000Z</time>
      </trkpt>
      <trkpt lat="45.34378" lon="6.13217">
        <ele>1493.71</ele>
        <time>2020-06-23T05:59:46.000Z</time>
      </trkpt>
      <trkpt lat="45.34379" lon="6.13202">
        <ele>1495.67</ele>
        <time>2020-06-23T05:59:51.000Z</time>
      </trkpt>
      <trkpt lat="45.34383" lon="6.1319">
        <ele>1500.96</ele>
        <time>2020-06-23T06:00:05.000Z</time>
      </trkpt>
      <trkpt lat="45.3438" lon="6.1317">
        <ele>1522.67</ele>
        <time>2020-06-23T06:00:38.000Z</time>
      </trkpt>
      <trkpt lat="45.34388" lon="6.1316">
        <ele>1530.4</ele>
        <time>2020-06-23T06:00:56.000Z</time>
      </trkpt>
      <trkpt lat="45.34392" lon="6.13148">
        <ele>1538.12</ele>
        <time>2020-06-23T06:01:03.000Z</time>
      </trkpt>
      <trkpt lat="45.34395" lon="6.13135">
        <ele>1539.04</ele>
        <time>2020-06-23T06:01:12.000Z</time>
      </trkpt>
      <trkpt lat="45.34402" lon="6.13126">
        <ele>1535.92</ele>
        <time>2020-06-23T06:01:20.000Z</time>
      </trkpt>
      <trkpt lat="45.34409" lon="6.13115">
        <ele>1535.64</ele>
        <time>2020-06-23T06:01:32.000Z</time>
      </trkpt>
      <trkpt lat="45.34416" lon="6.13108">
        <ele>1532.65</ele>
        <time>2020-06-23T06:01:44.000Z</time>
      </trkpt>
      <trkpt lat="45.34425" lon="6.13102">
        <ele>1527.55</ele>
        <time>2020-06-23T06:01:57.000Z</time>
      </trkpt>
      <trkpt lat="45.34433" lon="6.13094">
        <ele>1523.25</ele>
        <time>2020-06-23T06:02:09.000Z</time>
      </trkpt>
      <trkpt lat="45.34435" lon="6.1308">
        <ele>1518.24</ele>
        <time>2020-06-23T06:02:24.000Z</time>
      </trkpt>
      <trkpt lat="45.34441" lon="6.1307">
        <ele>1515.2</ele>
        <time>2020-06-23T06:02:30.000Z</time>
      </trkpt>
      <trkpt lat="45.34444" lon="6.13058">
        <ele>1510.18</ele>
        <time>2020-06-23T06:02:43.000Z</time>
      </trkpt>
      <trkpt lat="45.34442" lon="6.13043">
        <ele>1509.17</ele>
        <time>2020-06-23T06:02:54.000Z</time>
      </trkpt>
      <trkpt lat="45.34439" lon="6.13028">
        <ele>1509.23</ele>
        <time>2020-06-23T06:02:59.000Z</time>
      </trkpt>
      <trkpt lat="45.3444" lon="6.13014">
        <ele>1509.55</ele>
        <time>2020-06-23T06:03:07.000Z</time>
      </trkpt>
      <trkpt lat="45.34439" lon="6.13">
        <ele>1507.99</ele>
        <time>2020-06-23T06:03:16.000Z</time>
      </trkpt>
      <trkpt lat="45.34436" lon="6.12987">
        <ele>1506.34</ele>
        <time>2020-06-23T06:03:24.000Z</time>
      </trkpt>
      <trkpt lat="45.3444" lon="6.12975">
        <ele>1500.17</ele>
        <time>2020-06-23T06:03:33.000Z</time>
      </trkpt>
      <trkpt lat="45.34439" lon="6.12962">
        <ele>1495.55</ele>
        <time>2020-06-23T06:03:43.000Z</time>
      </trkpt>
      <trkpt lat="45.34442" lon="6.1295">
        <ele>1493.56</ele>
        <time>2020-06-23T06:03:51.000Z</time>
      </trkpt>
      <trkpt lat="45.3445" lon="6.12942">
        <ele>1490.8</ele>
        <time>2020-06-23T06:04:01.000Z</time>
      </trkpt>
      <trkpt lat="45.34457" lon="6.12932">
        <ele>1488.54</ele>
        <time>2020-06-23T06:04:14.000Z</time>
      </trkpt>
      <trkpt lat="45.34465" lon="6.12924">
        <ele>1486.74</ele>
        <time>2020-06-23T06:04:22.000Z</time>
      </trkpt>
      <trkpt lat="45.34471" lon="6.12916">
        <ele>1486.36</ele>
        <time>2020-06-23T06:04:29.000Z</time>
      </trkpt>
      <trkpt lat="45.34477" lon="6.12906">
        <ele>1487.48</ele>
        <time>2020-06-23T06:04:36.000Z</time>
      </trkpt>
      <trkpt lat="45.34486" lon="6.12902">
        <ele>1487.72</ele>
        <time>2020-06-23T06:04:45.000Z</time>
      </trkpt>
      <trkpt lat="45.34494" lon="6.12893">
        <ele>1485.47</ele>
        <time>2020-06-23T06:04:52.000Z</time>
      </trkpt>
      <trkpt lat="45.34499" lon="6.12881">
        <ele>1481.68</ele>
        <time>2020-06-23T06:05:00.000Z</time>
      </trkpt>
      <trkpt lat="45.34502" lon="6.12868">
        <ele>1477.28</ele>
        <time>2020-06-23T06:05:10.000Z</time>
      </trkpt>
      <trkpt lat="45.34506" lon="6.12856">
        <ele>1475.17</ele>
        <time>2020-06-23T06:05:18.000Z</time>
      </trkpt>
      <trkpt lat="45.34514" lon="6.1285">
        <ele>1474.05</ele>
        <time>2020-06-23T06:05:26.000Z</time>
      </trkpt>
      <trkpt lat="45.34524" lon="6.12847">
        <ele>1474.34</ele>
        <time>2020-06-23T06:05:38.000Z</time>
      </trkpt>
      <trkpt lat="45.34531" lon="6.12839">
        <ele>1472.17</ele>
        <time>2020-06-23T06:05:48.000Z</time>
      </trkpt>
      <trkpt lat="45.34535" lon="6.12827">
        <ele>1470.8</ele>
        <time>2020-06-23T06:06:03.000Z</time>
      </trkpt>
      <trkpt lat="45.34538" lon="6.12814">
        <ele>1469.35</ele>
        <time>2020-06-23T06:06:15.000Z</time>
      </trkpt>
      <trkpt lat="45.34546" lon="6.12806">
        <ele>1467.7</ele>
        <time>2020-06-23T06:06:32.000Z</time>
      </trkpt>
      <trkpt lat="45.34555" lon="6.12802">
        <ele>1465.47</ele>
        <time>2020-06-23T06:06:37.000Z</time>
      </trkpt>
      <trkpt lat="45.34563" lon="6.12796">
        <ele>1464.63</ele>
        <time>2020-06-23T06:06:48.000Z</time>
      </trkpt>
      <trkpt lat="45.34572" lon="6.12789">
        <ele>1464.12</ele>
        <time>2020-06-23T06:06:57.000Z</time>
      </trkpt>
      <trkpt lat="45.34577" lon="6.12778">
        <ele>1462.33</ele>
        <time>2020-06-23T06:07:06.000Z</time>
      </trkpt>
      <trkpt lat="45.34584" lon="6.12769">
        <ele>1459.18</ele>
        <time>2020-06-23T06:07:14.000Z</time>
      </trkpt>
      <trkpt lat="45.34593" lon="6.12763">
        <ele>1454.96</ele>
        <time>2020-06-23T06:07:22.000Z</time>
      </trkpt>
      <trkpt lat="45.34598" lon="6.12752">
        <ele>1450.23</ele>
        <time>2020-06-23T06:07:32.000Z</time>
      </trkpt>
      <trkpt lat="45.3459" lon="6.12745">
        <ele>1445.25</ele>
        <time>2020-06-23T06:07:48.000Z</time>
      </trkpt>
      <trkpt lat="45.34582" lon="6.1275">
        <ele>1441.78</ele>
        <time>2020-06-23T06:07:57.000Z</time>
      </trkpt>
      <trkpt lat="45.34573" lon="6.1275">
        <ele>1437.89</ele>
        <time>2020-06-23T06:08:08.000Z</time>
      </trkpt>
      <trkpt lat="45.34565" lon="6.12743">
        <ele>1436.24</ele>
        <time>2020-06-23T06:08:15.000Z</time>
      </trkpt>
      <trkpt lat="45.34555" lon="6.12739">
        <ele>1432.47</ele>
        <time>2020-06-23T06:08:24.000Z</time>
      </trkpt>
      <trkpt lat="45.34547" lon="6.12733">
        <ele>1428.77</ele>
        <time>2020-06-23T06:08:34.000Z</time>
      </trkpt>
      <trkpt lat="45.34538" lon="6.12728">
        <ele>1427.01</ele>
        <time>2020-06-23T06:08:46.000Z</time>
      </trkpt>
      <trkpt lat="45.34528" lon="6.12727">
        <ele>1426.29</ele>
        <time>2020-06-23T06:08:55.000Z</time>
      </trkpt>
      <trkpt lat="45.34522" lon="6.12717">
        <ele>1425.29</ele>
        <time>2020-06-23T06:09:07.000Z</time>
      </trkpt>
      <trkpt lat="45.34528" lon="6.12708">
        <ele>1421.64</ele>
        <time>2020-06-23T06:09:29.000Z</time>
      </trkpt>
      <trkpt lat="45.34537" lon="6.12705">
        <ele>1416.79</ele>
        <time>2020-06-23T06:09:41.000Z</time>
      </trkpt>
      <trkpt lat="45.34544" lon="6.12695">
        <ele>1413.93</ele>
        <time>2020-06-23T06:09:51.000Z</time>
      </trkpt>
      <trkpt lat="45.34551" lon="6.12687">
        <ele>1408.01</ele>
        <time>2020-06-23T06:10:05.000Z</time>
      </trkpt>
      <trkpt lat="45.34558" lon="6.12678">
        <ele>1405.66</ele>
        <time>2020-06-23T06:10:14.000Z</time>
      </trkpt>
      <trkpt lat="45.34564" lon="6.12668">
        <ele>1401.42</ele>
        <time>2020-06-23T06:10:28.000Z</time>
      </trkpt>
      <trkpt lat="45.34562" lon="6.12655">
        <ele>1401.03</ele>
        <time>2020-06-23T06:10:39.000Z</time>
      </trkpt>
      <trkpt lat="45.34554" lon="6.12649">
        <ele>1398.53</ele>
        <time>2020-06-23T06:10:49.000Z</time>
      </trkpt>
      <trkpt lat="45.34545" lon="6.12648">
        <ele>1395.79</ele>
        <time>2020-06-23T06:10:58.000Z</time>
      </trkpt>
      <trkpt lat="45.34535" lon="6.12645">
        <ele>1390.12</ele>
        <time>2020-06-23T06:11:09.000Z</time>
      </trkpt>
      <trkpt lat="45.34534" lon="6.12632">
        <ele>1389.69</ele>
        <time>2020-06-23T06:11:22.000Z</time>
      </trkpt>
      <trkpt lat="45.3453" lon="6.1262">
        <ele>1387.83</ele>
        <time>2020-06-23T06:11:36.000Z</time>
      </trkpt>
      <trkpt lat="45.34528" lon="6.12607">
        <ele>1387.12</ele>
        <time>2020-06-23T06:11:47.000Z</time>
      </trkpt>
      <trkpt lat="45.34534" lon="6.12597">
        <ele>1386.85</ele>
        <time>2020-06-23T06:11:55.000Z</time>
      </trkpt>
      <trkpt lat="45.34539" lon="6.12585">
        <ele>1386.52</ele>
        <time>2020-06-23T06:12:11.000Z</time>
      </trkpt>
      <trkpt lat="45.34546" lon="6.12574">
        <ele>1385.46</ele>
        <time>2020-06-23T06:12:21.000Z</time>
      </trkpt>
      <trkpt lat="45.34554" lon="6.12567">
        <ele>1383.49</ele>
        <time>2020-06-23T06:12:29.000Z</time>
      </trkpt>
      <trkpt lat="45.34561" lon="6.12558">
        <ele>1380.09</ele>
        <time>2020-06-23T06:12:41.000Z</time>
      </trkpt>
      <trkpt lat="45.3457" lon="6.12555">
        <ele>1374.9</ele>
        <time>2020-06-23T06:12:55.000Z</time>
      </trkpt>
      <trkpt lat="45.3458" lon="6.12551">
        <ele>1372.29</ele>
        <time>2020-06-23T06:13:04.000Z</time>
      </trkpt>
      <trkpt lat="45.34589" lon="6.12548">
        <ele>1369.02</ele>
        <time>2020-06-23T06:13:14.000Z</time>
      </trkpt>
      <trkpt lat="45.34587" lon="6.12536">
        <ele>1366.91</ele>
        <time>2020-06-23T06:13:28.000Z</time>
      </trkpt>
      <trkpt lat="45.34577" lon="6.12533">
        <ele>1364.94</ele>
        <time>2020-06-23T06:13:37.000Z</time>
      </trkpt>
      <trkpt lat="45.34569" lon="6.12526">
        <ele>1362.97</ele>
        <time>2020-06-23T06:13:45.000Z</time>
      </trkpt>
      <trkpt lat="45.3456" lon="6.12522">
        <ele>1361.29</ele>
        <time>2020-06-23T06:13:53.000Z</time>
      </trkpt>
      <trkpt lat="45.3455" lon="6.1252">
        <ele>1359.53</ele>
        <time>2020-06-23T06:14:03.000Z</time>
      </trkpt>
      <trkpt lat="45.34541" lon="6.12518">
        <ele>1357.16</ele>
        <time>2020-06-23T06:14:12.000Z</time>
      </trkpt>
      <trkpt lat="45.34532" lon="6.12514">
        <ele>1352.23</ele>
        <time>2020-06-23T06:14:23.000Z</time>
      </trkpt>
      <trkpt lat="45.34523" lon="6.12512">
        <ele>1347.91</ele>
        <time>2020-06-23T06:14:33.000Z</time>
      </trkpt>
      <trkpt lat="45.34513" lon="6.12513">
        <ele>1344.89</ele>
        <time>2020-06-23T06:14:42.000Z</time>
      </trkpt>
      <trkpt lat="45.34504" lon="6.1251">
        <ele>1343.19</ele>
        <time>2020-06-23T06:14:51.000Z</time>
      </trkpt>
      <trkpt lat="45.34495" lon="6.12505">
        <ele>1339.29</ele>
        <time>2020-06-23T06:15:03.000Z</time>
      </trkpt>
      <trkpt lat="45.34486" lon="6.125">
        <ele>1336.49</ele>
        <time>2020-06-23T06:15:14.000Z</time>
      </trkpt>
      <trkpt lat="45.34478" lon="6.12496">
        <ele>1332.07</ele>
        <time>2020-06-23T06:15:31.000Z</time>
      </trkpt>
      <trkpt lat="45.34485" lon="6.12489">
        <ele>1329.86</ele>
        <time>2020-06-23T06:15:45.000Z</time>
      </trkpt>
      <trkpt lat="45.34492" lon="6.1248">
        <ele>1326.59</ele>
        <time>2020-06-23T06:16:02.000Z</time>
      </trkpt>
      <trkpt lat="45.345" lon="6.12471">
        <ele>1322.94</ele>
        <time>2020-06-23T06:16:14.000Z</time>
      </trkpt>
      <trkpt lat="45.34502" lon="6.12458">
        <ele>1320.72</ele>
        <time>2020-06-23T06:16:29.000Z</time>
      </trkpt>
      <trkpt lat="45.34494" lon="6.12451">
        <ele>1319.6</ele>
        <time>2020-06-23T06:16:37.000Z</time>
      </trkpt>
      <trkpt lat="45.34484" lon="6.1245">
        <ele>1317.03</ele>
        <time>2020-06-23T06:16:47.000Z</time>
      </trkpt>
      <trkpt lat="45.34476" lon="6.12445">
        <ele>1314.77</ele>
        <time>2020-06-23T06:16:56.000Z</time>
      </trkpt>
      <trkpt lat="45.34467" lon="6.12442">
        <ele>1311.9</ele>
        <time>2020-06-23T06:17:05.000Z</time>
      </trkpt>
      <trkpt lat="45.34458" lon="6.12446">
        <ele>1308.85</ele>
        <time>2020-06-23T06:17:13.000Z</time>
      </trkpt>
      <trkpt lat="45.34449" lon="6.1245">
        <ele>1305.16</ele>
        <time>2020-06-23T06:17:23.000Z</time>
      </trkpt>
      <trkpt lat="45.3444" lon="6.12453">
        <ele>1303.76</ele>
        <time>2020-06-23T06:17:32.000Z</time>
      </trkpt>
      <trkpt lat="45.3443" lon="6.12457">
        <ele>1301.5</ele>
        <time>2020-06-23T06:17:46.000Z</time>
      </trkpt>
      <trkpt lat="45.34423" lon="6.12465">
        <ele>1299.72</ele>
        <time>2020-06-23T06:17:56.000Z</time>
      </trkpt>
      <trkpt lat="45.34417" lon="6.12475">
        <ele>1298.92</ele>
        <time>2020-06-23T06:18:06.000Z</time>
      </trkpt>
      <trkpt lat="45.34407" lon="6.12473">
        <ele>1298.4</ele>
        <time>2020-06-23T06:18:15.000Z</time>
      </trkpt>
      <trkpt lat="45.34397" lon="6.12471">
        <ele>1296.93</ele>
        <time>2020-06-23T06:18:26.000Z</time>
      </trkpt>
      <trkpt lat="45.34389" lon="6.12466">
        <ele>1294.72</ele>
        <time>2020-06-23T06:18:38.000Z</time>
      </trkpt>
      <trkpt lat="45.34382" lon="6.12457">
        <ele>1293.19</ele>
        <time>2020-06-23T06:18:48.000Z</time>
      </trkpt>
      <trkpt lat="45.34374" lon="6.12447">
        <ele>1292.11</ele>
        <time>2020-06-23T06:18:57.000Z</time>
      </trkpt>
      <trkpt lat="45.3438" lon="6.12436">
        <ele>1286.01</ele>
        <time>2020-06-23T06:19:15.000Z</time>
      </trkpt>
      <trkpt lat="45.34383" lon="6.12423">
        <ele>1283.18</ele>
        <time>2020-06-23T06:19:25.000Z</time>
      </trkpt>
      <trkpt lat="45.34373" lon="6.12423">
        <ele>1278.39</ele>
        <time>2020-06-23T06:19:35.000Z</time>
      </trkpt>
      <trkpt lat="45.34364" lon="6.12425">
        <ele>1274.69</ele>
        <time>2020-06-23T06:19:44.000Z</time>
      </trkpt>
      <trkpt lat="45.34355" lon="6.12421">
        <ele>1272.75</ele>
        <time>2020-06-23T06:19:55.000Z</time>
      </trkpt>
      <trkpt lat="45.34346" lon="6.12422">
        <ele>1271.5</ele>
        <time>2020-06-23T06:20:04.000Z</time>
      </trkpt>
      <trkpt lat="45.34337" lon="6.12417">
        <ele>1271.13</ele>
        <time>2020-06-23T06:20:12.000Z</time>
      </trkpt>
      <trkpt lat="45.34327" lon="6.12418">
        <ele>1269.84</ele>
        <time>2020-06-23T06:20:24.000Z</time>
      </trkpt>
      <trkpt lat="45.34318" lon="6.12415">
        <ele>1268.33</ele>
        <time>2020-06-23T06:20:33.000Z</time>
      </trkpt>
      <trkpt lat="45.34309" lon="6.12412">
        <ele>1266.85</ele>
        <time>2020-06-23T06:20:41.000Z</time>
      </trkpt>
      <trkpt lat="45.34299" lon="6.12413">
        <ele>1264.46</ele>
        <time>2020-06-23T06:20:50.000Z</time>
      </trkpt>
      <trkpt lat="45.3429" lon="6.12416">
        <ele>1261.24</ele>
        <time>2020-06-23T06:21:00.000Z</time>
      </trkpt>
      <trkpt lat="45.34287" lon="6.12403">
        <ele>1255.14</ele>
        <time>2020-06-23T06:21:14.000Z</time>
      </trkpt>
      <trkpt lat="45.34279" lon="6.12396">
        <ele>1249.51</ele>
        <time>2020-06-23T06:21:28.000Z</time>
      </trkpt>
      <trkpt lat="45.3427" lon="6.12399">
        <ele>1247.13</ele>
        <time>2020-06-23T06:21:38.000Z</time>
      </trkpt>
      <trkpt lat="45.34263" lon="6.12408">
        <ele>1244.17</ele>
        <time>2020-06-23T06:21:46.000Z</time>
      </trkpt>
      <trkpt lat="45.34256" lon="6.12416">
        <ele>1240.95</ele>
        <time>2020-06-23T06:21:55.000Z</time>
      </trkpt>
      <trkpt lat="45.3425" lon="6.12427">
        <ele>1238.25</ele>
        <time>2020-06-23T06:22:05.000Z</time>
      </trkpt>
      <trkpt lat="45.3424" lon="6.12426">
        <ele>1236.08</ele>
        <time>2020-06-23T06:22:15.000Z</time>
      </trkpt>
      <trkpt lat="45.34231" lon="6.12425">
        <ele>1233.62</ele>
        <time>2020-06-23T06:22:24.000Z</time>
      </trkpt>
      <trkpt lat="45.34222" lon="6.12425">
        <ele>1233.69</ele>
        <time>2020-06-23T06:22:30.000Z</time>
      </trkpt>
      <trkpt lat="45.34216" lon="6.12434">
        <ele>1232.24</ele>
        <time>2020-06-23T06:22:37.000Z</time>
      </trkpt>
      <trkpt lat="45.34206" lon="6.12436">
        <ele>1230.21</ele>
        <time>2020-06-23T06:22:44.000Z</time>
      </trkpt>
      <trkpt lat="45.34197" lon="6.12433">
        <ele>1227.93</ele>
        <time>2020-06-23T06:22:53.000Z</time>
      </trkpt>
      <trkpt lat="45.34188" lon="6.12433">
        <ele>1227.41</ele>
        <time>2020-06-23T06:23:03.000Z</time>
      </trkpt>
      <trkpt lat="45.34178" lon="6.12435">
        <ele>1227.29</ele>
        <time>2020-06-23T06:23:10.000Z</time>
      </trkpt>
      <trkpt lat="45.34169" lon="6.12439">
        <ele>1225.73</ele>
        <time>2020-06-23T06:23:18.000Z</time>
      </trkpt>
      <trkpt lat="45.3416" lon="6.12441">
        <ele>1224.1</ele>
        <time>2020-06-23T06:23:25.000Z</time>
      </trkpt>
      <trkpt lat="45.34152" lon="6.12437">
        <ele>1222.28</ele>
        <time>2020-06-23T06:23:32.000Z</time>
      </trkpt>
      <trkpt lat="45.34145" lon="6.12425">
        <ele>1221.41</ele>
        <time>2020-06-23T06:23:40.000Z</time>
      </trkpt>
      <trkpt lat="45.34135" lon="6.12422">
        <ele>1221</ele>
        <time>2020-06-23T06:23:47.000Z</time>
      </trkpt>
      <trkpt lat="45.34126" lon="6.12419">
        <ele>1220.67</ele>
        <time>2020-06-23T06:23:54.000Z</time>
      </trkpt>
      <trkpt lat="45.34116" lon="6.12419">
        <ele>1220.51</ele>
        <time>2020-06-23T06:24:03.000Z</time>
      </trkpt>
      <trkpt lat="45.34108" lon="6.12422">
        <ele>1220.51</ele>
        <time>2020-06-23T06:24:10.000Z</time>
      </trkpt>
      <trkpt lat="45.34098" lon="6.12425">
        <ele>1220.48</ele>
        <time>2020-06-23T06:24:18.000Z</time>
      </trkpt>
      <trkpt lat="45.34089" lon="6.12426">
        <ele>1220.55</ele>
        <time>2020-06-23T06:24:27.000Z</time>
      </trkpt>
      <trkpt lat="45.3408" lon="6.12426">
        <ele>1219.31</ele>
        <time>2020-06-23T06:24:37.000Z</time>
      </trkpt>
      <trkpt lat="45.34073" lon="6.12415">
        <ele>1218.28</ele>
        <time>2020-06-23T06:24:46.000Z</time>
      </trkpt>
      <trkpt lat="45.34066" lon="6.12406">
        <ele>1218.67</ele>
        <time>2020-06-23T06:24:56.000Z</time>
      </trkpt>
      <trkpt lat="45.34057" lon="6.12403">
        <ele>1218.6</ele>
        <time>2020-06-23T06:25:03.000Z</time>
      </trkpt>
      <trkpt lat="45.34048" lon="6.124">
        <ele>1217.91</ele>
        <time>2020-06-23T06:25:12.000Z</time>
      </trkpt>
      <trkpt lat="45.34038" lon="6.12397">
        <ele>1217.92</ele>
        <time>2020-06-23T06:25:19.000Z</time>
      </trkpt>
      <trkpt lat="45.34028" lon="6.12395">
        <ele>1217.21</ele>
        <time>2020-06-23T06:25:26.000Z</time>
      </trkpt>
      <trkpt lat="45.34019" lon="6.12391">
        <ele>1215.67</ele>
        <time>2020-06-23T06:25:33.000Z</time>
      </trkpt>
      <trkpt lat="45.3401" lon="6.12395">
        <ele>1213.28</ele>
        <time>2020-06-23T06:25:41.000Z</time>
      </trkpt>
      <trkpt lat="45.34001" lon="6.124">
        <ele>1209.93</ele>
        <time>2020-06-23T06:25:49.000Z</time>
      </trkpt>
      <trkpt lat="45.33991" lon="6.12402">
        <ele>1208.51</ele>
        <time>2020-06-23T06:25:56.000Z</time>
      </trkpt>
      <trkpt lat="45.33982" lon="6.12402">
        <ele>1208.09</ele>
        <time>2020-06-23T06:26:04.000Z</time>
      </trkpt>
      <trkpt lat="45.33972" lon="6.12402">
        <ele>1208.67</ele>
        <time>2020-06-23T06:26:12.000Z</time>
      </trkpt>
      <trkpt lat="45.33963" lon="6.12397">
        <ele>1208.4</ele>
        <time>2020-06-23T06:26:21.000Z</time>
      </trkpt>
      <trkpt lat="45.33954" lon="6.12398">
        <ele>1209.39</ele>
        <time>2020-06-23T06:26:30.000Z</time>
      </trkpt>
      <trkpt lat="45.33944" lon="6.12399">
        <ele>1207.41</ele>
        <time>2020-06-23T06:26:42.000Z</time>
      </trkpt>
      <trkpt lat="45.33934" lon="6.12398">
        <ele>1204.72</ele>
        <time>2020-06-23T06:26:52.000Z</time>
      </trkpt>
      <trkpt lat="45.33924" lon="6.12396">
        <ele>1201.88</ele>
        <time>2020-06-23T06:27:02.000Z</time>
      </trkpt>
      <trkpt lat="45.33917" lon="6.12387">
        <ele>1202.12</ele>
        <time>2020-06-23T06:27:09.000Z</time>
      </trkpt>
      <trkpt lat="45.3391" lon="6.12379">
        <ele>1199.17</ele>
        <time>2020-06-23T06:27:20.000Z</time>
      </trkpt>
      <trkpt lat="45.33898" lon="6.12369">
        <ele>1194.44</ele>
        <time>2020-06-23T06:30:46.000Z</time>
      </trkpt>
      <trkpt lat="45.33891" lon="6.12358">
        <ele>1197.6</ele>
        <time>2020-06-23T06:34:10.000Z</time>
      </trkpt>
      <trkpt lat="45.33882" lon="6.12354">
        <ele>1196.8</ele>
        <time>2020-06-23T06:34:16.000Z</time>
      </trkpt>
      <trkpt lat="45.33873" lon="6.12351">
        <ele>1195.17</ele>
        <time>2020-06-23T06:34:24.000Z</time>
      </trkpt>
      <trkpt lat="45.33862" lon="6.12349">
        <ele>1192.8</ele>
        <time>2020-06-23T06:34:33.000Z</time>
      </trkpt>
      <trkpt lat="45.33853" lon="6.12349">
        <ele>1191.23</ele>
        <time>2020-06-23T06:34:40.000Z</time>
      </trkpt>
      <trkpt lat="45.33843" lon="6.12351">
        <ele>1189.73</ele>
        <time>2020-06-23T06:34:48.000Z</time>
      </trkpt>
      <trkpt lat="45.33834" lon="6.12351">
        <ele>1187.73</ele>
        <time>2020-06-23T06:34:57.000Z</time>
      </trkpt>
      <trkpt lat="45.33825" lon="6.12349">
        <ele>1184.86</ele>
        <time>2020-06-23T06:35:09.000Z</time>
      </trkpt>
      <trkpt lat="45.33816" lon="6.12346">
        <ele>1182.76</ele>
        <time>2020-06-23T06:35:18.000Z</time>
      </trkpt>
      <trkpt lat="45.33807" lon="6.12344">
        <ele>1179.84</ele>
        <time>2020-06-23T06:35:29.000Z</time>
      </trkpt>
      <trkpt lat="45.33799" lon="6.12336">
        <ele>1177.86</ele>
        <time>2020-06-23T06:35:36.000Z</time>
      </trkpt>
      <trkpt lat="45.3379" lon="6.12328">
        <ele>1175.44</ele>
        <time>2020-06-23T06:35:44.000Z</time>
      </trkpt>
      <trkpt lat="45.33782" lon="6.12321">
        <ele>1173.93</ele>
        <time>2020-06-23T06:35:51.000Z</time>
      </trkpt>
      <trkpt lat="45.33774" lon="6.12313">
        <ele>1171.86</ele>
        <time>2020-06-23T06:36:00.000Z</time>
      </trkpt>
      <trkpt lat="45.33765" lon="6.12307">
        <ele>1170.47</ele>
        <time>2020-06-23T06:36:08.000Z</time>
      </trkpt>
      <trkpt lat="45.33756" lon="6.12301">
        <ele>1169.03</ele>
        <time>2020-06-23T06:36:15.000Z</time>
      </trkpt>
      <trkpt lat="45.33747" lon="6.12295">
        <ele>1167.65</ele>
        <time>2020-06-23T06:36:22.000Z</time>
      </trkpt>
      <trkpt lat="45.33739" lon="6.12288">
        <ele>1166.13</ele>
        <time>2020-06-23T06:36:31.000Z</time>
      </trkpt>
      <trkpt lat="45.33729" lon="6.12284">
        <ele>1163.58</ele>
        <time>2020-06-23T06:36:40.000Z</time>
      </trkpt>
      <trkpt lat="45.33719" lon="6.12281">
        <ele>1161.44</ele>
        <time>2020-06-23T06:36:48.000Z</time>
      </trkpt>
      <trkpt lat="45.3371" lon="6.12279">
        <ele>1160.14</ele>
        <time>2020-06-23T06:36:55.000Z</time>
      </trkpt>
      <trkpt lat="45.337" lon="6.12277">
        <ele>1159.02</ele>
        <time>2020-06-23T06:37:02.000Z</time>
      </trkpt>
      <trkpt lat="45.33691" lon="6.12277">
        <ele>1157.6</ele>
        <time>2020-06-23T06:37:10.000Z</time>
      </trkpt>
      <trkpt lat="45.33681" lon="6.12278">
        <ele>1154.99</ele>
        <time>2020-06-23T06:37:18.000Z</time>
      </trkpt>
      <trkpt lat="45.33671" lon="6.12278">
        <ele>1153.3</ele>
        <time>2020-06-23T06:37:25.000Z</time>
      </trkpt>
      <trkpt lat="45.33662" lon="6.12274">
        <ele>1150.41</ele>
        <time>2020-06-23T06:37:34.000Z</time>
      </trkpt>
      <trkpt lat="45.33652" lon="6.12272">
        <ele>1147.76</ele>
        <time>2020-06-23T06:37:43.000Z</time>
      </trkpt>
      <trkpt lat="45.33643" lon="6.12274">
        <ele>1145.73</ele>
        <time>2020-06-23T06:37:52.000Z</time>
      </trkpt>
      <trkpt lat="45.33638" lon="6.12262">
        <ele>1142.48</ele>
        <time>2020-06-23T06:38:10.000Z</time>
      </trkpt>
      <trkpt lat="45.33652" lon="6.12291">
        <ele>1142.76</ele>
        <time>2020-06-23T06:38:15.000Z</time>
      </trkpt>
      <trkpt lat="45.33648" lon="6.12279">
        <ele>1142.77</ele>
        <time>2020-06-23T06:38:21.000Z</time>
      </trkpt>
      <trkpt lat="45.33639" lon="6.12284">
        <ele>1146.35</ele>
        <time>2020-06-23T06:38:36.000Z</time>
      </trkpt>
      <trkpt lat="45.33648" lon="6.1229">
        <ele>1153.17</ele>
        <time>2020-06-23T06:38:54.000Z</time>
      </trkpt>
      <trkpt lat="45.33648" lon="6.12272">
        <ele>1161.43</ele>
        <time>2020-06-23T06:42:41.000Z</time>
      </trkpt>
      <trkpt lat="45.33639" lon="6.12275">
        <ele>1160.29</ele>
        <time>2020-06-23T06:42:52.000Z</time>
      </trkpt>
      <trkpt lat="45.33634" lon="6.12286">
        <ele>1157.69</ele>
        <time>2020-06-23T06:43:33.000Z</time>
      </trkpt>
      <trkpt lat="45.33625" lon="6.12284">
        <ele>1155.94</ele>
        <time>2020-06-23T06:44:04.000Z</time>
      </trkpt>
      <trkpt lat="45.33617" lon="6.12291">
        <ele>1153.69</ele>
        <time>2020-06-23T06:44:50.000Z</time>
      </trkpt>
      <trkpt lat="45.33606" lon="6.12291">
        <ele>1152.57</ele>
        <time>2020-06-23T06:45:15.000Z</time>
      </trkpt>
      <trkpt lat="45.33583" lon="6.12248">
        <ele>1142.13</ele>
        <time>2020-06-23T06:58:38.000Z</time>
      </trkpt>
      <trkpt lat="45.33572" lon="6.12255">
        <ele>1142.13</ele>
        <time>2020-06-23T06:58:58.000Z</time>
      </trkpt>
      <trkpt lat="45.33561" lon="6.12261">
        <ele>1141.63</ele>
        <time>2020-06-23T06:59:09.000Z</time>
      </trkpt>
      <trkpt lat="45.33549" lon="6.12258">
        <ele>1140.36</ele>
        <time>2020-06-23T06:59:23.000Z</time>
      </trkpt>
      <trkpt lat="45.33538" lon="6.12259">
        <ele>1138.03</ele>
        <time>2020-06-23T06:59:50.000Z</time>
      </trkpt>
      <trkpt lat="45.33531" lon="6.1225">
        <ele>1135.88</ele>
        <time>2020-06-23T07:00:11.000Z</time>
      </trkpt>
      <trkpt lat="45.33535" lon="6.12231">
        <ele>1131.26</ele>
        <time>2020-06-23T07:00:26.000Z</time>
      </trkpt>
      <trkpt lat="45.33539" lon="6.12219">
        <ele>1126.47</ele>
        <time>2020-06-23T07:00:34.000Z</time>
      </trkpt>
      <trkpt lat="45.33536" lon="6.12203">
        <ele>1120.98</ele>
        <time>2020-06-23T07:00:44.000Z</time>
      </trkpt>
      <trkpt lat="45.33539" lon="6.12191">
        <ele>1115.27</ele>
        <time>2020-06-23T07:00:52.000Z</time>
      </trkpt>
      <trkpt lat="45.33544" lon="6.12172">
        <ele>1105.38</ele>
        <time>2020-06-23T07:01:08.000Z</time>
      </trkpt>
      <trkpt lat="45.3355" lon="6.12147">
        <ele>1092.78</ele>
        <time>2020-06-23T07:01:31.000Z</time>
      </trkpt>
      <trkpt lat="45.33554" lon="6.12134">
        <ele>1086.59</ele>
        <time>2020-06-23T07:01:40.000Z</time>
      </trkpt>
      <trkpt lat="45.33556" lon="6.12121">
        <ele>1081.82</ele>
        <time>2020-06-23T07:01:48.000Z</time>
      </trkpt>
      <trkpt lat="45.33559" lon="6.12098">
        <ele>1072.76</ele>
        <time>2020-06-23T07:02:08.000Z</time>
      </trkpt>
      <trkpt lat="45.3356" lon="6.12085">
        <ele>1067.26</ele>
        <time>2020-06-23T07:02:17.000Z</time>
      </trkpt>
      <trkpt lat="45.33557" lon="6.12071">
        <ele>1062.56</ele>
        <time>2020-06-23T07:02:30.000Z</time>
      </trkpt>
      <trkpt lat="45.33551" lon="6.1206">
        <ele>1058.69</ele>
        <time>2020-06-23T07:02:38.000Z</time>
      </trkpt>
      <trkpt lat="45.33542" lon="6.12053">
        <ele>1054.36</ele>
        <time>2020-06-23T07:02:59.000Z</time>
      </trkpt>
      <trkpt lat="45.33532" lon="6.12049">
        <ele>1053.2</ele>
        <time>2020-06-23T07:03:08.000Z</time>
      </trkpt>
      <trkpt lat="45.33523" lon="6.12044">
        <ele>1052.46</ele>
        <time>2020-06-23T07:03:15.000Z</time>
      </trkpt>
      <trkpt lat="45.33514" lon="6.12039">
        <ele>1051.12</ele>
        <time>2020-06-23T07:03:23.000Z</time>
      </trkpt>
      <trkpt lat="45.33514" lon="6.12026">
        <ele>1049.46</ele>
        <time>2020-06-23T07:03:37.000Z</time>
      </trkpt>
      <trkpt lat="45.33523" lon="6.1202">
        <ele>1048.41</ele>
        <time>2020-06-23T07:03:45.000Z</time>
      </trkpt>
      <trkpt lat="45.33534" lon="6.12007">
        <ele>1046.56</ele>
        <time>2020-06-23T07:04:07.000Z</time>
      </trkpt>
      <trkpt lat="45.33527" lon="6.11998">
        <ele>1044.16</ele>
        <time>2020-06-23T07:04:17.000Z</time>
      </trkpt>
      <trkpt lat="45.33533" lon="6.12007">
        <ele>1042.72</ele>
        <time>2020-06-23T07:04:41.000Z</time>
      </trkpt>
      <trkpt lat="45.33616" lon="6.1209">
        <ele>1042.49</ele>
        <time>2020-06-23T07:04:46.000Z</time>
      </trkpt>
      <trkpt lat="45.33529" lon="6.12005">
        <ele>1042.49</ele>
        <time>2020-06-23T07:04:51.000Z</time>
      </trkpt>
      <trkpt lat="45.33524" lon="6.11994">
        <ele>1042.09</ele>
        <time>2020-06-23T07:04:59.000Z</time>
      </trkpt>
      <trkpt lat="45.33526" lon="6.11981">
        <ele>1042.99</ele>
        <time>2020-06-23T07:05:05.000Z</time>
      </trkpt>
      <trkpt lat="45.33516" lon="6.11979">
        <ele>1045.69</ele>
        <time>2020-06-23T07:05:50.000Z</time>
      </trkpt>
      <trkpt lat="45.33507" lon="6.11986">
        <ele>1044.79</ele>
        <time>2020-06-23T07:05:57.000Z</time>
      </trkpt>
      <trkpt lat="45.335" lon="6.11997">
        <ele>1043.58</ele>
        <time>2020-06-23T07:06:05.000Z</time>
      </trkpt>
      <trkpt lat="45.33496" lon="6.12016">
        <ele>1042.11</ele>
        <time>2020-06-23T07:06:59.000Z</time>
      </trkpt>
      <trkpt lat="45.33489" lon="6.12027">
        <ele>1042.52</ele>
        <time>2020-06-23T07:07:08.000Z</time>
      </trkpt>
      <trkpt lat="45.3348" lon="6.12027">
        <ele>1043.08</ele>
        <time>2020-06-23T07:07:42.000Z</time>
      </trkpt>
      <trkpt lat="45.33474" lon="6.12017">
        <ele>1042.76</ele>
        <time>2020-06-23T07:07:48.000Z</time>
      </trkpt>
      <trkpt lat="45.33469" lon="6.12006">
        <ele>1041.99</ele>
        <time>2020-06-23T07:07:55.000Z</time>
      </trkpt>
      <trkpt lat="45.33462" lon="6.11996">
        <ele>1041.19</ele>
        <time>2020-06-23T07:08:03.000Z</time>
      </trkpt>
      <trkpt lat="45.33454" lon="6.11989">
        <ele>1041.89</ele>
        <time>2020-06-23T07:08:10.000Z</time>
      </trkpt>
      <trkpt lat="45.33445" lon="6.11987">
        <ele>1043</ele>
        <time>2020-06-23T07:08:17.000Z</time>
      </trkpt>
      <trkpt lat="45.33436" lon="6.1199">
        <ele>1044.1</ele>
        <time>2020-06-23T07:08:24.000Z</time>
      </trkpt>
      <trkpt lat="45.33427" lon="6.11991">
        <ele>1046.08</ele>
        <time>2020-06-23T07:08:32.000Z</time>
      </trkpt>
      <trkpt lat="45.33418" lon="6.11993">
        <ele>1048.34</ele>
        <time>2020-06-23T07:08:40.000Z</time>
      </trkpt>
      <trkpt lat="45.33409" lon="6.11998">
        <ele>1049.14</ele>
        <time>2020-06-23T07:08:47.000Z</time>
      </trkpt>
      <trkpt lat="45.334" lon="6.12002">
        <ele>1049.12</ele>
        <time>2020-06-23T07:08:55.000Z</time>
      </trkpt>
      <trkpt lat="45.33391" lon="6.12006">
        <ele>1048.78</ele>
        <time>2020-06-23T07:09:02.000Z</time>
      </trkpt>
      <trkpt lat="45.33382" lon="6.1201">
        <ele>1048.26</ele>
        <time>2020-06-23T07:09:09.000Z</time>
      </trkpt>
      <trkpt lat="45.33374" lon="6.12017">
        <ele>1047.99</ele>
        <time>2020-06-23T07:09:17.000Z</time>
      </trkpt>
      <trkpt lat="45.33364" lon="6.12021">
        <ele>1047.79</ele>
        <time>2020-06-23T07:09:25.000Z</time>
      </trkpt>
      <trkpt lat="45.33356" lon="6.12029">
        <ele>1047.78</ele>
        <time>2020-06-23T07:09:32.000Z</time>
      </trkpt>
      <trkpt lat="45.33347" lon="6.12035">
        <ele>1048.04</ele>
        <time>2020-06-23T07:09:39.000Z</time>
      </trkpt>
      <trkpt lat="45.33337" lon="6.1204">
        <ele>1048.08</ele>
        <time>2020-06-23T07:09:47.000Z</time>
      </trkpt>
      <trkpt lat="45.33328" lon="6.12047">
        <ele>1047.83</ele>
        <time>2020-06-23T07:09:54.000Z</time>
      </trkpt>
      <trkpt lat="45.33321" lon="6.12055">
        <ele>1047.32</ele>
        <time>2020-06-23T07:10:02.000Z</time>
      </trkpt>
      <trkpt lat="45.33312" lon="6.12062">
        <ele>1048.51</ele>
        <time>2020-06-23T07:10:10.000Z</time>
      </trkpt>
      <trkpt lat="45.33305" lon="6.12074">
        <ele>1048.62</ele>
        <time>2020-06-23T07:11:10.000Z</time>
      </trkpt>
      <trkpt lat="45.33296" lon="6.12075">
        <ele>1048.52</ele>
        <time>2020-06-23T07:11:15.000Z</time>
      </trkpt>
      <trkpt lat="45.33287" lon="6.12081">
        <ele>1049.84</ele>
        <time>2020-06-23T07:11:22.000Z</time>
      </trkpt>
      <trkpt lat="45.33278" lon="6.12088">
        <ele>1048.58</ele>
        <time>2020-06-23T07:11:40.000Z</time>
      </trkpt>
      <trkpt lat="45.33271" lon="6.12095">
        <ele>1047.36</ele>
        <time>2020-06-23T07:11:48.000Z</time>
      </trkpt>
      <trkpt lat="45.33261" lon="6.12096">
        <ele>1045.82</ele>
        <time>2020-06-23T07:11:55.000Z</time>
      </trkpt>
      <trkpt lat="45.33252" lon="6.12099">
        <ele>1044.41</ele>
        <time>2020-06-23T07:12:03.000Z</time>
      </trkpt>
      <trkpt lat="45.33244" lon="6.12106">
        <ele>1043.52</ele>
        <time>2020-06-23T07:12:13.000Z</time>
      </trkpt>
      <trkpt lat="45.33238" lon="6.12116">
        <ele>1044.03</ele>
        <time>2020-06-23T07:12:22.000Z</time>
      </trkpt>
      <trkpt lat="45.33231" lon="6.12124">
        <ele>1044.24</ele>
        <time>2020-06-23T07:12:32.000Z</time>
      </trkpt>
      <trkpt lat="45.33222" lon="6.12129">
        <ele>1044.64</ele>
        <time>2020-06-23T07:12:40.000Z</time>
      </trkpt>
      <trkpt lat="45.33213" lon="6.12132">
        <ele>1044.25</ele>
        <time>2020-06-23T07:12:48.000Z</time>
      </trkpt>
      <trkpt lat="45.33203" lon="6.12135">
        <ele>1045.28</ele>
        <time>2020-06-23T07:12:58.000Z</time>
      </trkpt>
      <trkpt lat="45.33194" lon="6.12137">
        <ele>1045.24</ele>
        <time>2020-06-23T07:13:06.000Z</time>
      </trkpt>
      <trkpt lat="45.33185" lon="6.12138">
        <ele>1045.14</ele>
        <time>2020-06-23T07:13:15.000Z</time>
      </trkpt>
      <trkpt lat="45.33174" lon="6.12142">
        <ele>1045.44</ele>
        <time>2020-06-23T07:13:28.000Z</time>
      </trkpt>
      <trkpt lat="45.33162" lon="6.12145">
        <ele>1045.77</ele>
        <time>2020-06-23T07:13:42.000Z</time>
      </trkpt>
      <trkpt lat="45.33151" lon="6.1215">
        <ele>1045.76</ele>
        <time>2020-06-23T07:13:55.000Z</time>
      </trkpt>
      <trkpt lat="45.33138" lon="6.12152">
        <ele>1046.39</ele>
        <time>2020-06-23T07:14:10.000Z</time>
      </trkpt>
      <trkpt lat="45.33124" lon="6.12154">
        <ele>1047.91</ele>
        <time>2020-06-23T07:14:25.000Z</time>
      </trkpt>
      <trkpt lat="45.3311" lon="6.12153">
        <ele>1049.84</ele>
        <time>2020-06-23T07:14:37.000Z</time>
      </trkpt>
      <trkpt lat="45.33098" lon="6.12157">
        <ele>1052.36</ele>
        <time>2020-06-23T07:14:47.000Z</time>
      </trkpt>
      <trkpt lat="45.33087" lon="6.12158">
        <ele>1055.06</ele>
        <time>2020-06-23T07:15:03.000Z</time>
      </trkpt>
      <trkpt lat="45.33074" lon="6.12156">
        <ele>1054.86</ele>
        <time>2020-06-23T07:15:18.000Z</time>
      </trkpt>
      <trkpt lat="45.33058" lon="6.12159">
        <ele>1056.56</ele>
        <time>2020-06-23T07:15:36.000Z</time>
      </trkpt>
      <trkpt lat="45.33048" lon="6.12164">
        <ele>1058.01</ele>
        <time>2020-06-23T07:15:46.000Z</time>
      </trkpt>
      <trkpt lat="45.33032" lon="6.12168">
        <ele>1060.96</ele>
        <time>2020-06-23T07:16:02.000Z</time>
      </trkpt>
      <trkpt lat="45.33022" lon="6.12178">
        <ele>1063.91</ele>
        <time>2020-06-23T07:16:23.000Z</time>
      </trkpt>
      <trkpt lat="45.33013" lon="6.12182">
        <ele>1065.3</ele>
        <time>2020-06-23T07:16:32.000Z</time>
      </trkpt>
      <trkpt lat="45.33003" lon="6.12193">
        <ele>1065.43</ele>
        <time>2020-06-23T07:16:48.000Z</time>
      </trkpt>
      <trkpt lat="45.32995" lon="6.12204">
        <ele>1065.71</ele>
        <time>2020-06-23T07:17:02.000Z</time>
      </trkpt>
      <trkpt lat="45.32985" lon="6.12215">
        <ele>1066.68</ele>
        <time>2020-06-23T07:17:17.000Z</time>
      </trkpt>
      <trkpt lat="45.32975" lon="6.12225">
        <ele>1066.85</ele>
        <time>2020-06-23T07:17:31.000Z</time>
      </trkpt>
      <trkpt lat="45.32965" lon="6.12235">
        <ele>1067.53</ele>
        <time>2020-06-23T07:17:46.000Z</time>
      </trkpt>
      <trkpt lat="45.32958" lon="6.12244">
        <ele>1068.93</ele>
        <time>2020-06-23T07:17:57.000Z</time>
      </trkpt>
      <trkpt lat="45.32949" lon="6.12255">
        <ele>1070.08</ele>
        <time>2020-06-23T07:18:12.000Z</time>
      </trkpt>
      <trkpt lat="45.32941" lon="6.12265">
        <ele>1071.15</ele>
        <time>2020-06-23T07:18:28.000Z</time>
      </trkpt>
      <trkpt lat="45.32932" lon="6.12274">
        <ele>1073.4</ele>
        <time>2020-06-23T07:18:44.000Z</time>
      </trkpt>
      <trkpt lat="45.32923" lon="6.12285">
        <ele>1075.65</ele>
        <time>2020-06-23T07:19:01.000Z</time>
      </trkpt>
      <trkpt lat="45.32916" lon="6.12294">
        <ele>1078.08</ele>
        <time>2020-06-23T07:19:12.000Z</time>
      </trkpt>
      <trkpt lat="45.32908" lon="6.12303">
        <ele>1079.27</ele>
        <time>2020-06-23T07:19:26.000Z</time>
      </trkpt>
      <trkpt lat="45.32899" lon="6.12314">
        <ele>1082.25</ele>
        <time>2020-06-23T07:19:44.000Z</time>
      </trkpt>
      <trkpt lat="45.3289" lon="6.12324">
        <ele>1085.42</ele>
        <time>2020-06-23T07:20:00.000Z</time>
      </trkpt>
      <trkpt lat="45.32881" lon="6.12345">
        <ele>1090.82</ele>
        <time>2020-06-23T07:20:21.000Z</time>
      </trkpt>
      <trkpt lat="45.32872" lon="6.12357">
        <ele>1093.4</ele>
        <time>2020-06-23T07:20:36.000Z</time>
      </trkpt>
      <trkpt lat="45.32865" lon="6.1237">
        <ele>1096.17</ele>
        <time>2020-06-23T07:20:53.000Z</time>
      </trkpt>
      <trkpt lat="45.32856" lon="6.12379">
        <ele>1098.97</ele>
        <time>2020-06-23T07:21:10.000Z</time>
      </trkpt>
      <trkpt lat="45.32846" lon="6.12386">
        <ele>1101.72</ele>
        <time>2020-06-23T07:21:27.000Z</time>
      </trkpt>
      <trkpt lat="45.32835" lon="6.12386">
        <ele>1104.49</ele>
        <time>2020-06-23T07:21:42.000Z</time>
      </trkpt>
      <trkpt lat="45.32824" lon="6.12384">
        <ele>1106.69</ele>
        <time>2020-06-23T07:21:58.000Z</time>
      </trkpt>
      <trkpt lat="45.32813" lon="6.12388">
        <ele>1109.07</ele>
        <time>2020-06-23T07:22:17.000Z</time>
      </trkpt>
      <trkpt lat="45.32802" lon="6.12392">
        <ele>1112.67</ele>
        <time>2020-06-23T07:22:38.000Z</time>
      </trkpt>
      <trkpt lat="45.32793" lon="6.12398">
        <ele>1114.37</ele>
        <time>2020-06-23T07:22:53.000Z</time>
      </trkpt>
      <trkpt lat="45.32783" lon="6.12408">
        <ele>1114.92</ele>
        <time>2020-06-23T07:23:09.000Z</time>
      </trkpt>
      <trkpt lat="45.32773" lon="6.12416">
        <ele>1115.61</ele>
        <time>2020-06-23T07:23:28.000Z</time>
      </trkpt>
      <trkpt lat="45.32762" lon="6.1242">
        <ele>1117.14</ele>
        <time>2020-06-23T07:23:45.000Z</time>
      </trkpt>
      <trkpt lat="45.32752" lon="6.12422">
        <ele>1118.64</ele>
        <time>2020-06-23T07:24:02.000Z</time>
      </trkpt>
      <trkpt lat="45.32741" lon="6.12429">
        <ele>1119.54</ele>
        <time>2020-06-23T07:24:19.000Z</time>
      </trkpt>
      <trkpt lat="45.3273" lon="6.12434">
        <ele>1120.84</ele>
        <time>2020-06-23T07:24:36.000Z</time>
      </trkpt>
      <trkpt lat="45.32719" lon="6.12442">
        <ele>1122.29</ele>
        <time>2020-06-23T07:24:50.000Z</time>
      </trkpt>
      <trkpt lat="45.32709" lon="6.12449">
        <ele>1125.26</ele>
        <time>2020-06-23T07:25:06.000Z</time>
      </trkpt>
      <trkpt lat="45.32698" lon="6.12455">
        <ele>1128.46</ele>
        <time>2020-06-23T07:25:22.000Z</time>
      </trkpt>
      <trkpt lat="45.32689" lon="6.12466">
        <ele>1132.03</ele>
        <time>2020-06-23T07:25:39.000Z</time>
      </trkpt>
      <trkpt lat="45.32679" lon="6.12473">
        <ele>1136.03</ele>
        <time>2020-06-23T07:25:58.000Z</time>
      </trkpt>
      <trkpt lat="45.32671" lon="6.12483">
        <ele>1138.63</ele>
        <time>2020-06-23T07:26:14.000Z</time>
      </trkpt>
      <trkpt lat="45.32664" lon="6.12495">
        <ele>1141.21</ele>
        <time>2020-06-23T07:26:32.000Z</time>
      </trkpt>
      <trkpt lat="45.32653" lon="6.12503">
        <ele>1143.46</ele>
        <time>2020-06-23T07:26:45.000Z</time>
      </trkpt>
      <trkpt lat="45.32642" lon="6.1251">
        <ele>1146.11</ele>
        <time>2020-06-23T07:27:01.000Z</time>
      </trkpt>
      <trkpt lat="45.32633" lon="6.1252">
        <ele>1150.7</ele>
        <time>2020-06-23T07:27:28.000Z</time>
      </trkpt>
      <trkpt lat="45.32627" lon="6.12533">
        <ele>1154.48</ele>
        <time>2020-06-23T07:27:45.000Z</time>
      </trkpt>
      <trkpt lat="45.32617" lon="6.1254">
        <ele>1156.63</ele>
        <time>2020-06-23T07:28:00.000Z</time>
      </trkpt>
      <trkpt lat="45.32607" lon="6.1255">
        <ele>1158.63</ele>
        <time>2020-06-23T07:28:13.000Z</time>
      </trkpt>
      <trkpt lat="45.32596" lon="6.12555">
        <ele>1160.13</ele>
        <time>2020-06-23T07:28:40.000Z</time>
      </trkpt>
      <trkpt lat="45.32585" lon="6.12558">
        <ele>1160.93</ele>
        <time>2020-06-23T07:29:06.000Z</time>
      </trkpt>
      <trkpt lat="45.32575" lon="6.12566">
        <ele>1162.05</ele>
        <time>2020-06-23T07:29:21.000Z</time>
      </trkpt>
      <trkpt lat="45.32563" lon="6.12572">
        <ele>1163.35</ele>
        <time>2020-06-23T07:29:35.000Z</time>
      </trkpt>
      <trkpt lat="45.32553" lon="6.1258">
        <ele>1164.7</ele>
        <time>2020-06-23T07:29:54.000Z</time>
      </trkpt>
      <trkpt lat="45.32544" lon="6.12587">
        <ele>1165.92</ele>
        <time>2020-06-23T07:30:11.000Z</time>
      </trkpt>
      <trkpt lat="45.32535" lon="6.12596">
        <ele>1167.62</ele>
        <time>2020-06-23T07:30:28.000Z</time>
      </trkpt>
      <trkpt lat="45.32525" lon="6.12604">
        <ele>1168.97</ele>
        <time>2020-06-23T07:30:46.000Z</time>
      </trkpt>
      <trkpt lat="45.32516" lon="6.12613">
        <ele>1170.4</ele>
        <time>2020-06-23T07:31:03.000Z</time>
      </trkpt>
      <trkpt lat="45.32506" lon="6.1262">
        <ele>1172.02</ele>
        <time>2020-06-23T07:31:18.000Z</time>
      </trkpt>
      <trkpt lat="45.325" lon="6.12631">
        <ele>1174.3</ele>
        <time>2020-06-23T07:31:37.000Z</time>
      </trkpt>
      <trkpt lat="45.3249" lon="6.12638">
        <ele>1176.67</ele>
        <time>2020-06-23T07:31:55.000Z</time>
      </trkpt>
      <trkpt lat="45.3248" lon="6.12647">
        <ele>1179.77</ele>
        <time>2020-06-23T07:32:19.000Z</time>
      </trkpt>
      <trkpt lat="45.32471" lon="6.12652">
        <ele>1181.19</ele>
        <time>2020-06-23T07:32:48.000Z</time>
      </trkpt>
      <trkpt lat="45.32461" lon="6.12656">
        <ele>1181.02</ele>
        <time>2020-06-23T07:33:06.000Z</time>
      </trkpt>
      <trkpt lat="45.32451" lon="6.12664">
        <ele>1180.72</ele>
        <time>2020-06-23T07:33:23.000Z</time>
      </trkpt>
      <trkpt lat="45.3244" lon="6.12669">
        <ele>1180.84</ele>
        <time>2020-06-23T07:33:37.000Z</time>
      </trkpt>
      <trkpt lat="45.32427" lon="6.12669">
        <ele>1181.22</ele>
        <time>2020-06-23T07:33:52.000Z</time>
      </trkpt>
      <trkpt lat="45.32414" lon="6.1267">
        <ele>1182.44</ele>
        <time>2020-06-23T07:34:11.000Z</time>
      </trkpt>
      <trkpt lat="45.32403" lon="6.12656">
        <ele>1186.12</ele>
        <time>2020-06-23T07:34:26.000Z</time>
      </trkpt>
      <trkpt lat="45.32392" lon="6.12653">
        <ele>1188.64</ele>
        <time>2020-06-23T07:34:40.000Z</time>
      </trkpt>
      <trkpt lat="45.32381" lon="6.12657">
        <ele>1191.16</ele>
        <time>2020-06-23T07:34:57.000Z</time>
      </trkpt>
      <trkpt lat="45.3237" lon="6.12657">
        <ele>1193.61</ele>
        <time>2020-06-23T07:35:11.000Z</time>
      </trkpt>
      <trkpt lat="45.32359" lon="6.12657">
        <ele>1194.44</ele>
        <time>2020-06-23T07:35:45.000Z</time>
      </trkpt>
      <trkpt lat="45.32349" lon="6.12662">
        <ele>1194.94</ele>
        <time>2020-06-23T07:36:03.000Z</time>
      </trkpt>
      <trkpt lat="45.32337" lon="6.12664">
        <ele>1195.66</ele>
        <time>2020-06-23T07:36:17.000Z</time>
      </trkpt>
      <trkpt lat="45.32324" lon="6.12666">
        <ele>1197.41</ele>
        <time>2020-06-23T07:36:42.000Z</time>
      </trkpt>
      <trkpt lat="45.32313" lon="6.12673">
        <ele>1199.61</ele>
        <time>2020-06-23T07:37:02.000Z</time>
      </trkpt>
      <trkpt lat="45.32305" lon="6.1268">
        <ele>1200.68</ele>
        <time>2020-06-23T07:37:28.000Z</time>
      </trkpt>
      <trkpt lat="45.32294" lon="6.12688">
        <ele>1201.91</ele>
        <time>2020-06-23T07:38:02.000Z</time>
      </trkpt>
      <trkpt lat="45.32288" lon="6.12701">
        <ele>1203.21</ele>
        <time>2020-06-23T07:38:16.000Z</time>
      </trkpt>
      <trkpt lat="45.32278" lon="6.12711">
        <ele>1204.68</ele>
        <time>2020-06-23T07:38:28.000Z</time>
      </trkpt>
      <trkpt lat="45.32272" lon="6.12725">
        <ele>1206.56</ele>
        <time>2020-06-23T07:38:45.000Z</time>
      </trkpt>
      <trkpt lat="45.32267" lon="6.12741">
        <ele>1208.73</ele>
        <time>2020-06-23T07:39:09.000Z</time>
      </trkpt>
      <trkpt lat="45.32258" lon="6.12749">
        <ele>1211.08</ele>
        <time>2020-06-23T07:39:36.000Z</time>
      </trkpt>
      <trkpt lat="45.32253" lon="6.12763">
        <ele>1213.01</ele>
        <time>2020-06-23T07:39:57.000Z</time>
      </trkpt>
      <trkpt lat="45.32271" lon="6.1276">
        <ele>1214.61</ele>
        <time>2020-06-23T07:40:03.000Z</time>
      </trkpt>
      <trkpt lat="45.32253" lon="6.1278">
        <ele>1216.22</ele>
        <time>2020-06-23T07:40:08.000Z</time>
      </trkpt>
      <trkpt lat="45.32242" lon="6.12784">
        <ele>1217.15</ele>
        <time>2020-06-23T07:40:15.000Z</time>
      </trkpt>
      <trkpt lat="45.32231" lon="6.12787">
        <ele>1220.88</ele>
        <time>2020-06-23T07:40:33.000Z</time>
      </trkpt>
      <trkpt lat="45.32221" lon="6.12794">
        <ele>1229.15</ele>
        <time>2020-06-23T07:40:57.000Z</time>
      </trkpt>
      <trkpt lat="45.32211" lon="6.12796">
        <ele>1233.37</ele>
        <time>2020-06-23T07:41:05.000Z</time>
      </trkpt>
      <trkpt lat="45.32195" lon="6.12802">
        <ele>1243.63</ele>
        <time>2020-06-23T07:41:28.000Z</time>
      </trkpt>
      <trkpt lat="45.32183" lon="6.12799">
        <ele>1250.23</ele>
        <time>2020-06-23T07:41:46.000Z</time>
      </trkpt>
      <trkpt lat="45.32173" lon="6.12805">
        <ele>1258.18</ele>
        <time>2020-06-23T07:42:06.000Z</time>
      </trkpt>
      <trkpt lat="45.32166" lon="6.12817">
        <ele>1266.72</ele>
        <time>2020-06-23T07:42:27.000Z</time>
      </trkpt>
      <trkpt lat="45.32155" lon="6.12822">
        <ele>1271.72</ele>
        <time>2020-06-23T07:42:42.000Z</time>
      </trkpt>
      <trkpt lat="45.32145" lon="6.12831">
        <ele>1275.32</ele>
        <time>2020-06-23T07:43:07.000Z</time>
      </trkpt>
      <trkpt lat="45.32142" lon="6.12846">
        <ele>1277</ele>
        <time>2020-06-23T07:43:27.000Z</time>
      </trkpt>
      <trkpt lat="45.32147" lon="6.1286">
        <ele>1279.6</ele>
        <time>2020-06-23T07:43:52.000Z</time>
      </trkpt>
      <trkpt lat="45.32145" lon="6.12874">
        <ele>1284.3</ele>
        <time>2020-06-23T07:44:23.000Z</time>
      </trkpt>
      <trkpt lat="45.32134" lon="6.12874">
        <ele>1287.92</ele>
        <time>2020-06-23T07:44:45.000Z</time>
      </trkpt>
      <trkpt lat="45.32124" lon="6.1288">
        <ele>1292.45</ele>
        <time>2020-06-23T07:45:04.000Z</time>
      </trkpt>
      <trkpt lat="45.32113" lon="6.12881">
        <ele>1298.02</ele>
        <time>2020-06-23T07:45:27.000Z</time>
      </trkpt>
      <trkpt lat="45.32102" lon="6.12885">
        <ele>1302.64</ele>
        <time>2020-06-23T07:45:51.000Z</time>
      </trkpt>
      <trkpt lat="45.32091" lon="6.12889">
        <ele>1307.02</ele>
        <time>2020-06-23T07:46:12.000Z</time>
      </trkpt>
      <trkpt lat="45.32081" lon="6.1289">
        <ele>1308.62</ele>
        <time>2020-06-23T07:46:30.000Z</time>
      </trkpt>
      <trkpt lat="45.3207" lon="6.12898">
        <ele>1309.54</ele>
        <time>2020-06-23T07:46:48.000Z</time>
      </trkpt>
      <trkpt lat="45.32059" lon="6.12906">
        <ele>1311.19</ele>
        <time>2020-06-23T07:47:07.000Z</time>
      </trkpt>
      <trkpt lat="45.32049" lon="6.1291">
        <ele>1313.92</ele>
        <time>2020-06-23T07:47:25.000Z</time>
      </trkpt>
      <trkpt lat="45.32039" lon="6.12918">
        <ele>1316.42</ele>
        <time>2020-06-23T07:47:40.000Z</time>
      </trkpt>
      <trkpt lat="45.32029" lon="6.12926">
        <ele>1318.67</ele>
        <time>2020-06-23T07:47:53.000Z</time>
      </trkpt>
      <trkpt lat="45.32018" lon="6.12932">
        <ele>1321.41</ele>
        <time>2020-06-23T07:48:09.000Z</time>
      </trkpt>
      <trkpt lat="45.32007" lon="6.12938">
        <ele>1324.61</ele>
        <time>2020-06-23T07:48:29.000Z</time>
      </trkpt>
      <trkpt lat="45.31998" lon="6.12944">
        <ele>1327.16</ele>
        <time>2020-06-23T07:48:46.000Z</time>
      </trkpt>
      <trkpt lat="45.31993" lon="6.12959">
        <ele>1330.11</ele>
        <time>2020-06-23T07:49:08.000Z</time>
      </trkpt>
      <trkpt lat="45.31987" lon="6.12973">
        <ele>1332.01</ele>
        <time>2020-06-23T07:49:27.000Z</time>
      </trkpt>
      <trkpt lat="45.31979" lon="6.12981">
        <ele>1334.89</ele>
        <time>2020-06-23T07:49:49.000Z</time>
      </trkpt>
      <trkpt lat="45.31973" lon="6.12994">
        <ele>1338.79</ele>
        <time>2020-06-23T07:50:15.000Z</time>
      </trkpt>
      <trkpt lat="45.31969" lon="6.1301">
        <ele>1347.18</ele>
        <time>2020-06-23T07:50:46.000Z</time>
      </trkpt>
      <trkpt lat="45.31967" lon="6.13024">
        <ele>1353.51</ele>
        <time>2020-06-23T07:51:10.000Z</time>
      </trkpt>
      <trkpt lat="45.31963" lon="6.13039">
        <ele>1357.98</ele>
        <time>2020-06-23T07:51:28.000Z</time>
      </trkpt>
      <trkpt lat="45.31957" lon="6.13052">
        <ele>1363.28</ele>
        <time>2020-06-23T07:51:50.000Z</time>
      </trkpt>
      <trkpt lat="45.31951" lon="6.13066">
        <ele>1367.23</ele>
        <time>2020-06-23T07:52:07.000Z</time>
      </trkpt>
      <trkpt lat="45.31945" lon="6.13078">
        <ele>1369.98</ele>
        <time>2020-06-23T07:52:29.000Z</time>
      </trkpt>
      <trkpt lat="45.31937" lon="6.13103">
        <ele>1371.28</ele>
        <time>2020-06-23T07:52:49.000Z</time>
      </trkpt>
      <trkpt lat="45.31953" lon="6.13124">
        <ele>1372.23</ele>
        <time>2020-06-23T07:52:54.000Z</time>
      </trkpt>
      <trkpt lat="45.31952" lon="6.13109">
        <ele>1373.68</ele>
        <time>2020-06-23T07:52:59.000Z</time>
      </trkpt>
      <trkpt lat="45.31964" lon="6.13114">
        <ele>1377.61</ele>
        <time>2020-06-23T07:53:33.000Z</time>
      </trkpt>
      <trkpt lat="45.32006" lon="6.13375">
        <ele>1478.08</ele>
        <time>2020-06-23T08:16:57.000Z</time>
      </trkpt>
      <trkpt lat="45.31995" lon="6.1337">
        <ele>1484.9</ele>
        <time>2020-06-23T08:17:12.000Z</time>
      </trkpt>
      <trkpt lat="45.31984" lon="6.13367">
        <ele>1490.75</ele>
        <time>2020-06-23T08:17:32.000Z</time>
      </trkpt>
      <trkpt lat="45.31973" lon="6.13369">
        <ele>1495.2</ele>
        <time>2020-06-23T08:17:53.000Z</time>
      </trkpt>
      <trkpt lat="45.31962" lon="6.13366">
        <ele>1498.87</ele>
        <time>2020-06-23T08:18:10.000Z</time>
      </trkpt>
      <trkpt lat="45.3195" lon="6.13365">
        <ele>1502</ele>
        <time>2020-06-23T08:18:29.000Z</time>
      </trkpt>
      <trkpt lat="45.31938" lon="6.13365">
        <ele>1503.77</ele>
        <time>2020-06-23T08:18:44.000Z</time>
      </trkpt>
      <trkpt lat="45.31926" lon="6.13367">
        <ele>1504.82</ele>
        <time>2020-06-23T08:19:06.000Z</time>
      </trkpt>
      <trkpt lat="45.31917" lon="6.13367">
        <ele>1504.66</ele>
        <time>2020-06-23T08:19:17.000Z</time>
      </trkpt>
      <trkpt lat="45.31906" lon="6.13364">
        <ele>1504.87</ele>
        <time>2020-06-23T08:19:34.000Z</time>
      </trkpt>
      <trkpt lat="45.31893" lon="6.13362">
        <ele>1505.97</ele>
        <time>2020-06-23T08:19:50.000Z</time>
      </trkpt>
      <trkpt lat="45.31882" lon="6.13361">
        <ele>1507.55</ele>
        <time>2020-06-23T08:20:03.000Z</time>
      </trkpt>
      <trkpt lat="45.3187" lon="6.1336">
        <ele>1509.82</ele>
        <time>2020-06-23T08:20:17.000Z</time>
      </trkpt>
      <trkpt lat="45.31859" lon="6.13361">
        <ele>1512.8</ele>
        <time>2020-06-23T08:20:31.000Z</time>
      </trkpt>
      <trkpt lat="45.31848" lon="6.13353">
        <ele>1516.82</ele>
        <time>2020-06-23T08:20:47.000Z</time>
      </trkpt>
      <trkpt lat="45.3184" lon="6.13342">
        <ele>1521.32</ele>
        <time>2020-06-23T08:21:11.000Z</time>
      </trkpt>
      <trkpt lat="45.3183" lon="6.13346">
        <ele>1524.57</ele>
        <time>2020-06-23T08:21:32.000Z</time>
      </trkpt>
      <trkpt lat="45.31821" lon="6.13346">
        <ele>1528.49</ele>
        <time>2020-06-23T08:21:48.000Z</time>
      </trkpt>
      <trkpt lat="45.31812" lon="6.13333">
        <ele>1531.84</ele>
        <time>2020-06-23T08:22:07.000Z</time>
      </trkpt>
      <trkpt lat="45.31811" lon="6.13318">
        <ele>1533.12</ele>
        <time>2020-06-23T08:22:24.000Z</time>
      </trkpt>
      <trkpt lat="45.31802" lon="6.13321">
        <ele>1535.38</ele>
        <time>2020-06-23T08:22:52.000Z</time>
      </trkpt>
      <trkpt lat="45.31801" lon="6.13308">
        <ele>1538.56</ele>
        <time>2020-06-23T08:23:11.000Z</time>
      </trkpt>
      <trkpt lat="45.31798" lon="6.13293">
        <ele>1542.27</ele>
        <time>2020-06-23T08:23:25.000Z</time>
      </trkpt>
      <trkpt lat="45.31791" lon="6.13281">
        <ele>1546.82</ele>
        <time>2020-06-23T08:23:41.000Z</time>
      </trkpt>
      <trkpt lat="45.31784" lon="6.13269">
        <ele>1552.02</ele>
        <time>2020-06-23T08:24:01.000Z</time>
      </trkpt>
      <trkpt lat="45.31782" lon="6.13256">
        <ele>1555.49</ele>
        <time>2020-06-23T08:24:14.000Z</time>
      </trkpt>
      <trkpt lat="45.31766" lon="6.13257">
        <ele>1557.82</ele>
        <time>2020-06-23T08:24:37.000Z</time>
      </trkpt>
      <trkpt lat="45.31754" lon="6.13255">
        <ele>1560.29</ele>
        <time>2020-06-23T08:24:55.000Z</time>
      </trkpt>
      <trkpt lat="45.31747" lon="6.13242">
        <ele>1563.77</ele>
        <time>2020-06-23T08:25:16.000Z</time>
      </trkpt>
      <trkpt lat="45.31748" lon="6.13227">
        <ele>1566.24</ele>
        <time>2020-06-23T08:26:06.000Z</time>
      </trkpt>
      <trkpt lat="45.31735" lon="6.13217">
        <ele>1569.29</ele>
        <time>2020-06-23T08:28:38.000Z</time>
      </trkpt>
      <trkpt lat="45.31726" lon="6.13212">
        <ele>1571.17</ele>
        <time>2020-06-23T08:28:49.000Z</time>
      </trkpt>
      <trkpt lat="45.31714" lon="6.13211">
        <ele>1574.84</ele>
        <time>2020-06-23T08:29:07.000Z</time>
      </trkpt>
      <trkpt lat="45.31704" lon="6.13203">
        <ele>1579.17</ele>
        <time>2020-06-23T08:29:24.000Z</time>
      </trkpt>
      <trkpt lat="45.31694" lon="6.13206">
        <ele>1582.79</ele>
        <time>2020-06-23T08:29:43.000Z</time>
      </trkpt>
      <trkpt lat="45.31682" lon="6.13206">
        <ele>1585.77</ele>
        <time>2020-06-23T08:29:59.000Z</time>
      </trkpt>
      <trkpt lat="45.31674" lon="6.13199">
        <ele>1587.19</ele>
        <time>2020-06-23T08:30:09.000Z</time>
      </trkpt>
      <trkpt lat="45.31661" lon="6.13203">
        <ele>1589.92</ele>
        <time>2020-06-23T08:30:29.000Z</time>
      </trkpt>
      <trkpt lat="45.3165" lon="6.132">
        <ele>1591.81</ele>
        <time>2020-06-23T08:30:43.000Z</time>
      </trkpt>
      <trkpt lat="45.31639" lon="6.13199">
        <ele>1593.44</ele>
        <time>2020-06-23T08:30:57.000Z</time>
      </trkpt>
      <trkpt lat="45.31627" lon="6.13202">
        <ele>1594.86</ele>
        <time>2020-06-23T08:31:19.000Z</time>
      </trkpt>
      <trkpt lat="45.31615" lon="6.13199">
        <ele>1595.26</ele>
        <time>2020-06-23T08:31:33.000Z</time>
      </trkpt>
      <trkpt lat="45.31604" lon="6.13188">
        <ele>1596.34</ele>
        <time>2020-06-23T08:31:50.000Z</time>
      </trkpt>
      <trkpt lat="45.31593" lon="6.13179">
        <ele>1597.29</ele>
        <time>2020-06-23T08:32:05.000Z</time>
      </trkpt>
      <trkpt lat="45.3158" lon="6.13181">
        <ele>1598.69</ele>
        <time>2020-06-23T08:32:22.000Z</time>
      </trkpt>
      <trkpt lat="45.31571" lon="6.13184">
        <ele>1600.88</ele>
        <time>2020-06-23T08:33:01.000Z</time>
      </trkpt>
      <trkpt lat="45.31564" lon="6.13172">
        <ele>1607.06</ele>
        <time>2020-06-23T08:33:51.000Z</time>
      </trkpt>
      <trkpt lat="45.31567" lon="6.1316">
        <ele>1609.51</ele>
        <time>2020-06-23T08:34:34.000Z</time>
      </trkpt>
      <trkpt lat="45.31578" lon="6.13141">
        <ele>1612.54</ele>
        <time>2020-06-23T08:35:04.000Z</time>
      </trkpt>
      <trkpt lat="45.31596" lon="6.13066">
        <ele>1615.64</ele>
        <time>2020-06-23T08:41:48.000Z</time>
      </trkpt>
      <trkpt lat="45.31595" lon="6.13051">
        <ele>1615.34</ele>
        <time>2020-06-23T08:42:05.000Z</time>
      </trkpt>
      <trkpt lat="45.31592" lon="6.13037">
        <ele>1615.86</ele>
        <time>2020-06-23T08:42:11.000Z</time>
      </trkpt>
      <trkpt lat="45.31592" lon="6.13024">
        <ele>1615.79</ele>
        <time>2020-06-23T08:42:20.000Z</time>
      </trkpt>
      <trkpt lat="45.31594" lon="6.13011">
        <ele>1614.59</ele>
        <time>2020-06-23T08:42:28.000Z</time>
      </trkpt>
      <trkpt lat="45.31592" lon="6.12998">
        <ele>1612.69</ele>
        <time>2020-06-23T08:42:37.000Z</time>
      </trkpt>
      <trkpt lat="45.31589" lon="6.12984">
        <ele>1610.54</ele>
        <time>2020-06-23T08:42:52.000Z</time>
      </trkpt>
      <trkpt lat="45.31583" lon="6.12974">
        <ele>1608.76</ele>
        <time>2020-06-23T08:43:03.000Z</time>
      </trkpt>
      <trkpt lat="45.31588" lon="6.12962">
        <ele>1607.32</ele>
        <time>2020-06-23T08:43:20.000Z</time>
      </trkpt>
      <trkpt lat="45.31589" lon="6.12948">
        <ele>1610.89</ele>
        <time>2020-06-23T08:47:12.000Z</time>
      </trkpt>
      <trkpt lat="45.31592" lon="6.12962">
        <ele>1614.54</ele>
        <time>2020-06-23T08:52:57.000Z</time>
      </trkpt>
      <trkpt lat="45.31583" lon="6.12958">
        <ele>1616.14</ele>
        <time>2020-06-23T09:01:12.000Z</time>
      </trkpt>
      <trkpt lat="45.31574" lon="6.12952">
        <ele>1615.37</ele>
        <time>2020-06-23T09:01:22.000Z</time>
      </trkpt>
      <trkpt lat="45.31567" lon="6.12943">
        <ele>1614.45</ele>
        <time>2020-06-23T09:01:31.000Z</time>
      </trkpt>
      <trkpt lat="45.31564" lon="6.12927">
        <ele>1613.19</ele>
        <time>2020-06-23T09:01:46.000Z</time>
      </trkpt>
      <trkpt lat="45.31563" lon="6.1291">
        <ele>1612.57</ele>
        <time>2020-06-23T09:02:08.000Z</time>
      </trkpt>
      <trkpt lat="45.31554" lon="6.12899">
        <ele>1613.04</ele>
        <time>2020-06-23T09:02:26.000Z</time>
      </trkpt>
      <trkpt lat="45.31545" lon="6.1289">
        <ele>1614.12</ele>
        <time>2020-06-23T09:02:51.000Z</time>
      </trkpt>
      <trkpt lat="45.31538" lon="6.12878">
        <ele>1617.24</ele>
        <time>2020-06-23T09:03:12.000Z</time>
      </trkpt>
      <trkpt lat="45.31538" lon="6.12864">
        <ele>1618.77</ele>
        <time>2020-06-23T09:03:32.000Z</time>
      </trkpt>
      <trkpt lat="45.31541" lon="6.12847">
        <ele>1620.89</ele>
        <time>2020-06-23T09:03:51.000Z</time>
      </trkpt>
      <trkpt lat="45.31547" lon="6.12833">
        <ele>1623.32</ele>
        <time>2020-06-23T09:04:07.000Z</time>
      </trkpt>
      <trkpt lat="45.31551" lon="6.12822">
        <ele>1625.1</ele>
        <time>2020-06-23T09:04:17.000Z</time>
      </trkpt>
      <trkpt lat="45.31546" lon="6.12809">
        <ele>1625.62</ele>
        <time>2020-06-23T09:04:35.000Z</time>
      </trkpt>
      <trkpt lat="45.31549" lon="6.12793">
        <ele>1625.82</ele>
        <time>2020-06-23T09:04:53.000Z</time>
      </trkpt>
      <trkpt lat="45.31556" lon="6.12779">
        <ele>1626.47</ele>
        <time>2020-06-23T09:05:16.000Z</time>
      </trkpt>
      <trkpt lat="45.31561" lon="6.12765">
        <ele>1630.6</ele>
        <time>2020-06-23T09:05:42.000Z</time>
      </trkpt>
      <trkpt lat="45.3156" lon="6.12749">
        <ele>1634.1</ele>
        <time>2020-06-23T09:06:03.000Z</time>
      </trkpt>
      <trkpt lat="45.31563" lon="6.12735">
        <ele>1637.72</ele>
        <time>2020-06-23T09:06:29.000Z</time>
      </trkpt>
      <trkpt lat="45.3156" lon="6.12721">
        <ele>1639.85</ele>
        <time>2020-06-23T09:06:58.000Z</time>
      </trkpt>
      <trkpt lat="45.31564" lon="6.12707">
        <ele>1640.62</ele>
        <time>2020-06-23T09:07:17.000Z</time>
      </trkpt>
      <trkpt lat="45.31565" lon="6.12692">
        <ele>1642.52</ele>
        <time>2020-06-23T09:07:47.000Z</time>
      </trkpt>
      <trkpt lat="45.31564" lon="6.12677">
        <ele>1644.47</ele>
        <time>2020-06-23T09:08:08.000Z</time>
      </trkpt>
      <trkpt lat="45.31562" lon="6.12662">
        <ele>1647.25</ele>
        <time>2020-06-23T09:08:33.000Z</time>
      </trkpt>
      <trkpt lat="45.31566" lon="6.12649">
        <ele>1651.03</ele>
        <time>2020-06-23T09:08:56.000Z</time>
      </trkpt>
      <trkpt lat="45.31564" lon="6.12633">
        <ele>1655.15</ele>
        <time>2020-06-23T09:09:31.000Z</time>
      </trkpt>
      <trkpt lat="45.31564" lon="6.12619">
        <ele>1658.63</ele>
        <time>2020-06-23T09:09:57.000Z</time>
      </trkpt>
      <trkpt lat="45.31563" lon="6.12605">
        <ele>1661.8</ele>
        <time>2020-06-23T09:10:46.000Z</time>
      </trkpt>
      <trkpt lat="45.31561" lon="6.1259">
        <ele>1663.4</ele>
        <time>2020-06-23T09:11:08.000Z</time>
      </trkpt>
      <trkpt lat="45.31561" lon="6.12576">
        <ele>1665.78</ele>
        <time>2020-06-23T09:11:54.000Z</time>
      </trkpt>
      <trkpt lat="45.31555" lon="6.12563">
        <ele>1669.23</ele>
        <time>2020-06-23T09:13:04.000Z</time>
      </trkpt>
      <trkpt lat="45.31547" lon="6.12554">
        <ele>1672.8</ele>
        <time>2020-06-23T09:13:43.000Z</time>
      </trkpt>
      <trkpt lat="45.31542" lon="6.12541">
        <ele>1674.7</ele>
        <time>2020-06-23T09:14:01.000Z</time>
      </trkpt>
      <trkpt lat="45.31546" lon="6.12526">
        <ele>1676.78</ele>
        <time>2020-06-23T09:14:17.000Z</time>
      </trkpt>
      <trkpt lat="45.31545" lon="6.12512">
        <ele>1679.48</ele>
        <time>2020-06-23T09:14:41.000Z</time>
      </trkpt>
      <trkpt lat="45.31541" lon="6.12498">
        <ele>1682.5</ele>
        <time>2020-06-23T09:15:03.000Z</time>
      </trkpt>
      <trkpt lat="45.31537" lon="6.12484">
        <ele>1686.2</ele>
        <time>2020-06-23T09:15:39.000Z</time>
      </trkpt>
      <trkpt lat="45.31534" lon="6.12469">
        <ele>1688.48</ele>
        <time>2020-06-23T09:16:01.000Z</time>
      </trkpt>
      <trkpt lat="45.31533" lon="6.12452">
        <ele>1691.2</ele>
        <time>2020-06-23T09:16:21.000Z</time>
      </trkpt>
      <trkpt lat="45.3153" lon="6.12436">
        <ele>1694.28</ele>
        <time>2020-06-23T09:16:37.000Z</time>
      </trkpt>
      <trkpt lat="45.31523" lon="6.12424">
        <ele>1698.83</ele>
        <time>2020-06-23T09:17:34.000Z</time>
      </trkpt>
      <trkpt lat="45.31513" lon="6.12423">
        <ele>1703.98</ele>
        <time>2020-06-23T09:18:41.000Z</time>
      </trkpt>
      <trkpt lat="45.31506" lon="6.12411">
        <ele>1708.65</ele>
        <time>2020-06-23T09:19:03.000Z</time>
      </trkpt>
      <trkpt lat="45.31503" lon="6.12396">
        <ele>1710.33</ele>
        <time>2020-06-23T09:19:20.000Z</time>
      </trkpt>
      <trkpt lat="45.31501" lon="6.1238">
        <ele>1712.38</ele>
        <time>2020-06-23T09:19:39.000Z</time>
      </trkpt>
      <trkpt lat="45.31504" lon="6.12368">
        <ele>1716.52</ele>
        <time>2020-06-23T09:19:47.000Z</time>
      </trkpt>
      <trkpt lat="45.3151" lon="6.12357">
        <ele>1719.31</ele>
        <time>2020-06-23T09:20:04.000Z</time>
      </trkpt>
      <trkpt lat="45.3151" lon="6.1234">
        <ele>1721.58</ele>
        <time>2020-06-23T09:20:18.000Z</time>
      </trkpt>
      <trkpt lat="45.31515" lon="6.12324">
        <ele>1723.71</ele>
        <time>2020-06-23T09:20:40.000Z</time>
      </trkpt>
      <trkpt lat="45.31523" lon="6.1233">
        <ele>1757.73</ele>
        <time>2020-06-23T09:20:54.000Z</time>
      </trkpt>
      <trkpt lat="45.31533" lon="6.12318">
        <ele>1753.53</ele>
        <time>2020-06-23T09:21:25.000Z</time>
      </trkpt>
      <trkpt lat="45.3154" lon="6.12306">
        <ele>1752.46</ele>
        <time>2020-06-23T09:21:36.000Z</time>
      </trkpt>
      <trkpt lat="45.31549" lon="6.12291">
        <ele>1751.06</ele>
        <time>2020-06-23T09:21:52.000Z</time>
      </trkpt>
      <trkpt lat="45.31554" lon="6.12274">
        <ele>1750.21</ele>
        <time>2020-06-23T09:22:11.000Z</time>
      </trkpt>
      <trkpt lat="45.3156" lon="6.12258">
        <ele>1750.56</ele>
        <time>2020-06-23T09:22:29.000Z</time>
      </trkpt>
      <trkpt lat="45.31569" lon="6.12247">
        <ele>1752.76</ele>
        <time>2020-06-23T09:22:47.000Z</time>
      </trkpt>
      <trkpt lat="45.31571" lon="6.1223">
        <ele>1753.91</ele>
        <time>2020-06-23T09:23:04.000Z</time>
      </trkpt>
      <trkpt lat="45.31567" lon="6.12213">
        <ele>1755.51</ele>
        <time>2020-06-23T09:23:18.000Z</time>
      </trkpt>
      <trkpt lat="45.31561" lon="6.122">
        <ele>1756.84</ele>
        <time>2020-06-23T09:23:38.000Z</time>
      </trkpt>
      <trkpt lat="45.31556" lon="6.12185">
        <ele>1757.34</ele>
        <time>2020-06-23T09:23:55.000Z</time>
      </trkpt>
      <trkpt lat="45.3155" lon="6.1217">
        <ele>1759.09</ele>
        <time>2020-06-23T09:24:16.000Z</time>
      </trkpt>
      <trkpt lat="45.31551" lon="6.12153">
        <ele>1761.96</ele>
        <time>2020-06-23T09:24:35.000Z</time>
      </trkpt>
      <trkpt lat="45.31554" lon="6.12135">
        <ele>1763.91</ele>
        <time>2020-06-23T09:24:54.000Z</time>
      </trkpt>
      <trkpt lat="45.31558" lon="6.1212">
        <ele>1765.21</ele>
        <time>2020-06-23T09:25:15.000Z</time>
      </trkpt>
      <trkpt lat="45.31563" lon="6.12105">
        <ele>1765.94</ele>
        <time>2020-06-23T09:25:30.000Z</time>
      </trkpt>
      <trkpt lat="45.31569" lon="6.12083">
        <ele>1766.64</ele>
        <time>2020-06-23T09:25:50.000Z</time>
      </trkpt>
      <trkpt lat="45.31574" lon="6.12069">
        <ele>1767.04</ele>
        <time>2020-06-23T09:26:06.000Z</time>
      </trkpt>
      <trkpt lat="45.31576" lon="6.12054">
        <ele>1767.52</ele>
        <time>2020-06-23T09:26:21.000Z</time>
      </trkpt>
      <trkpt lat="45.31579" lon="6.12039">
        <ele>1767.72</ele>
        <time>2020-06-23T09:26:43.000Z</time>
      </trkpt>
      <trkpt lat="45.31586" lon="6.12027">
        <ele>1767.77</ele>
        <time>2020-06-23T09:27:01.000Z</time>
      </trkpt>
      <trkpt lat="45.31594" lon="6.12018">
        <ele>1768.59</ele>
        <time>2020-06-23T09:27:22.000Z</time>
      </trkpt>
      <trkpt lat="45.31604" lon="6.1201">
        <ele>1770.3</ele>
        <time>2020-06-23T09:27:39.000Z</time>
      </trkpt>
      <trkpt lat="45.3161" lon="6.11998">
        <ele>1772.95</ele>
        <time>2020-06-23T09:27:58.000Z</time>
      </trkpt>
      <trkpt lat="45.31616" lon="6.11985">
        <ele>1774.6</ele>
        <time>2020-06-23T09:28:43.000Z</time>
      </trkpt>
      <trkpt lat="45.31616" lon="6.11968">
        <ele>1773.72</ele>
        <time>2020-06-23T09:28:57.000Z</time>
      </trkpt>
      <trkpt lat="45.31619" lon="6.11951">
        <ele>1772.9</ele>
        <time>2020-06-23T09:29:13.000Z</time>
      </trkpt>
      <trkpt lat="45.31616" lon="6.11936">
        <ele>1772.5</ele>
        <time>2020-06-23T09:29:28.000Z</time>
      </trkpt>
      <trkpt lat="45.31614" lon="6.11923">
        <ele>1773.25</ele>
        <time>2020-06-23T09:29:37.000Z</time>
      </trkpt>
      <trkpt lat="45.3161" lon="6.1191">
        <ele>1772.75</ele>
        <time>2020-06-23T09:30:01.000Z</time>
      </trkpt>
      <trkpt lat="45.31611" lon="6.11887">
        <ele>1774.92</ele>
        <time>2020-06-23T09:30:23.000Z</time>
      </trkpt>
      <trkpt lat="45.3161" lon="6.11866">
        <ele>1777.27</ele>
        <time>2020-06-23T09:30:44.000Z</time>
      </trkpt>
      <trkpt lat="45.31609" lon="6.11848">
        <ele>1778.85</ele>
        <time>2020-06-23T09:31:03.000Z</time>
      </trkpt>
      <trkpt lat="45.31609" lon="6.11834">
        <ele>1778.8</ele>
        <time>2020-06-23T09:31:29.000Z</time>
      </trkpt>
      <trkpt lat="45.31613" lon="6.11818">
        <ele>1778.63</ele>
        <time>2020-06-23T09:31:45.000Z</time>
      </trkpt>
      <trkpt lat="45.31617" lon="6.11805">
        <ele>1778.57</ele>
        <time>2020-06-23T09:31:55.000Z</time>
      </trkpt>
      <trkpt lat="45.31618" lon="6.11791">
        <ele>1778.5</ele>
        <time>2020-06-23T09:32:08.000Z</time>
      </trkpt>
      <trkpt lat="45.3162" lon="6.11774">
        <ele>1778.65</ele>
        <time>2020-06-23T09:32:26.000Z</time>
      </trkpt>
      <trkpt lat="45.31621" lon="6.11758">
        <ele>1778.4</ele>
        <time>2020-06-23T09:32:46.000Z</time>
      </trkpt>
      <trkpt lat="45.31624" lon="6.11738">
        <ele>1776.48</ele>
        <time>2020-06-23T09:33:02.000Z</time>
      </trkpt>
      <trkpt lat="45.3163" lon="6.11724">
        <ele>1775.75</ele>
        <time>2020-06-23T09:33:17.000Z</time>
      </trkpt>
      <trkpt lat="45.31633" lon="6.11711">
        <ele>1776.42</ele>
        <time>2020-06-23T09:33:32.000Z</time>
      </trkpt>
      <trkpt lat="45.31635" lon="6.11698">
        <ele>1777.61</ele>
        <time>2020-06-23T09:33:44.000Z</time>
      </trkpt>
      <trkpt lat="45.31629" lon="6.11685">
        <ele>1779.48</ele>
        <time>2020-06-23T09:34:12.000Z</time>
      </trkpt>
      <trkpt lat="45.31626" lon="6.11672">
        <ele>1781.81</ele>
        <time>2020-06-23T09:34:34.000Z</time>
      </trkpt>
      <trkpt lat="45.31624" lon="6.11658">
        <ele>1784.43</ele>
        <time>2020-06-23T09:35:03.000Z</time>
      </trkpt>
      <trkpt lat="45.31621" lon="6.11643">
        <ele>1785.16</ele>
        <time>2020-06-23T09:35:23.000Z</time>
      </trkpt>
      <trkpt lat="45.31612" lon="6.11636">
        <ele>1784.33</ele>
        <time>2020-06-23T09:35:46.000Z</time>
      </trkpt>
      <trkpt lat="45.31603" lon="6.11629">
        <ele>1786.58</ele>
        <time>2020-06-23T09:36:30.000Z</time>
      </trkpt>
      <trkpt lat="45.31597" lon="6.11619">
        <ele>1790.23</ele>
        <time>2020-06-23T09:37:07.000Z</time>
      </trkpt>
      <trkpt lat="45.31594" lon="6.11605">
        <ele>1793.71</ele>
        <time>2020-06-23T09:37:50.000Z</time>
      </trkpt>
      <trkpt lat="45.316" lon="6.1159">
        <ele>1798.13</ele>
        <time>2020-06-23T09:38:08.000Z</time>
      </trkpt>
      <trkpt lat="45.31609" lon="6.11578">
        <ele>1800.86</ele>
        <time>2020-06-23T09:38:31.000Z</time>
      </trkpt>
      <trkpt lat="45.31608" lon="6.11564">
        <ele>1801.26</ele>
        <time>2020-06-23T09:39:10.000Z</time>
      </trkpt>
      <trkpt lat="45.31613" lon="6.1155">
        <ele>1825.58</ele>
        <time>2020-06-23T09:39:42.000Z</time>
      </trkpt>
      <trkpt lat="45.31615" lon="6.11533">
        <ele>1830.46</ele>
        <time>2020-06-23T09:40:13.000Z</time>
      </trkpt>
      <trkpt lat="45.31621" lon="6.11519">
        <ele>1833.43</ele>
        <time>2020-06-23T09:40:28.000Z</time>
      </trkpt>
      <trkpt lat="45.31629" lon="6.11502">
        <ele>1835.91</ele>
        <time>2020-06-23T09:40:47.000Z</time>
      </trkpt>
      <trkpt lat="45.31635" lon="6.11492">
        <ele>1837.64</ele>
        <time>2020-06-23T09:40:57.000Z</time>
      </trkpt>
      <trkpt lat="45.31643" lon="6.11486">
        <ele>1839.32</ele>
        <time>2020-06-23T09:41:05.000Z</time>
      </trkpt>
      <trkpt lat="45.31648" lon="6.11475">
        <ele>1840.94</ele>
        <time>2020-06-23T09:41:14.000Z</time>
      </trkpt>
      <trkpt lat="45.31656" lon="6.11468">
        <ele>1842.65</ele>
        <time>2020-06-23T09:41:22.000Z</time>
      </trkpt>
      <trkpt lat="45.31662" lon="6.11458">
        <ele>1844.52</ele>
        <time>2020-06-23T09:41:29.000Z</time>
      </trkpt>
      <trkpt lat="45.31669" lon="6.1144">
        <ele>1847.86</ele>
        <time>2020-06-23T09:42:10.000Z</time>
      </trkpt>
      <trkpt lat="45.31678" lon="6.1144">
        <ele>1849.59</ele>
        <time>2020-06-23T09:42:27.000Z</time>
      </trkpt>
      <trkpt lat="45.3169" lon="6.11438">
        <ele>1850.54</ele>
        <time>2020-06-23T09:42:44.000Z</time>
      </trkpt>
      <trkpt lat="45.31682" lon="6.11446">
        <ele>1851.14</ele>
        <time>2020-06-23T09:43:39.000Z</time>
      </trkpt>
      <trkpt lat="45.31695" lon="6.11433">
        <ele>1850.37</ele>
        <time>2020-06-23T09:43:44.000Z</time>
      </trkpt>
      <trkpt lat="45.31697" lon="6.11414">
        <ele>1848.69</ele>
        <time>2020-06-23T09:46:32.000Z</time>
      </trkpt>
      <trkpt lat="45.31709" lon="6.11408">
        <ele>1848.31</ele>
        <time>2020-06-23T09:46:37.000Z</time>
      </trkpt>
      <trkpt lat="45.31701" lon="6.11427">
        <ele>1849.34</ele>
        <time>2020-06-23T09:46:42.000Z</time>
      </trkpt>
      <trkpt lat="45.31692" lon="6.11431">
        <ele>1850.29</ele>
        <time>2020-06-23T09:47:40.000Z</time>
      </trkpt>
      <trkpt lat="45.31685" lon="6.11412">
        <ele>1849.82</ele>
        <time>2020-06-23T09:48:05.000Z</time>
      </trkpt>
      <trkpt lat="45.31674" lon="6.11412">
        <ele>1850.69</ele>
        <time>2020-06-23T09:48:38.000Z</time>
      </trkpt>
      <trkpt lat="45.31685" lon="6.1141">
        <ele>1851.92</ele>
        <time>2020-06-23T09:49:27.000Z</time>
      </trkpt>
      <trkpt lat="45.31693" lon="6.11402">
        <ele>1853.67</ele>
        <time>2020-06-23T09:51:19.000Z</time>
      </trkpt>
      <trkpt lat="45.31698" lon="6.1139">
        <ele>1851.59</ele>
        <time>2020-06-23T09:51:30.000Z</time>
      </trkpt>
      <trkpt lat="45.31705" lon="6.11376">
        <ele>1851.97</ele>
        <time>2020-06-23T09:51:52.000Z</time>
      </trkpt>
      <trkpt lat="45.31699" lon="6.11362">
        <ele>1850.42</ele>
        <time>2020-06-23T09:54:29.000Z</time>
      </trkpt>
      <trkpt lat="45.31708" lon="6.11361">
        <ele>1848.13</ele>
        <time>2020-06-23T09:55:02.000Z</time>
      </trkpt>
      <trkpt lat="45.31696" lon="6.11345">
        <ele>1849.97</ele>
        <time>2020-06-23T09:56:39.000Z</time>
      </trkpt>
      <trkpt lat="45.31697" lon="6.11361">
        <ele>1850.02</ele>
        <time>2020-06-23T09:56:44.000Z</time>
      </trkpt>
      <trkpt lat="45.31707" lon="6.11365">
        <ele>1853.47</ele>
        <time>2020-06-23T10:11:15.000Z</time>
      </trkpt>
      <trkpt lat="45.31704" lon="6.11378">
        <ele>1854.67</ele>
        <time>2020-06-23T10:12:04.000Z</time>
      </trkpt>
      <trkpt lat="45.31699" lon="6.11388">
        <ele>1856.04</ele>
        <time>2020-06-23T10:12:31.000Z</time>
      </trkpt>
      <trkpt lat="45.31704" lon="6.11377">
        <ele>1856.5</ele>
        <time>2020-06-23T10:13:59.000Z</time>
      </trkpt>
      <trkpt lat="45.31702" lon="6.11365">
        <ele>1855.3</ele>
        <time>2020-06-23T10:14:08.000Z</time>
      </trkpt>
      <trkpt lat="45.31714" lon="6.11353">
        <ele>1852.22</ele>
        <time>2020-06-23T10:19:28.000Z</time>
      </trkpt>
      <trkpt lat="45.31718" lon="6.11339">
        <ele>1850.07</ele>
        <time>2020-06-23T10:19:53.000Z</time>
      </trkpt>
      <trkpt lat="45.31719" lon="6.11324">
        <ele>1847.29</ele>
        <time>2020-06-23T10:20:29.000Z</time>
      </trkpt>
      <trkpt lat="45.31718" lon="6.1131">
        <ele>1845.99</ele>
        <time>2020-06-23T10:20:58.000Z</time>
      </trkpt>
      <trkpt lat="45.31725" lon="6.11299">
        <ele>1846.67</ele>
        <time>2020-06-23T10:21:19.000Z</time>
      </trkpt>
      <trkpt lat="45.31734" lon="6.11293">
        <ele>1847.82</ele>
        <time>2020-06-23T10:21:35.000Z</time>
      </trkpt>
      <trkpt lat="45.31744" lon="6.11294">
        <ele>1844.37</ele>
        <time>2020-06-23T10:22:07.000Z</time>
      </trkpt>
      <trkpt lat="45.31753" lon="6.11289">
        <ele>1840.2</ele>
        <time>2020-06-23T10:22:43.000Z</time>
      </trkpt>
      <trkpt lat="45.31758" lon="6.11278">
        <ele>1834.09</ele>
        <time>2020-06-23T10:22:54.000Z</time>
      </trkpt>
      <trkpt lat="45.31756" lon="6.11264">
        <ele>1828.19</ele>
        <time>2020-06-23T10:23:01.000Z</time>
      </trkpt>
      <trkpt lat="45.31758" lon="6.11251">
        <ele>1822.78</ele>
        <time>2020-06-23T10:23:10.000Z</time>
      </trkpt>
      <trkpt lat="45.31763" lon="6.11235">
        <ele>1814.25</ele>
        <time>2020-06-23T10:23:26.000Z</time>
      </trkpt>
      <trkpt lat="45.31769" lon="6.11224">
        <ele>1806.53</ele>
        <time>2020-06-23T10:23:35.000Z</time>
      </trkpt>
      <trkpt lat="45.31776" lon="6.11213">
        <ele>1801.48</ele>
        <time>2020-06-23T10:23:44.000Z</time>
      </trkpt>
      <trkpt lat="45.31779" lon="6.11201">
        <ele>1799.47</ele>
        <time>2020-06-23T10:23:52.000Z</time>
      </trkpt>
      <trkpt lat="45.31784" lon="6.11191">
        <ele>1797.55</ele>
        <time>2020-06-23T10:24:04.000Z</time>
      </trkpt>
      <trkpt lat="45.31791" lon="6.11178">
        <ele>1795.08</ele>
        <time>2020-06-23T10:24:20.000Z</time>
      </trkpt>
      <trkpt lat="45.31789" lon="6.11163">
        <ele>1793.38</ele>
        <time>2020-06-23T10:25:05.000Z</time>
      </trkpt>
      <trkpt lat="45.31796" lon="6.11155">
        <ele>1792.07</ele>
        <time>2020-06-23T10:25:14.000Z</time>
      </trkpt>
      <trkpt lat="45.31802" lon="6.11143">
        <ele>1788.68</ele>
        <time>2020-06-23T10:25:23.000Z</time>
      </trkpt>
      <trkpt lat="45.31805" lon="6.11129">
        <ele>1785.01</ele>
        <time>2020-06-23T10:25:32.000Z</time>
      </trkpt>
      <trkpt lat="45.31809" lon="6.11116">
        <ele>1781.8</ele>
        <time>2020-06-23T10:25:41.000Z</time>
      </trkpt>
      <trkpt lat="45.31811" lon="6.11103">
        <ele>1779.38</ele>
        <time>2020-06-23T10:25:49.000Z</time>
      </trkpt>
      <trkpt lat="45.31816" lon="6.11092">
        <ele>1776.74</ele>
        <time>2020-06-23T10:25:58.000Z</time>
      </trkpt>
      <trkpt lat="45.31819" lon="6.1108">
        <ele>1775.5</ele>
        <time>2020-06-23T10:26:05.000Z</time>
      </trkpt>
      <trkpt lat="45.31823" lon="6.11067">
        <ele>1774.46</ele>
        <time>2020-06-23T10:26:16.000Z</time>
      </trkpt>
      <trkpt lat="45.31828" lon="6.11052">
        <ele>1773.86</ele>
        <time>2020-06-23T10:26:27.000Z</time>
      </trkpt>
      <trkpt lat="45.31835" lon="6.11031">
        <ele>1773.13</ele>
        <time>2020-06-23T10:26:49.000Z</time>
      </trkpt>
      <trkpt lat="45.3185" lon="6.11018">
        <ele>1772.36</ele>
        <time>2020-06-23T10:35:43.000Z</time>
      </trkpt>
      <trkpt lat="45.31868" lon="6.11017">
        <ele>1800.4</ele>
        <time>2020-06-23T10:35:48.000Z</time>
      </trkpt>
      <trkpt lat="45.31841" lon="6.11027">
        <ele>1794.61</ele>
        <time>2020-06-23T10:35:53.000Z</time>
      </trkpt>
      <trkpt lat="45.31851" lon="6.11028">
        <ele>1790.3</ele>
        <time>2020-06-23T10:37:19.000Z</time>
      </trkpt>
      <trkpt lat="45.31842" lon="6.11029">
        <ele>1788.21</ele>
        <time>2020-06-23T10:37:24.000Z</time>
      </trkpt>
      <trkpt lat="45.31833" lon="6.11034">
        <ele>1786.79</ele>
        <time>2020-06-23T11:01:19.000Z</time>
      </trkpt>
      <trkpt lat="45.31826" lon="6.11051">
        <ele>1783.43</ele>
        <time>2020-06-23T11:01:34.000Z</time>
      </trkpt>
      <trkpt lat="45.31821" lon="6.11064">
        <ele>1780.23</ele>
        <time>2020-06-23T11:01:43.000Z</time>
      </trkpt>
      <trkpt lat="45.31816" lon="6.11075">
        <ele>1775.37</ele>
        <time>2020-06-23T11:01:52.000Z</time>
      </trkpt>
      <trkpt lat="45.31811" lon="6.11087">
        <ele>1773.07</ele>
        <time>2020-06-23T11:02:01.000Z</time>
      </trkpt>
      <trkpt lat="45.31803" lon="6.11096">
        <ele>1771.83</ele>
        <time>2020-06-23T11:02:10.000Z</time>
      </trkpt>
      <trkpt lat="45.31794" lon="6.11102">
        <ele>1771.65</ele>
        <time>2020-06-23T11:02:18.000Z</time>
      </trkpt>
      <trkpt lat="45.31787" lon="6.11111">
        <ele>1771.38</ele>
        <time>2020-06-23T11:02:27.000Z</time>
      </trkpt>
      <trkpt lat="45.3178" lon="6.11119">
        <ele>1770.86</ele>
        <time>2020-06-23T11:02:34.000Z</time>
      </trkpt>
      <trkpt lat="45.31771" lon="6.11126">
        <ele>1769.51</ele>
        <time>2020-06-23T11:02:43.000Z</time>
      </trkpt>
      <trkpt lat="45.31761" lon="6.11132">
        <ele>1768.35</ele>
        <time>2020-06-23T11:02:55.000Z</time>
      </trkpt>
      <trkpt lat="45.31751" lon="6.11131">
        <ele>1766.78</ele>
        <time>2020-06-23T11:03:09.000Z</time>
      </trkpt>
      <trkpt lat="45.3174" lon="6.11129">
        <ele>1764.05</ele>
        <time>2020-06-23T11:03:22.000Z</time>
      </trkpt>
      <trkpt lat="45.31728" lon="6.11124">
        <ele>1762.78</ele>
        <time>2020-06-23T11:03:28.000Z</time>
      </trkpt>
      <trkpt lat="45.31737" lon="6.11135">
        <ele>1761.98</ele>
        <time>2020-06-23T11:03:33.000Z</time>
      </trkpt>
      <trkpt lat="45.31727" lon="6.11131">
        <ele>1760.31</ele>
        <time>2020-06-23T11:03:38.000Z</time>
      </trkpt>
      <trkpt lat="45.31717" lon="6.11128">
        <ele>1758.26</ele>
        <time>2020-06-23T11:03:48.000Z</time>
      </trkpt>
      <trkpt lat="45.31721" lon="6.11114">
        <ele>1758.78</ele>
        <time>2020-06-23T11:04:05.000Z</time>
      </trkpt>
      <trkpt lat="45.3172" lon="6.11095">
        <ele>1759.15</ele>
        <time>2020-06-23T11:04:28.000Z</time>
      </trkpt>
      <trkpt lat="45.31712" lon="6.11088">
        <ele>1753.9</ele>
        <time>2020-06-23T11:04:37.000Z</time>
      </trkpt>
      <trkpt lat="45.317" lon="6.11085">
        <ele>1750.2</ele>
        <time>2020-06-23T11:05:01.000Z</time>
      </trkpt>
      <trkpt lat="45.3169" lon="6.11076">
        <ele>1747.9</ele>
        <time>2020-06-23T11:05:22.000Z</time>
      </trkpt>
      <trkpt lat="45.31692" lon="6.11063">
        <ele>1747.18</ele>
        <time>2020-06-23T11:05:40.000Z</time>
      </trkpt>
      <trkpt lat="45.3169" lon="6.11049">
        <ele>1746.23</ele>
        <time>2020-06-23T11:05:56.000Z</time>
      </trkpt>
      <trkpt lat="45.31685" lon="6.11034">
        <ele>1744.18</ele>
        <time>2020-06-23T11:06:13.000Z</time>
      </trkpt>
      <trkpt lat="45.31681" lon="6.11021">
        <ele>1741.48</ele>
        <time>2020-06-23T11:06:29.000Z</time>
      </trkpt>
      <trkpt lat="45.31679" lon="6.11005">
        <ele>1738.33</ele>
        <time>2020-06-23T11:06:45.000Z</time>
      </trkpt>
      <trkpt lat="45.31682" lon="6.10987">
        <ele>1734.93</ele>
        <time>2020-06-23T11:07:00.000Z</time>
      </trkpt>
      <trkpt lat="45.31683" lon="6.10974">
        <ele>1729.22</ele>
        <time>2020-06-23T11:07:09.000Z</time>
      </trkpt>
      <trkpt lat="45.31685" lon="6.10961">
        <ele>1725.32</ele>
        <time>2020-06-23T11:07:17.000Z</time>
      </trkpt>
      <trkpt lat="45.31688" lon="6.10937">
        <ele>1718.28</ele>
        <time>2020-06-23T11:07:38.000Z</time>
      </trkpt>
      <trkpt lat="45.31684" lon="6.10925">
        <ele>1714.99</ele>
        <time>2020-06-23T11:07:46.000Z</time>
      </trkpt>
      <trkpt lat="45.31681" lon="6.10908">
        <ele>1709.13</ele>
        <time>2020-06-23T11:08:00.000Z</time>
      </trkpt>
      <trkpt lat="45.31676" lon="6.10892">
        <ele>1706</ele>
        <time>2020-06-23T11:08:16.000Z</time>
      </trkpt>
      <trkpt lat="45.31667" lon="6.10884">
        <ele>1701.45</ele>
        <time>2020-06-23T11:08:26.000Z</time>
      </trkpt>
      <trkpt lat="45.31662" lon="6.10874">
        <ele>1699.15</ele>
        <time>2020-06-23T11:08:42.000Z</time>
      </trkpt>
      <trkpt lat="45.31657" lon="6.10861">
        <ele>1695.27</ele>
        <time>2020-06-23T11:08:53.000Z</time>
      </trkpt>
      <trkpt lat="45.3165" lon="6.10853">
        <ele>1691.26</ele>
        <time>2020-06-23T11:09:03.000Z</time>
      </trkpt>
      <trkpt lat="45.31643" lon="6.10843">
        <ele>1687.28</ele>
        <time>2020-06-23T11:09:15.000Z</time>
      </trkpt>
      <trkpt lat="45.31636" lon="6.10835">
        <ele>1683.98</ele>
        <time>2020-06-23T11:09:27.000Z</time>
      </trkpt>
      <trkpt lat="45.31629" lon="6.10825">
        <ele>1681.76</ele>
        <time>2020-06-23T11:09:36.000Z</time>
      </trkpt>
      <trkpt lat="45.31622" lon="6.10816">
        <ele>1679.67</ele>
        <time>2020-06-23T11:09:45.000Z</time>
      </trkpt>
      <trkpt lat="45.31608" lon="6.10806">
        <ele>1677.2</ele>
        <time>2020-06-23T11:10:01.000Z</time>
      </trkpt>
      <trkpt lat="45.316" lon="6.108">
        <ele>1674.94</ele>
        <time>2020-06-23T11:10:09.000Z</time>
      </trkpt>
      <trkpt lat="45.3159" lon="6.10793">
        <ele>1673.88</ele>
        <time>2020-06-23T11:10:19.000Z</time>
      </trkpt>
      <trkpt lat="45.31581" lon="6.10797">
        <ele>1672.53</ele>
        <time>2020-06-23T11:10:27.000Z</time>
      </trkpt>
      <trkpt lat="45.31573" lon="6.10805">
        <ele>1671.83</ele>
        <time>2020-06-23T11:10:38.000Z</time>
      </trkpt>
      <trkpt lat="45.31565" lon="6.10814">
        <ele>1670.38</ele>
        <time>2020-06-23T11:10:49.000Z</time>
      </trkpt>
      <trkpt lat="45.31559" lon="6.10831">
        <ele>1668.88</ele>
        <time>2020-06-23T11:11:34.000Z</time>
      </trkpt>
      <trkpt lat="45.31554" lon="6.10841">
        <ele>1669.3</ele>
        <time>2020-06-23T11:14:46.000Z</time>
      </trkpt>
      <trkpt lat="45.31551" lon="6.10853">
        <ele>1669.85</ele>
        <time>2020-06-23T11:14:56.000Z</time>
      </trkpt>
      <trkpt lat="45.31549" lon="6.10866">
        <ele>1670.54</ele>
        <time>2020-06-23T11:15:04.000Z</time>
      </trkpt>
      <trkpt lat="45.31547" lon="6.10879">
        <ele>1671.81</ele>
        <time>2020-06-23T11:15:14.000Z</time>
      </trkpt>
      <trkpt lat="45.31556" lon="6.10872">
        <ele>1672.99</ele>
        <time>2020-06-23T11:17:17.000Z</time>
      </trkpt>
      <trkpt lat="45.31556" lon="6.10859">
        <ele>1672.34</ele>
        <time>2020-06-23T11:17:27.000Z</time>
      </trkpt>
      <trkpt lat="45.31562" lon="6.10845">
        <ele>1671.75</ele>
        <time>2020-06-23T11:17:41.000Z</time>
      </trkpt>
      <trkpt lat="45.3157" lon="6.10838">
        <ele>1672.05</ele>
        <time>2020-06-23T11:20:03.000Z</time>
      </trkpt>
      <trkpt lat="45.31573" lon="6.10825">
        <ele>1672.61</ele>
        <time>2020-06-23T11:30:23.000Z</time>
      </trkpt>
      <trkpt lat="45.31574" lon="6.10812">
        <ele>1671.44</ele>
        <time>2020-06-23T11:30:30.000Z</time>
      </trkpt>
      <trkpt lat="45.3158" lon="6.10801">
        <ele>1671.01</ele>
        <time>2020-06-23T11:30:40.000Z</time>
      </trkpt>
      <trkpt lat="45.31578" lon="6.10786">
        <ele>1670.88</ele>
        <time>2020-06-23T11:30:59.000Z</time>
      </trkpt>
      <trkpt lat="45.31569" lon="6.10779">
        <ele>1671.7</ele>
        <time>2020-06-23T11:31:09.000Z</time>
      </trkpt>
      <trkpt lat="45.31561" lon="6.10771">
        <ele>1673.05</ele>
        <time>2020-06-23T11:31:17.000Z</time>
      </trkpt>
      <trkpt lat="45.31554" lon="6.10763">
        <ele>1674.03</ele>
        <time>2020-06-23T11:31:45.000Z</time>
      </trkpt>
      <trkpt lat="45.31544" lon="6.10759">
        <ele>1674.68</ele>
        <time>2020-06-23T11:31:55.000Z</time>
      </trkpt>
      <trkpt lat="45.31534" lon="6.10751">
        <ele>1674.78</ele>
        <time>2020-06-23T11:32:04.000Z</time>
      </trkpt>
      <trkpt lat="45.31519" lon="6.10748">
        <ele>1676.15</ele>
        <time>2020-06-23T11:32:22.000Z</time>
      </trkpt>
      <trkpt lat="45.31508" lon="6.10747">
        <ele>1676.18</ele>
        <time>2020-06-23T11:32:32.000Z</time>
      </trkpt>
      <trkpt lat="45.31496" lon="6.10742">
        <ele>1675.85</ele>
        <time>2020-06-23T11:32:52.000Z</time>
      </trkpt>
      <trkpt lat="45.31478" lon="6.10742">
        <ele>1676.35</ele>
        <time>2020-06-23T11:33:13.000Z</time>
      </trkpt>
      <trkpt lat="45.31468" lon="6.10737">
        <ele>1676.5</ele>
        <time>2020-06-23T11:33:37.000Z</time>
      </trkpt>
      <trkpt lat="45.31458" lon="6.10734">
        <ele>1677.45</ele>
        <time>2020-06-23T11:34:11.000Z</time>
      </trkpt>
      <trkpt lat="45.31446" lon="6.1073">
        <ele>1679</ele>
        <time>2020-06-23T11:34:35.000Z</time>
      </trkpt>
      <trkpt lat="45.31435" lon="6.10724">
        <ele>1680.92</ele>
        <time>2020-06-23T11:34:51.000Z</time>
      </trkpt>
      <trkpt lat="45.31425" lon="6.10722">
        <ele>1682.35</ele>
        <time>2020-06-23T11:35:08.000Z</time>
      </trkpt>
      <trkpt lat="45.31414" lon="6.10723">
        <ele>1682.15</ele>
        <time>2020-06-23T11:35:18.000Z</time>
      </trkpt>
      <trkpt lat="45.31402" lon="6.10729">
        <ele>1682.1</ele>
        <time>2020-06-23T11:35:36.000Z</time>
      </trkpt>
      <trkpt lat="45.31393" lon="6.10723">
        <ele>1684.02</ele>
        <time>2020-06-23T11:35:53.000Z</time>
      </trkpt>
      <trkpt lat="45.31385" lon="6.1071">
        <ele>1687.52</ele>
        <time>2020-06-23T11:36:09.000Z</time>
      </trkpt>
      <trkpt lat="45.31384" lon="6.10695">
        <ele>1691.12</ele>
        <time>2020-06-23T11:36:23.000Z</time>
      </trkpt>
      <trkpt lat="45.3138" lon="6.10676">
        <ele>1695.22</ele>
        <time>2020-06-23T11:36:39.000Z</time>
      </trkpt>
      <trkpt lat="45.31376" lon="6.10663">
        <ele>1697.52</ele>
        <time>2020-06-23T11:36:52.000Z</time>
      </trkpt>
      <trkpt lat="45.31373" lon="6.1065">
        <ele>1699.45</ele>
        <time>2020-06-23T11:37:04.000Z</time>
      </trkpt>
      <trkpt lat="45.31369" lon="6.10637">
        <ele>1701.17</ele>
        <time>2020-06-23T11:37:20.000Z</time>
      </trkpt>
      <trkpt lat="45.31368" lon="6.1062">
        <ele>1703.45</ele>
        <time>2020-06-23T11:37:36.000Z</time>
      </trkpt>
      <trkpt lat="45.31358" lon="6.10616">
        <ele>1706.66</ele>
        <time>2020-06-23T11:38:16.000Z</time>
      </trkpt>
      <trkpt lat="45.31362" lon="6.10603">
        <ele>1707.76</ele>
        <time>2020-06-23T11:38:31.000Z</time>
      </trkpt>
      <trkpt lat="45.31365" lon="6.10591">
        <ele>1709.88</ele>
        <time>2020-06-23T11:38:39.000Z</time>
      </trkpt>
      <trkpt lat="45.3137" lon="6.10579">
        <ele>1712.58</ele>
        <time>2020-06-23T11:38:50.000Z</time>
      </trkpt>
      <trkpt lat="45.31375" lon="6.1056">
        <ele>1715.5</ele>
        <time>2020-06-23T11:39:09.000Z</time>
      </trkpt>
      <trkpt lat="45.31379" lon="6.10549">
        <ele>1717.09</ele>
        <time>2020-06-23T11:39:18.000Z</time>
      </trkpt>
      <trkpt lat="45.31381" lon="6.10536">
        <ele>1718.54</ele>
        <time>2020-06-23T11:39:29.000Z</time>
      </trkpt>
      <trkpt lat="45.31387" lon="6.10525">
        <ele>1718.58</ele>
        <time>2020-06-23T11:39:38.000Z</time>
      </trkpt>
      <trkpt lat="45.31388" lon="6.10512">
        <ele>1717.46</ele>
        <time>2020-06-23T11:39:47.000Z</time>
      </trkpt>
      <trkpt lat="45.31381" lon="6.10493">
        <ele>1715.98</ele>
        <time>2020-06-23T11:40:08.000Z</time>
      </trkpt>
      <trkpt lat="45.31369" lon="6.10485">
        <ele>1714.83</ele>
        <time>2020-06-23T11:40:30.000Z</time>
      </trkpt>
      <trkpt lat="45.31357" lon="6.10501">
        <ele>1716.38</ele>
        <time>2020-06-23T11:41:46.000Z</time>
      </trkpt>
      <trkpt lat="45.31349" lon="6.1051">
        <ele>1718.55</ele>
        <time>2020-06-23T11:42:04.000Z</time>
      </trkpt>
      <trkpt lat="45.31341" lon="6.10522">
        <ele>1720.57</ele>
        <time>2020-06-23T11:42:24.000Z</time>
      </trkpt>
      <trkpt lat="45.3133" lon="6.10522">
        <ele>1723.6</ele>
        <time>2020-06-23T11:42:53.000Z</time>
      </trkpt>
      <trkpt lat="45.3132" lon="6.1052">
        <ele>1724.85</ele>
        <time>2020-06-23T11:43:11.000Z</time>
      </trkpt>
      <trkpt lat="45.31306" lon="6.10519">
        <ele>1726.52</ele>
        <time>2020-06-23T11:43:36.000Z</time>
      </trkpt>
      <trkpt lat="45.31295" lon="6.10528">
        <ele>1737.62</ele>
        <time>2020-06-23T11:43:59.000Z</time>
      </trkpt>
      <trkpt lat="45.31278" lon="6.10534">
        <ele>1736.9</ele>
        <time>2020-06-23T11:44:21.000Z</time>
      </trkpt>
      <trkpt lat="45.31268" lon="6.10541">
        <ele>1737.87</ele>
        <time>2020-06-23T11:44:43.000Z</time>
      </trkpt>
      <trkpt lat="45.31256" lon="6.10546">
        <ele>1740.62</ele>
        <time>2020-06-23T11:45:02.000Z</time>
      </trkpt>
      <trkpt lat="45.31246" lon="6.10553">
        <ele>1743.44</ele>
        <time>2020-06-23T11:45:17.000Z</time>
      </trkpt>
      <trkpt lat="45.31237" lon="6.10562">
        <ele>1746.32</ele>
        <time>2020-06-23T11:45:38.000Z</time>
      </trkpt>
      <trkpt lat="45.31228" lon="6.10566">
        <ele>1747.46</ele>
        <time>2020-06-23T11:45:54.000Z</time>
      </trkpt>
      <trkpt lat="45.3122" lon="6.10573">
        <ele>1747.69</ele>
        <time>2020-06-23T11:46:04.000Z</time>
      </trkpt>
      <trkpt lat="45.31212" lon="6.10579">
        <ele>1748.66</ele>
        <time>2020-06-23T11:46:13.000Z</time>
      </trkpt>
      <trkpt lat="45.31203" lon="6.10583">
        <ele>1749.43</ele>
        <time>2020-06-23T11:46:23.000Z</time>
      </trkpt>
      <trkpt lat="45.31193" lon="6.10598">
        <ele>1750.39</ele>
        <time>2020-06-23T11:46:36.000Z</time>
      </trkpt>
      <trkpt lat="45.31187" lon="6.10619">
        <ele>1751.19</ele>
        <time>2020-06-23T11:46:53.000Z</time>
      </trkpt>
      <trkpt lat="45.31185" lon="6.10635">
        <ele>1751.86</ele>
        <time>2020-06-23T11:47:08.000Z</time>
      </trkpt>
      <trkpt lat="45.31179" lon="6.1065">
        <ele>1752.54</ele>
        <time>2020-06-23T11:47:26.000Z</time>
      </trkpt>
      <trkpt lat="45.3117" lon="6.10663">
        <ele>1753.01</ele>
        <time>2020-06-23T11:47:42.000Z</time>
      </trkpt>
      <trkpt lat="45.31159" lon="6.10671">
        <ele>1754.39</ele>
        <time>2020-06-23T11:47:58.000Z</time>
      </trkpt>
      <trkpt lat="45.3115" lon="6.10681">
        <ele>1756.44</ele>
        <time>2020-06-23T11:48:16.000Z</time>
      </trkpt>
      <trkpt lat="45.3114" lon="6.10688">
        <ele>1758.56</ele>
        <time>2020-06-23T11:48:33.000Z</time>
      </trkpt>
      <trkpt lat="45.31131" lon="6.10696">
        <ele>1759.63</ele>
        <time>2020-06-23T11:48:51.000Z</time>
      </trkpt>
      <trkpt lat="45.31122" lon="6.10708">
        <ele>1761.06</ele>
        <time>2020-06-23T11:49:06.000Z</time>
      </trkpt>
      <trkpt lat="45.3111" lon="6.10706">
        <ele>1763.18</ele>
        <time>2020-06-23T11:49:22.000Z</time>
      </trkpt>
      <trkpt lat="45.31099" lon="6.10704">
        <ele>1765.73</ele>
        <time>2020-06-23T11:49:38.000Z</time>
      </trkpt>
      <trkpt lat="45.31089" lon="6.10709">
        <ele>1768.13</ele>
        <time>2020-06-23T11:49:54.000Z</time>
      </trkpt>
      <trkpt lat="45.3108" lon="6.1072">
        <ele>1770.46</ele>
        <time>2020-06-23T11:50:11.000Z</time>
      </trkpt>
      <trkpt lat="45.31071" lon="6.10729">
        <ele>1773.13</ele>
        <time>2020-06-23T11:50:28.000Z</time>
      </trkpt>
      <trkpt lat="45.31063" lon="6.10741">
        <ele>1776.1</ele>
        <time>2020-06-23T11:50:53.000Z</time>
      </trkpt>
      <trkpt lat="45.31052" lon="6.1075">
        <ele>1778.2</ele>
        <time>2020-06-23T11:51:13.000Z</time>
      </trkpt>
      <trkpt lat="45.31044" lon="6.10761">
        <ele>1780.08</ele>
        <time>2020-06-23T11:51:32.000Z</time>
      </trkpt>
      <trkpt lat="45.31036" lon="6.10773">
        <ele>1782.03</ele>
        <time>2020-06-23T11:51:50.000Z</time>
      </trkpt>
      <trkpt lat="45.31034" lon="6.1079">
        <ele>1784.68</ele>
        <time>2020-06-23T11:52:09.000Z</time>
      </trkpt>
      <trkpt lat="45.31029" lon="6.10802">
        <ele>1786.08</ele>
        <time>2020-06-23T11:52:19.000Z</time>
      </trkpt>
      <trkpt lat="45.31023" lon="6.10812">
        <ele>1787.26</ele>
        <time>2020-06-23T11:52:29.000Z</time>
      </trkpt>
      <trkpt lat="45.31017" lon="6.10823">
        <ele>1787.93</ele>
        <time>2020-06-23T11:52:39.000Z</time>
      </trkpt>
      <trkpt lat="45.3101" lon="6.10838">
        <ele>1788.95</ele>
        <time>2020-06-23T11:52:54.000Z</time>
      </trkpt>
      <trkpt lat="45.30999" lon="6.10844">
        <ele>1790.15</ele>
        <time>2020-06-23T11:53:09.000Z</time>
      </trkpt>
      <trkpt lat="45.30989" lon="6.10849">
        <ele>1791.77</ele>
        <time>2020-06-23T11:53:28.000Z</time>
      </trkpt>
      <trkpt lat="45.30978" lon="6.1085">
        <ele>1794.22</ele>
        <time>2020-06-23T11:53:43.000Z</time>
      </trkpt>
      <trkpt lat="45.30971" lon="6.10861">
        <ele>1798.62</ele>
        <time>2020-06-23T11:54:08.000Z</time>
      </trkpt>
      <trkpt lat="45.30965" lon="6.10874">
        <ele>1802.7</ele>
        <time>2020-06-23T11:54:27.000Z</time>
      </trkpt>
      <trkpt lat="45.30956" lon="6.10882">
        <ele>1806.4</ele>
        <time>2020-06-23T11:54:46.000Z</time>
      </trkpt>
      <trkpt lat="45.3095" lon="6.10896">
        <ele>1810.77</ele>
        <time>2020-06-23T11:55:10.000Z</time>
      </trkpt>
      <trkpt lat="45.30943" lon="6.10907">
        <ele>1815.02</ele>
        <time>2020-06-23T11:55:33.000Z</time>
      </trkpt>
      <trkpt lat="45.30934" lon="6.10913">
        <ele>1818.57</ele>
        <time>2020-06-23T11:55:54.000Z</time>
      </trkpt>
      <trkpt lat="45.30924" lon="6.1092">
        <ele>1822.19</ele>
        <time>2020-06-23T11:56:15.000Z</time>
      </trkpt>
      <trkpt lat="45.30915" lon="6.10928">
        <ele>1824.49</ele>
        <time>2020-06-23T11:56:43.000Z</time>
      </trkpt>
      <trkpt lat="45.30905" lon="6.10934">
        <ele>1825.39</ele>
        <time>2020-06-23T11:57:09.000Z</time>
      </trkpt>
      <trkpt lat="45.30905" lon="6.10948">
        <ele>1829.57</ele>
        <time>2020-06-23T11:57:38.000Z</time>
      </trkpt>
      <trkpt lat="45.309" lon="6.1096">
        <ele>1834.12</ele>
        <time>2020-06-23T11:58:17.000Z</time>
      </trkpt>
      <trkpt lat="45.30903" lon="6.10974">
        <ele>1837.62</ele>
        <time>2020-06-23T11:58:56.000Z</time>
      </trkpt>
      <trkpt lat="45.30893" lon="6.10977">
        <ele>1840.77</ele>
        <time>2020-06-23T11:59:19.000Z</time>
      </trkpt>
      <trkpt lat="45.30883" lon="6.10984">
        <ele>1844.31</ele>
        <time>2020-06-23T11:59:53.000Z</time>
      </trkpt>
      <trkpt lat="45.30872" lon="6.10991">
        <ele>1849.71</ele>
        <time>2020-06-23T12:00:27.000Z</time>
      </trkpt>
      <trkpt lat="45.30863" lon="6.10995">
        <ele>1856.24</ele>
        <time>2020-06-23T12:01:01.000Z</time>
      </trkpt>
      <trkpt lat="45.30853" lon="6.11002">
        <ele>1859.46</ele>
        <time>2020-06-23T12:01:36.000Z</time>
      </trkpt>
      <trkpt lat="45.30845" lon="6.11012">
        <ele>1862.39</ele>
        <time>2020-06-23T12:01:58.000Z</time>
      </trkpt>
      <trkpt lat="45.30835" lon="6.11018">
        <ele>1866.64</ele>
        <time>2020-06-23T12:02:24.000Z</time>
      </trkpt>
      <trkpt lat="45.30828" lon="6.11027">
        <ele>1867.89</ele>
        <time>2020-06-23T12:02:46.000Z</time>
      </trkpt>
      <trkpt lat="45.30816" lon="6.11027">
        <ele>1868.99</ele>
        <time>2020-06-23T12:03:01.000Z</time>
      </trkpt>
      <trkpt lat="45.30805" lon="6.11033">
        <ele>1871.21</ele>
        <time>2020-06-23T12:03:19.000Z</time>
      </trkpt>
      <trkpt lat="45.30793" lon="6.11036">
        <ele>1880.63</ele>
        <time>2020-06-23T12:05:06.000Z</time>
      </trkpt>
      <trkpt lat="45.30783" lon="6.11034">
        <ele>1883.66</ele>
        <time>2020-06-23T12:05:14.000Z</time>
      </trkpt>
      <trkpt lat="45.30774" lon="6.11033">
        <ele>1888.16</ele>
        <time>2020-06-23T12:05:24.000Z</time>
      </trkpt>
      <trkpt lat="45.30763" lon="6.1103">
        <ele>1893.56</ele>
        <time>2020-06-23T12:05:45.000Z</time>
      </trkpt>
      <trkpt lat="45.30754" lon="6.11024">
        <ele>1894.38</ele>
        <time>2020-06-23T12:06:07.000Z</time>
      </trkpt>
      <trkpt lat="45.30744" lon="6.11014">
        <ele>1894.41</ele>
        <time>2020-06-23T12:06:37.000Z</time>
      </trkpt>
      <trkpt lat="45.30733" lon="6.11009">
        <ele>1895.61</ele>
        <time>2020-06-23T12:06:53.000Z</time>
      </trkpt>
      <trkpt lat="45.30732" lon="6.11022">
        <ele>1898.31</ele>
        <time>2020-06-23T12:07:18.000Z</time>
      </trkpt>
      <trkpt lat="45.30723" lon="6.11025">
        <ele>1900.31</ele>
        <time>2020-06-23T12:07:46.000Z</time>
      </trkpt>
      <trkpt lat="45.30713" lon="6.11024">
        <ele>1902.48</ele>
        <time>2020-06-23T12:08:07.000Z</time>
      </trkpt>
      <trkpt lat="45.30703" lon="6.11033">
        <ele>1905.88</ele>
        <time>2020-06-23T12:08:30.000Z</time>
      </trkpt>
      <trkpt lat="45.30693" lon="6.11032">
        <ele>1907.23</ele>
        <time>2020-06-23T12:08:50.000Z</time>
      </trkpt>
      <trkpt lat="45.30682" lon="6.11033">
        <ele>1908.08</ele>
        <time>2020-06-23T12:09:11.000Z</time>
      </trkpt>
      <trkpt lat="45.30672" lon="6.11037">
        <ele>1909.9</ele>
        <time>2020-06-23T12:09:32.000Z</time>
      </trkpt>
      <trkpt lat="45.30664" lon="6.11044">
        <ele>1916.5</ele>
        <time>2020-06-23T12:11:07.000Z</time>
      </trkpt>
      <trkpt lat="45.3065" lon="6.11038">
        <ele>1919.5</ele>
        <time>2020-06-23T12:11:28.000Z</time>
      </trkpt>
      <trkpt lat="45.30641" lon="6.11025">
        <ele>1921.95</ele>
        <time>2020-06-23T12:11:47.000Z</time>
      </trkpt>
      <trkpt lat="45.30625" lon="6.11019">
        <ele>1923.73</ele>
        <time>2020-06-23T12:12:25.000Z</time>
      </trkpt>
      <trkpt lat="45.30615" lon="6.11016">
        <ele>1924.3</ele>
        <time>2020-06-23T12:12:49.000Z</time>
      </trkpt>
      <trkpt lat="45.30606" lon="6.11008">
        <ele>1924.48</ele>
        <time>2020-06-23T12:13:13.000Z</time>
      </trkpt>
      <trkpt lat="45.30598" lon="6.10996">
        <ele>1925.2</ele>
        <time>2020-06-23T12:13:27.000Z</time>
      </trkpt>
      <trkpt lat="45.30592" lon="6.10983">
        <ele>1926.43</ele>
        <time>2020-06-23T12:13:50.000Z</time>
      </trkpt>
      <trkpt lat="45.30599" lon="6.10963">
        <ele>1928.93</ele>
        <time>2020-06-23T12:15:11.000Z</time>
      </trkpt>
      <trkpt lat="45.3058" lon="6.1096">
        <ele>1931.8</ele>
        <time>2020-06-23T12:15:16.000Z</time>
      </trkpt>
      <trkpt lat="45.30571" lon="6.10955">
        <ele>1936.59</ele>
        <time>2020-06-23T12:16:09.000Z</time>
      </trkpt>
      <trkpt lat="45.30564" lon="6.10945">
        <ele>1937.58</ele>
        <time>2020-06-23T12:16:24.000Z</time>
      </trkpt>
      <trkpt lat="45.30556" lon="6.10934">
        <ele>1939.78</ele>
        <time>2020-06-23T12:16:49.000Z</time>
      </trkpt>
      <trkpt lat="45.30547" lon="6.10924">
        <ele>1941.3</ele>
        <time>2020-06-23T12:17:14.000Z</time>
      </trkpt>
      <trkpt lat="45.3054" lon="6.10915">
        <ele>1941.88</ele>
        <time>2020-06-23T12:17:32.000Z</time>
      </trkpt>
      <trkpt lat="45.30534" lon="6.10905">
        <ele>1943.48</ele>
        <time>2020-06-23T12:17:41.000Z</time>
      </trkpt>
      <trkpt lat="45.30532" lon="6.10888">
        <ele>1944.25</ele>
        <time>2020-06-23T12:17:58.000Z</time>
      </trkpt>
      <trkpt lat="45.30534" lon="6.10875">
        <ele>1943.95</ele>
        <time>2020-06-23T12:18:07.000Z</time>
      </trkpt>
      <trkpt lat="45.30527" lon="6.10857">
        <ele>1944.8</ele>
        <time>2020-06-23T12:18:26.000Z</time>
      </trkpt>
      <trkpt lat="45.30523" lon="6.10834">
        <ele>1946.03</ele>
        <time>2020-06-23T12:18:51.000Z</time>
      </trkpt>
      <trkpt lat="45.3052" lon="6.10846">
        <ele>1950</ele>
        <time>2020-06-23T12:23:41.000Z</time>
      </trkpt>
      <trkpt lat="45.30516" lon="6.10861">
        <ele>1952.73</ele>
        <time>2020-06-23T12:23:56.000Z</time>
      </trkpt>
      <trkpt lat="45.30507" lon="6.1086">
        <ele>1952.1</ele>
        <time>2020-06-23T12:24:32.000Z</time>
      </trkpt>
      <trkpt lat="45.30496" lon="6.10867">
        <ele>1947.05</ele>
        <time>2020-06-23T12:25:05.000Z</time>
      </trkpt>
      <trkpt lat="45.30485" lon="6.10865">
        <ele>1946.32</ele>
        <time>2020-06-23T12:25:31.000Z</time>
      </trkpt>
      <trkpt lat="45.30475" lon="6.10871">
        <ele>1944.35</ele>
        <time>2020-06-23T12:25:54.000Z</time>
      </trkpt>
      <trkpt lat="45.30469" lon="6.1086">
        <ele>1938.95</ele>
        <time>2020-06-23T12:26:15.000Z</time>
      </trkpt>
      <trkpt lat="45.30459" lon="6.10866">
        <ele>1931.62</ele>
        <time>2020-06-23T12:26:40.000Z</time>
      </trkpt>
      <trkpt lat="45.30449" lon="6.10872">
        <ele>1926.82</ele>
        <time>2020-06-23T12:27:03.000Z</time>
      </trkpt>
      <trkpt lat="45.30442" lon="6.1088">
        <ele>1924.21</ele>
        <time>2020-06-23T12:27:16.000Z</time>
      </trkpt>
      <trkpt lat="45.30436" lon="6.10891">
        <ele>1922</ele>
        <time>2020-06-23T12:27:33.000Z</time>
      </trkpt>
      <trkpt lat="45.30433" lon="6.10906">
        <ele>1917.92</ele>
        <time>2020-06-23T12:27:55.000Z</time>
      </trkpt>
      <trkpt lat="45.30423" lon="6.10913">
        <ele>1914.62</ele>
        <time>2020-06-23T12:28:32.000Z</time>
      </trkpt>
      <trkpt lat="45.30419" lon="6.10927">
        <ele>1911.47</ele>
        <time>2020-06-23T12:28:51.000Z</time>
      </trkpt>
      <trkpt lat="45.30407" lon="6.10928">
        <ele>1907.59</ele>
        <time>2020-06-23T12:29:08.000Z</time>
      </trkpt>
      <trkpt lat="45.30401" lon="6.10911">
        <ele>1902.79</ele>
        <time>2020-06-23T12:29:22.000Z</time>
      </trkpt>
      <trkpt lat="45.30393" lon="6.10899">
        <ele>1897.09</ele>
        <time>2020-06-23T12:29:44.000Z</time>
      </trkpt>
      <trkpt lat="45.30392" lon="6.10886">
        <ele>1892.03</ele>
        <time>2020-06-23T12:29:53.000Z</time>
      </trkpt>
      <trkpt lat="45.30391" lon="6.10869">
        <ele>1887.09</ele>
        <time>2020-06-23T12:30:10.000Z</time>
      </trkpt>
      <trkpt lat="45.30387" lon="6.10853">
        <ele>1881.57</ele>
        <time>2020-06-23T12:30:28.000Z</time>
      </trkpt>
      <trkpt lat="45.30382" lon="6.1084">
        <ele>1877.47</ele>
        <time>2020-06-23T12:30:36.000Z</time>
      </trkpt>
      <trkpt lat="45.30377" lon="6.10824">
        <ele>1873.15</ele>
        <time>2020-06-23T12:30:50.000Z</time>
      </trkpt>
      <trkpt lat="45.30373" lon="6.10811">
        <ele>1869.6</ele>
        <time>2020-06-23T12:30:59.000Z</time>
      </trkpt>
      <trkpt lat="45.30371" lon="6.10798">
        <ele>1867.17</ele>
        <time>2020-06-23T12:31:08.000Z</time>
      </trkpt>
      <trkpt lat="45.3037" lon="6.10785">
        <ele>1865.58</ele>
        <time>2020-06-23T12:31:17.000Z</time>
      </trkpt>
      <trkpt lat="45.3037" lon="6.10769">
        <ele>1864.25</ele>
        <time>2020-06-23T12:31:27.000Z</time>
      </trkpt>
      <trkpt lat="45.30368" lon="6.10754">
        <ele>1861.67</ele>
        <time>2020-06-23T12:31:43.000Z</time>
      </trkpt>
      <trkpt lat="45.30364" lon="6.10743">
        <ele>1859.67</ele>
        <time>2020-06-23T12:31:55.000Z</time>
      </trkpt>
      <trkpt lat="45.30351" lon="6.10725">
        <ele>1856.15</ele>
        <time>2020-06-23T12:32:18.000Z</time>
      </trkpt>
      <trkpt lat="45.30346" lon="6.10709">
        <ele>1853.17</ele>
        <time>2020-06-23T12:32:38.000Z</time>
      </trkpt>
      <trkpt lat="45.30339" lon="6.10701">
        <ele>1849.97</ele>
        <time>2020-06-23T12:32:52.000Z</time>
      </trkpt>
      <trkpt lat="45.30331" lon="6.10678">
        <ele>1844.32</ele>
        <time>2020-06-23T12:33:18.000Z</time>
      </trkpt>
      <trkpt lat="45.30327" lon="6.10662">
        <ele>1840.22</ele>
        <time>2020-06-23T12:33:33.000Z</time>
      </trkpt>
      <trkpt lat="45.30318" lon="6.10652">
        <ele>1834.37</ele>
        <time>2020-06-23T12:33:58.000Z</time>
      </trkpt>
      <trkpt lat="45.30307" lon="6.10649">
        <ele>1830.32</ele>
        <time>2020-06-23T12:34:14.000Z</time>
      </trkpt>
      <trkpt lat="45.30298" lon="6.10642">
        <ele>1826.8</ele>
        <time>2020-06-23T12:34:35.000Z</time>
      </trkpt>
      <trkpt lat="45.30293" lon="6.10629">
        <ele>1823.4</ele>
        <time>2020-06-23T12:34:52.000Z</time>
      </trkpt>
      <trkpt lat="45.30287" lon="6.10618">
        <ele>1819.7</ele>
        <time>2020-06-23T12:35:04.000Z</time>
      </trkpt>
      <trkpt lat="45.30279" lon="6.10611">
        <ele>1816.8</ele>
        <time>2020-06-23T12:35:14.000Z</time>
      </trkpt>
      <trkpt lat="45.3027" lon="6.10592">
        <ele>1812.4</ele>
        <time>2020-06-23T12:35:31.000Z</time>
      </trkpt>
      <trkpt lat="45.3027" lon="6.10578">
        <ele>1807.7</ele>
        <time>2020-06-23T12:35:42.000Z</time>
      </trkpt>
      <trkpt lat="45.30264" lon="6.10565">
        <ele>1803.6</ele>
        <time>2020-06-23T12:35:54.000Z</time>
      </trkpt>
      <trkpt lat="45.30259" lon="6.10553">
        <ele>1801.39</ele>
        <time>2020-06-23T12:36:03.000Z</time>
      </trkpt>
      <trkpt lat="45.30247" lon="6.10548">
        <ele>1798.1</ele>
        <time>2020-06-23T12:36:25.000Z</time>
      </trkpt>
      <trkpt lat="45.30237" lon="6.10547">
        <ele>1795.4</ele>
        <time>2020-06-23T12:36:40.000Z</time>
      </trkpt>
      <trkpt lat="45.30225" lon="6.10553">
        <ele>1792.55</ele>
        <time>2020-06-23T12:36:57.000Z</time>
      </trkpt>
      <trkpt lat="45.30214" lon="6.10549">
        <ele>1790.97</ele>
        <time>2020-06-23T12:37:13.000Z</time>
      </trkpt>
      <trkpt lat="45.30203" lon="6.10553">
        <ele>1789.62</ele>
        <time>2020-06-23T12:37:26.000Z</time>
      </trkpt>
      <trkpt lat="45.30193" lon="6.10555">
        <ele>1788.54</ele>
        <time>2020-06-23T12:37:36.000Z</time>
      </trkpt>
      <trkpt lat="45.30183" lon="6.10559">
        <ele>1788.54</ele>
        <time>2020-06-23T12:37:49.000Z</time>
      </trkpt>
      <trkpt lat="45.30174" lon="6.10559">
        <ele>1786.24</ele>
        <time>2020-06-23T12:37:58.000Z</time>
      </trkpt>
      <trkpt lat="45.30164" lon="6.1056">
        <ele>1784.93</ele>
        <time>2020-06-23T12:38:12.000Z</time>
      </trkpt>
      <trkpt lat="45.30154" lon="6.10567">
        <ele>1784.04</ele>
        <time>2020-06-23T12:38:27.000Z</time>
      </trkpt>
      <trkpt lat="45.30143" lon="6.10572">
        <ele>1782.19</ele>
        <time>2020-06-23T12:39:01.000Z</time>
      </trkpt>
      <trkpt lat="45.3014" lon="6.10554">
        <ele>1771.39</ele>
        <time>2020-06-23T12:41:14.000Z</time>
      </trkpt>
      <trkpt lat="45.30142" lon="6.10529">
        <ele>1766.02</ele>
        <time>2020-06-23T12:41:37.000Z</time>
      </trkpt>
      <trkpt lat="45.30144" lon="6.10514">
        <ele>1762.92</ele>
        <time>2020-06-23T12:41:52.000Z</time>
      </trkpt>
      <trkpt lat="45.30141" lon="6.105">
        <ele>1759.24</ele>
        <time>2020-06-23T12:42:02.000Z</time>
      </trkpt>
      <trkpt lat="45.30139" lon="6.10487">
        <ele>1755.02</ele>
        <time>2020-06-23T12:42:18.000Z</time>
      </trkpt>
      <trkpt lat="45.30139" lon="6.10474">
        <ele>1750.57</ele>
        <time>2020-06-23T12:42:27.000Z</time>
      </trkpt>
      <trkpt lat="45.30127" lon="6.10457">
        <ele>1745.14</ele>
        <time>2020-06-23T12:42:47.000Z</time>
      </trkpt>
      <trkpt lat="45.30118" lon="6.10446">
        <ele>1741.09</ele>
        <time>2020-06-23T12:43:02.000Z</time>
      </trkpt>
      <trkpt lat="45.3011" lon="6.10433">
        <ele>1736.64</ele>
        <time>2020-06-23T12:43:18.000Z</time>
      </trkpt>
      <trkpt lat="45.30101" lon="6.10422">
        <ele>1731.77</ele>
        <time>2020-06-23T12:43:34.000Z</time>
      </trkpt>
      <trkpt lat="45.30108" lon="6.10411">
        <ele>1727.47</ele>
        <time>2020-06-23T12:44:00.000Z</time>
      </trkpt>
      <trkpt lat="45.3011" lon="6.10423">
        <ele>1726.49</ele>
        <time>2020-06-23T12:44:30.000Z</time>
      </trkpt>
      <trkpt lat="45.30104" lon="6.10413">
        <ele>1726.54</ele>
        <time>2020-06-23T12:44:43.000Z</time>
      </trkpt>
      <trkpt lat="45.30094" lon="6.10402">
        <ele>1726.54</ele>
        <time>2020-06-23T12:44:56.000Z</time>
      </trkpt>
      <trkpt lat="45.30097" lon="6.10415">
        <ele>1726.69</ele>
        <time>2020-06-23T12:45:19.000Z</time>
      </trkpt>
      <trkpt lat="45.30106" lon="6.10406">
        <ele>1740.14</ele>
        <time>2020-06-23T12:45:41.000Z</time>
      </trkpt>
      <trkpt lat="45.30097" lon="6.10401">
        <ele>1726.34</ele>
        <time>2020-06-23T12:47:40.000Z</time>
      </trkpt>
      <trkpt lat="45.3009" lon="6.1039">
        <ele>1724.22</ele>
        <time>2020-06-23T12:47:52.000Z</time>
      </trkpt>
      <trkpt lat="45.30082" lon="6.10378">
        <ele>1723.12</ele>
        <time>2020-06-23T12:48:06.000Z</time>
      </trkpt>
      <trkpt lat="45.30071" lon="6.1037">
        <ele>1721.22</ele>
        <time>2020-06-23T12:48:26.000Z</time>
      </trkpt>
      <trkpt lat="45.30075" lon="6.10358">
        <ele>1717.57</ele>
        <time>2020-06-23T12:48:41.000Z</time>
      </trkpt>
      <trkpt lat="45.30079" lon="6.10339">
        <ele>1713.17</ele>
        <time>2020-06-23T12:49:01.000Z</time>
      </trkpt>
      <trkpt lat="45.30081" lon="6.10323">
        <ele>1708.77</ele>
        <time>2020-06-23T12:49:20.000Z</time>
      </trkpt>
      <trkpt lat="45.30087" lon="6.10312">
        <ele>1705.64</ele>
        <time>2020-06-23T12:49:29.000Z</time>
      </trkpt>
      <trkpt lat="45.3008" lon="6.103">
        <ele>1701.57</ele>
        <time>2020-06-23T12:49:50.000Z</time>
      </trkpt>
      <trkpt lat="45.30074" lon="6.10285">
        <ele>1699.65</ele>
        <time>2020-06-23T12:50:06.000Z</time>
      </trkpt>
      <trkpt lat="45.30077" lon="6.1027">
        <ele>1697.62</ele>
        <time>2020-06-23T12:50:24.000Z</time>
      </trkpt>
      <trkpt lat="45.30079" lon="6.10253">
        <ele>1694.62</ele>
        <time>2020-06-23T12:50:50.000Z</time>
      </trkpt>
      <trkpt lat="45.30074" lon="6.1024">
        <ele>1694.22</ele>
        <time>2020-06-23T12:51:12.000Z</time>
      </trkpt>
      <trkpt lat="45.30077" lon="6.10224">
        <ele>1694.1</ele>
        <time>2020-06-23T12:51:28.000Z</time>
      </trkpt>
      <trkpt lat="45.30083" lon="6.10211">
        <ele>1693.2</ele>
        <time>2020-06-23T12:51:44.000Z</time>
      </trkpt>
      <trkpt lat="45.30092" lon="6.1019">
        <ele>1688.7</ele>
        <time>2020-06-23T12:52:00.000Z</time>
      </trkpt>
      <trkpt lat="45.30099" lon="6.10182">
        <ele>1685.26</ele>
        <time>2020-06-23T12:52:08.000Z</time>
      </trkpt>
      <trkpt lat="45.30108" lon="6.10162">
        <ele>1679.43</ele>
        <time>2020-06-23T12:52:29.000Z</time>
      </trkpt>
      <trkpt lat="45.30119" lon="6.10146">
        <ele>1673.53</ele>
        <time>2020-06-23T12:52:46.000Z</time>
      </trkpt>
      <trkpt lat="45.30127" lon="6.10132">
        <ele>1668.78</ele>
        <time>2020-06-23T12:53:02.000Z</time>
      </trkpt>
      <trkpt lat="45.30131" lon="6.1012">
        <ele>1664.53</ele>
        <time>2020-06-23T12:53:11.000Z</time>
      </trkpt>
      <trkpt lat="45.30136" lon="6.101">
        <ele>1660.43</ele>
        <time>2020-06-23T12:53:27.000Z</time>
      </trkpt>
      <trkpt lat="45.30137" lon="6.10082">
        <ele>1656.03</ele>
        <time>2020-06-23T12:53:55.000Z</time>
      </trkpt>
      <trkpt lat="45.30127" lon="6.10081">
        <ele>1651.98</ele>
        <time>2020-06-23T12:54:15.000Z</time>
      </trkpt>
      <trkpt lat="45.30119" lon="6.10086">
        <ele>1649.62</ele>
        <time>2020-06-23T12:54:22.000Z</time>
      </trkpt>
      <trkpt lat="45.30111" lon="6.10077">
        <ele>1646.6</ele>
        <time>2020-06-23T12:54:46.000Z</time>
      </trkpt>
      <trkpt lat="45.30102" lon="6.10067">
        <ele>1645.6</ele>
        <time>2020-06-23T12:55:00.000Z</time>
      </trkpt>
      <trkpt lat="45.30102" lon="6.10049">
        <ele>1645.93</ele>
        <time>2020-06-23T12:55:15.000Z</time>
      </trkpt>
      <trkpt lat="45.30105" lon="6.10029">
        <ele>1645.33</ele>
        <time>2020-06-23T12:55:31.000Z</time>
      </trkpt>
      <trkpt lat="45.30105" lon="6.10013">
        <ele>1645.2</ele>
        <time>2020-06-23T12:55:43.000Z</time>
      </trkpt>
      <trkpt lat="45.30103" lon="6.09996">
        <ele>1644.5</ele>
        <time>2020-06-23T12:55:54.000Z</time>
      </trkpt>
      <trkpt lat="45.30105" lon="6.09974">
        <ele>1642.53</ele>
        <time>2020-06-23T12:56:10.000Z</time>
      </trkpt>
      <trkpt lat="45.30106" lon="6.0996">
        <ele>1641.2</ele>
        <time>2020-06-23T12:56:19.000Z</time>
      </trkpt>
      <trkpt lat="45.30103" lon="6.09945">
        <ele>1640.31</ele>
        <time>2020-06-23T12:56:28.000Z</time>
      </trkpt>
      <trkpt lat="45.30108" lon="6.09928">
        <ele>1637.88</ele>
        <time>2020-06-23T12:56:40.000Z</time>
      </trkpt>
      <trkpt lat="45.3012" lon="6.09929">
        <ele>1635.78</ele>
        <time>2020-06-23T12:56:57.000Z</time>
      </trkpt>
      <trkpt lat="45.30131" lon="6.09927">
        <ele>1634.01</ele>
        <time>2020-06-23T12:57:12.000Z</time>
      </trkpt>
      <trkpt lat="45.30136" lon="6.09914">
        <ele>1630.73</ele>
        <time>2020-06-23T12:57:30.000Z</time>
      </trkpt>
      <trkpt lat="45.30133" lon="6.09897">
        <ele>1626.58</ele>
        <time>2020-06-23T12:57:41.000Z</time>
      </trkpt>
      <trkpt lat="45.30142" lon="6.09887">
        <ele>1621.38</ele>
        <time>2020-06-23T12:58:08.000Z</time>
      </trkpt>
      <trkpt lat="45.30153" lon="6.09886">
        <ele>1619.49</ele>
        <time>2020-06-23T12:58:21.000Z</time>
      </trkpt>
      <trkpt lat="45.30164" lon="6.09889">
        <ele>1617.49</ele>
        <time>2020-06-23T12:58:37.000Z</time>
      </trkpt>
      <trkpt lat="45.30177" lon="6.09891">
        <ele>1613.74</ele>
        <time>2020-06-23T12:58:55.000Z</time>
      </trkpt>
      <trkpt lat="45.30186" lon="6.09893">
        <ele>1610.48</ele>
        <time>2020-06-23T12:59:02.000Z</time>
      </trkpt>
      <trkpt lat="45.302" lon="6.09892">
        <ele>1603.61</ele>
        <time>2020-06-23T12:59:23.000Z</time>
      </trkpt>
      <trkpt lat="45.30199" lon="6.09875">
        <ele>1598.46</ele>
        <time>2020-06-23T12:59:37.000Z</time>
      </trkpt>
      <trkpt lat="45.30199" lon="6.09859">
        <ele>1592.11</ele>
        <time>2020-06-23T12:59:58.000Z</time>
      </trkpt>
      <trkpt lat="45.30196" lon="6.09845">
        <ele>1589.79</ele>
        <time>2020-06-23T13:00:12.000Z</time>
      </trkpt>
      <trkpt lat="45.30199" lon="6.09831">
        <ele>1587.71</ele>
        <time>2020-06-23T13:00:33.000Z</time>
      </trkpt>
      <trkpt lat="45.30209" lon="6.09825">
        <ele>1586.71</ele>
        <time>2020-06-23T13:00:51.000Z</time>
      </trkpt>
      <trkpt lat="45.30217" lon="6.09813">
        <ele>1585.99</ele>
        <time>2020-06-23T13:01:06.000Z</time>
      </trkpt>
      <trkpt lat="45.30225" lon="6.098">
        <ele>1584.19</ele>
        <time>2020-06-23T13:01:20.000Z</time>
      </trkpt>
      <trkpt lat="45.30234" lon="6.09791">
        <ele>1582.62</ele>
        <time>2020-06-23T13:01:33.000Z</time>
      </trkpt>
      <trkpt lat="45.30232" lon="6.09775">
        <ele>1581.84</ele>
        <time>2020-06-23T13:01:50.000Z</time>
      </trkpt>
      <trkpt lat="45.30221" lon="6.09766">
        <ele>1581.02</ele>
        <time>2020-06-23T13:02:02.000Z</time>
      </trkpt>
      <trkpt lat="45.30212" lon="6.09752">
        <ele>1579.99</ele>
        <time>2020-06-23T13:02:17.000Z</time>
      </trkpt>
      <trkpt lat="45.30203" lon="6.09747">
        <ele>1579.22</ele>
        <time>2020-06-23T13:02:24.000Z</time>
      </trkpt>
      <trkpt lat="45.30186" lon="6.09739">
        <ele>1576.97</ele>
        <time>2020-06-23T13:02:40.000Z</time>
      </trkpt>
      <trkpt lat="45.30176" lon="6.09731">
        <ele>1576.04</ele>
        <time>2020-06-23T13:02:54.000Z</time>
      </trkpt>
      <trkpt lat="45.30166" lon="6.09723">
        <ele>1575.04</ele>
        <time>2020-06-23T13:03:09.000Z</time>
      </trkpt>
      <trkpt lat="45.30158" lon="6.09715">
        <ele>1574.12</ele>
        <time>2020-06-23T13:03:24.000Z</time>
      </trkpt>
      <trkpt lat="45.30149" lon="6.09711">
        <ele>1573.29</ele>
        <time>2020-06-23T13:03:31.000Z</time>
      </trkpt>
      <trkpt lat="45.30138" lon="6.09702">
        <ele>1572.26</ele>
        <time>2020-06-23T13:03:36.000Z</time>
      </trkpt>
      <trkpt lat="45.30148" lon="6.097">
        <ele>1568.45</ele>
        <time>2020-06-23T13:03:59.000Z</time>
      </trkpt>
      <trkpt lat="45.3016" lon="6.09694">
        <ele>1567.29</ele>
        <time>2020-06-23T13:04:12.000Z</time>
      </trkpt>
      <trkpt lat="45.3017" lon="6.09685">
        <ele>1565.62</ele>
        <time>2020-06-23T13:04:26.000Z</time>
      </trkpt>
      <trkpt lat="45.30181" lon="6.09676">
        <ele>1564.24</ele>
        <time>2020-06-23T13:04:38.000Z</time>
      </trkpt>
      <trkpt lat="45.30191" lon="6.09667">
        <ele>1562.54</ele>
        <time>2020-06-23T13:04:51.000Z</time>
      </trkpt>
      <trkpt lat="45.30202" lon="6.09658">
        <ele>1559.54</ele>
        <time>2020-06-23T13:05:05.000Z</time>
      </trkpt>
      <trkpt lat="45.30194" lon="6.09647">
        <ele>1556.14</ele>
        <time>2020-06-23T13:05:22.000Z</time>
      </trkpt>
      <trkpt lat="45.30181" lon="6.09638">
        <ele>1553.07</ele>
        <time>2020-06-23T13:05:33.000Z</time>
      </trkpt>
      <trkpt lat="45.30169" lon="6.09633">
        <ele>1549.09</ele>
        <time>2020-06-23T13:05:48.000Z</time>
      </trkpt>
      <trkpt lat="45.30177" lon="6.09629">
        <ele>1541.03</ele>
        <time>2020-06-23T13:06:12.000Z</time>
      </trkpt>
      <trkpt lat="45.30188" lon="6.09628">
        <ele>1537.92</ele>
        <time>2020-06-23T13:06:24.000Z</time>
      </trkpt>
      <trkpt lat="45.30198" lon="6.09621">
        <ele>1533.34</ele>
        <time>2020-06-23T13:06:36.000Z</time>
      </trkpt>
      <trkpt lat="45.30211" lon="6.09615">
        <ele>1528.92</ele>
        <time>2020-06-23T13:06:49.000Z</time>
      </trkpt>
      <trkpt lat="45.3022" lon="6.09607">
        <ele>1524.25</ele>
        <time>2020-06-23T13:07:07.000Z</time>
      </trkpt>
      <trkpt lat="45.30204" lon="6.09595">
        <ele>1506.82</ele>
        <time>2020-06-23T13:07:42.000Z</time>
      </trkpt>
      <trkpt lat="45.30194" lon="6.09591">
        <ele>1501.08</ele>
        <time>2020-06-23T13:08:00.000Z</time>
      </trkpt>
      <trkpt lat="45.30179" lon="6.09582">
        <ele>1500.17</ele>
        <time>2020-06-23T13:08:16.000Z</time>
      </trkpt>
      <trkpt lat="45.30167" lon="6.09576">
        <ele>1498.62</ele>
        <time>2020-06-23T13:08:31.000Z</time>
      </trkpt>
      <trkpt lat="45.30158" lon="6.09566">
        <ele>1496.09</ele>
        <time>2020-06-23T13:08:48.000Z</time>
      </trkpt>
      <trkpt lat="45.3015" lon="6.09554">
        <ele>1493.67</ele>
        <time>2020-06-23T13:09:03.000Z</time>
      </trkpt>
      <trkpt lat="45.30148" lon="6.09538">
        <ele>1489.79</ele>
        <time>2020-06-23T13:09:16.000Z</time>
      </trkpt>
      <trkpt lat="45.30143" lon="6.09523">
        <ele>1483.14</ele>
        <time>2020-06-23T13:09:32.000Z</time>
      </trkpt>
      <trkpt lat="45.30137" lon="6.09508">
        <ele>1475.77</ele>
        <time>2020-06-23T13:09:50.000Z</time>
      </trkpt>
      <trkpt lat="45.30132" lon="6.09493">
        <ele>1470.97</ele>
        <time>2020-06-23T13:10:03.000Z</time>
      </trkpt>
      <trkpt lat="45.30125" lon="6.09479">
        <ele>1465.77</ele>
        <time>2020-06-23T13:10:20.000Z</time>
      </trkpt>
      <trkpt lat="45.30116" lon="6.09467">
        <ele>1463.7</ele>
        <time>2020-06-23T13:10:38.000Z</time>
      </trkpt>
      <trkpt lat="45.30109" lon="6.09454">
        <ele>1462.85</ele>
        <time>2020-06-23T13:10:49.000Z</time>
      </trkpt>
      <trkpt lat="45.30101" lon="6.0944">
        <ele>1461.55</ele>
        <time>2020-06-23T13:11:02.000Z</time>
      </trkpt>
      <trkpt lat="45.30092" lon="6.09428">
        <ele>1459.82</ele>
        <time>2020-06-23T13:11:14.000Z</time>
      </trkpt>
      <trkpt lat="45.30087" lon="6.09411">
        <ele>1457.52</ele>
        <time>2020-06-23T13:11:27.000Z</time>
      </trkpt>
      <trkpt lat="45.30085" lon="6.09395">
        <ele>1454.37</ele>
        <time>2020-06-23T13:11:46.000Z</time>
      </trkpt>
      <trkpt lat="45.30081" lon="6.0938">
        <ele>1451.75</ele>
        <time>2020-06-23T13:12:12.000Z</time>
      </trkpt>
      <trkpt lat="45.30072" lon="6.09367">
        <ele>1450.8</ele>
        <time>2020-06-23T13:12:25.000Z</time>
      </trkpt>
      <trkpt lat="45.30058" lon="6.09359">
        <ele>1450.02</ele>
        <time>2020-06-23T13:12:36.000Z</time>
      </trkpt>
      <trkpt lat="45.30045" lon="6.09354">
        <ele>1449.2</ele>
        <time>2020-06-23T13:12:46.000Z</time>
      </trkpt>
      <trkpt lat="45.30031" lon="6.09347">
        <ele>1448.17</ele>
        <time>2020-06-23T13:12:58.000Z</time>
      </trkpt>
      <trkpt lat="45.30026" lon="6.09332">
        <ele>1445.87</ele>
        <time>2020-06-23T13:13:23.000Z</time>
      </trkpt>
      <trkpt lat="45.30013" lon="6.09333">
        <ele>1443.77</ele>
        <time>2020-06-23T13:13:40.000Z</time>
      </trkpt>
      <trkpt lat="45.3" lon="6.09335">
        <ele>1441.99</ele>
        <time>2020-06-23T13:13:55.000Z</time>
      </trkpt>
      <trkpt lat="45.2999" lon="6.09345">
        <ele>1441.17</ele>
        <time>2020-06-23T13:14:08.000Z</time>
      </trkpt>
      <trkpt lat="45.29979" lon="6.09356">
        <ele>1440.37</ele>
        <time>2020-06-23T13:14:19.000Z</time>
      </trkpt>
      <trkpt lat="45.29969" lon="6.09368">
        <ele>1439.37</ele>
        <time>2020-06-23T13:14:32.000Z</time>
      </trkpt>
      <trkpt lat="45.29959" lon="6.09374">
        <ele>1438.69</ele>
        <time>2020-06-23T13:14:46.000Z</time>
      </trkpt>
      <trkpt lat="45.29947" lon="6.09379">
        <ele>1437.76</ele>
        <time>2020-06-23T13:15:00.000Z</time>
      </trkpt>
      <trkpt lat="45.2995" lon="6.09366">
        <ele>1436.07</ele>
        <time>2020-06-23T13:15:29.000Z</time>
      </trkpt>
      <trkpt lat="45.29948" lon="6.09351">
        <ele>1434.67</ele>
        <time>2020-06-23T13:15:51.000Z</time>
      </trkpt>
      <trkpt lat="45.29953" lon="6.09336">
        <ele>1432.79</ele>
        <time>2020-06-23T13:16:07.000Z</time>
      </trkpt>
      <trkpt lat="45.29962" lon="6.09324">
        <ele>1430.54</ele>
        <time>2020-06-23T13:16:22.000Z</time>
      </trkpt>
      <trkpt lat="45.29966" lon="6.09309">
        <ele>1428.94</ele>
        <time>2020-06-23T13:16:39.000Z</time>
      </trkpt>
      <trkpt lat="45.29972" lon="6.09295">
        <ele>1427.87</ele>
        <time>2020-06-23T13:16:52.000Z</time>
      </trkpt>
      <trkpt lat="45.29975" lon="6.09278">
        <ele>1426.69</ele>
        <time>2020-06-23T13:17:05.000Z</time>
      </trkpt>
      <trkpt lat="45.29982" lon="6.09264">
        <ele>1425.14</ele>
        <time>2020-06-23T13:17:19.000Z</time>
      </trkpt>
      <trkpt lat="45.29989" lon="6.09248">
        <ele>1422.72</ele>
        <time>2020-06-23T13:17:33.000Z</time>
      </trkpt>
      <trkpt lat="45.29983" lon="6.09237">
        <ele>1421.12</ele>
        <time>2020-06-23T13:17:59.000Z</time>
      </trkpt>
      <trkpt lat="45.29972" lon="6.09238">
        <ele>1421.04</ele>
        <time>2020-06-23T13:18:18.000Z</time>
      </trkpt>
      <trkpt lat="45.29961" lon="6.09234">
        <ele>1419.77</ele>
        <time>2020-06-23T13:18:33.000Z</time>
      </trkpt>
      <trkpt lat="45.29968" lon="6.09226">
        <ele>1416.44</ele>
        <time>2020-06-23T13:18:53.000Z</time>
      </trkpt>
      <trkpt lat="45.29974" lon="6.09216">
        <ele>1412.51</ele>
        <time>2020-06-23T13:18:58.000Z</time>
      </trkpt>
      <trkpt lat="45.29963" lon="6.0921">
        <ele>1404.12</ele>
        <time>2020-06-23T13:19:32.000Z</time>
      </trkpt>
      <trkpt lat="45.29953" lon="6.09201">
        <ele>1397.54</ele>
        <time>2020-06-23T13:19:48.000Z</time>
      </trkpt>
      <trkpt lat="45.29942" lon="6.09198">
        <ele>1392.67</ele>
        <time>2020-06-23T13:19:59.000Z</time>
      </trkpt>
      <trkpt lat="45.29929" lon="6.09196">
        <ele>1388.44</ele>
        <time>2020-06-23T13:20:13.000Z</time>
      </trkpt>
      <trkpt lat="45.29918" lon="6.09191">
        <ele>1384.12</ele>
        <time>2020-06-23T13:20:30.000Z</time>
      </trkpt>
      <trkpt lat="45.29924" lon="6.09179">
        <ele>1380.14</ele>
        <time>2020-06-23T13:20:48.000Z</time>
      </trkpt>
      <trkpt lat="45.29915" lon="6.09173">
        <ele>1372.87</ele>
        <time>2020-06-23T13:21:12.000Z</time>
      </trkpt>
      <trkpt lat="45.29903" lon="6.09174">
        <ele>1370.42</ele>
        <time>2020-06-23T13:21:21.000Z</time>
      </trkpt>
      <trkpt lat="45.29891" lon="6.09177">
        <ele>1366.89</ele>
        <time>2020-06-23T13:21:34.000Z</time>
      </trkpt>
      <trkpt lat="45.29879" lon="6.09184">
        <ele>1364.14</ele>
        <time>2020-06-23T13:21:44.000Z</time>
      </trkpt>
      <trkpt lat="45.2987" lon="6.09197">
        <ele>1361.19</ele>
        <time>2020-06-23T13:21:58.000Z</time>
      </trkpt>
      <trkpt lat="45.29868" lon="6.09216">
        <ele>1359.52</ele>
        <time>2020-06-23T13:22:10.000Z</time>
      </trkpt>
      <trkpt lat="45.29862" lon="6.09231">
        <ele>1357.99</ele>
        <time>2020-06-23T13:22:29.000Z</time>
      </trkpt>
      <trkpt lat="45.2985" lon="6.09239">
        <ele>1357.09</ele>
        <time>2020-06-23T13:22:37.000Z</time>
      </trkpt>
      <trkpt lat="45.29848" lon="6.09225">
        <ele>1356.11</ele>
        <time>2020-06-23T13:23:05.000Z</time>
      </trkpt>
      <trkpt lat="45.29845" lon="6.09209">
        <ele>1355.96</ele>
        <time>2020-06-23T13:23:19.000Z</time>
      </trkpt>
      <trkpt lat="45.29848" lon="6.09191">
        <ele>1355.72</ele>
        <time>2020-06-23T13:23:31.000Z</time>
      </trkpt>
      <trkpt lat="45.2985" lon="6.09172">
        <ele>1355.19</ele>
        <time>2020-06-23T13:23:42.000Z</time>
      </trkpt>
      <trkpt lat="45.29852" lon="6.09153">
        <ele>1353.52</ele>
        <time>2020-06-23T13:23:57.000Z</time>
      </trkpt>
      <trkpt lat="45.29859" lon="6.09137">
        <ele>1350.97</ele>
        <time>2020-06-23T13:24:09.000Z</time>
      </trkpt>
      <trkpt lat="45.29861" lon="6.09119">
        <ele>1348.14</ele>
        <time>2020-06-23T13:24:20.000Z</time>
      </trkpt>
      <trkpt lat="45.29862" lon="6.09101">
        <ele>1345.07</ele>
        <time>2020-06-23T13:24:30.000Z</time>
      </trkpt>
      <trkpt lat="45.2985" lon="6.09093">
        <ele>1341.74</ele>
        <time>2020-06-23T13:24:41.000Z</time>
      </trkpt>
      <trkpt lat="45.29837" lon="6.0909">
        <ele>1338.22</ele>
        <time>2020-06-23T13:24:53.000Z</time>
      </trkpt>
      <trkpt lat="45.29826" lon="6.09083">
        <ele>1333.09</ele>
        <time>2020-06-23T13:25:13.000Z</time>
      </trkpt>
      <trkpt lat="45.29822" lon="6.09072">
        <ele>1329.04</ele>
        <time>2020-06-23T13:26:00.000Z</time>
      </trkpt>
      <trkpt lat="45.29816" lon="6.0906">
        <ele>1326.77</ele>
        <time>2020-06-23T13:26:15.000Z</time>
      </trkpt>
      <trkpt lat="45.29811" lon="6.09047">
        <ele>1325.69</ele>
        <time>2020-06-23T13:26:31.000Z</time>
      </trkpt>
      <trkpt lat="45.29802" lon="6.09036">
        <ele>1325.09</ele>
        <time>2020-06-23T13:26:42.000Z</time>
      </trkpt>
      <trkpt lat="45.2979" lon="6.09035">
        <ele>1324.17</ele>
        <time>2020-06-23T13:26:54.000Z</time>
      </trkpt>
      <trkpt lat="45.29786" lon="6.09051">
        <ele>1322.94</ele>
        <time>2020-06-23T13:27:07.000Z</time>
      </trkpt>
      <trkpt lat="45.2978" lon="6.09067">
        <ele>1321.07</ele>
        <time>2020-06-23T13:27:21.000Z</time>
      </trkpt>
      <trkpt lat="45.29771" lon="6.09077">
        <ele>1319.24</ele>
        <time>2020-06-23T13:27:36.000Z</time>
      </trkpt>
      <trkpt lat="45.29758" lon="6.09079">
        <ele>1317.46</ele>
        <time>2020-06-23T13:27:47.000Z</time>
      </trkpt>
      <trkpt lat="45.29747" lon="6.09087">
        <ele>1315.49</ele>
        <time>2020-06-23T13:28:00.000Z</time>
      </trkpt>
      <trkpt lat="45.29733" lon="6.09089">
        <ele>1312.96</ele>
        <time>2020-06-23T13:28:13.000Z</time>
      </trkpt>
      <trkpt lat="45.29719" lon="6.09089">
        <ele>1310.06</ele>
        <time>2020-06-23T13:28:25.000Z</time>
      </trkpt>
      <trkpt lat="45.2971" lon="6.09088">
        <ele>1306.81</ele>
        <time>2020-06-23T13:28:36.000Z</time>
      </trkpt>
      <trkpt lat="45.29697" lon="6.0909">
        <ele>1301.34</ele>
        <time>2020-06-23T13:29:00.000Z</time>
      </trkpt>
      <trkpt lat="45.2969" lon="6.09103">
        <ele>1296.06</ele>
        <time>2020-06-23T13:29:15.000Z</time>
      </trkpt>
      <trkpt lat="45.29691" lon="6.09117">
        <ele>1289.32</ele>
        <time>2020-06-23T13:29:21.000Z</time>
      </trkpt>
      <trkpt lat="45.29696" lon="6.09129">
        <ele>1283.26</ele>
        <time>2020-06-23T13:29:27.000Z</time>
      </trkpt>
      <trkpt lat="45.297" lon="6.09141">
        <ele>1278.81</ele>
        <time>2020-06-23T13:29:33.000Z</time>
      </trkpt>
      <trkpt lat="45.29695" lon="6.09153">
        <ele>1274.36</ele>
        <time>2020-06-23T13:29:40.000Z</time>
      </trkpt>
      <trkpt lat="45.29682" lon="6.09143">
        <ele>1267.21</ele>
        <time>2020-06-23T13:29:57.000Z</time>
      </trkpt>
      <trkpt lat="45.2968" lon="6.0913">
        <ele>1262.98</ele>
        <time>2020-06-23T13:30:06.000Z</time>
      </trkpt>
      <trkpt lat="45.29678" lon="6.09116">
        <ele>1259.23</ele>
        <time>2020-06-23T13:30:12.000Z</time>
      </trkpt>
      <trkpt lat="45.29668" lon="6.09112">
        <ele>1255.47</ele>
        <time>2020-06-23T13:30:19.000Z</time>
      </trkpt>
      <trkpt lat="45.29669" lon="6.09099">
        <ele>1251.29</ele>
        <time>2020-06-23T13:30:26.000Z</time>
      </trkpt>
      <trkpt lat="45.29672" lon="6.09086">
        <ele>1246.99</ele>
        <time>2020-06-23T13:30:33.000Z</time>
      </trkpt>
      <trkpt lat="45.29665" lon="6.09072">
        <ele>1242.83</ele>
        <time>2020-06-23T13:30:56.000Z</time>
      </trkpt>
      <trkpt lat="45.29664" lon="6.09056">
        <ele>1238.69</ele>
        <time>2020-06-23T13:31:14.000Z</time>
      </trkpt>
      <trkpt lat="45.29659" lon="6.09041">
        <ele>1234.94</ele>
        <time>2020-06-23T13:31:29.000Z</time>
      </trkpt>
      <trkpt lat="45.2965" lon="6.09028">
        <ele>1231.81</ele>
        <time>2020-06-23T13:31:41.000Z</time>
      </trkpt>
      <trkpt lat="45.29643" lon="6.09015">
        <ele>1229.21</ele>
        <time>2020-06-23T13:31:54.000Z</time>
      </trkpt>
      <trkpt lat="45.29631" lon="6.09008">
        <ele>1228.49</ele>
        <time>2020-06-23T13:32:00.000Z</time>
      </trkpt>
      <trkpt lat="45.29632" lon="6.08994">
        <ele>1225.64</ele>
        <time>2020-06-23T13:32:14.000Z</time>
      </trkpt>
      <trkpt lat="45.29629" lon="6.08978">
        <ele>1223.04</ele>
        <time>2020-06-23T13:32:30.000Z</time>
      </trkpt>
      <trkpt lat="45.2962" lon="6.08966">
        <ele>1221.56</ele>
        <time>2020-06-23T13:32:41.000Z</time>
      </trkpt>
      <trkpt lat="45.2961" lon="6.08957">
        <ele>1220.01</ele>
        <time>2020-06-23T13:32:54.000Z</time>
      </trkpt>
      <trkpt lat="45.296" lon="6.08946">
        <ele>1218.26</ele>
        <time>2020-06-23T13:33:06.000Z</time>
      </trkpt>
      <trkpt lat="45.29589" lon="6.08941">
        <ele>1216.16</ele>
        <time>2020-06-23T13:33:23.000Z</time>
      </trkpt>
      <trkpt lat="45.29577" lon="6.08943">
        <ele>1215.88</ele>
        <time>2020-06-23T13:33:44.000Z</time>
      </trkpt>
      <trkpt lat="45.29566" lon="6.08945">
        <ele>1215.06</ele>
        <time>2020-06-23T13:34:02.000Z</time>
      </trkpt>
      <trkpt lat="45.29558" lon="6.08953">
        <ele>1214.66</ele>
        <time>2020-06-23T13:34:27.000Z</time>
      </trkpt>
      <trkpt lat="45.29549" lon="6.08961">
        <ele>1214.33</ele>
        <time>2020-06-23T13:34:54.000Z</time>
      </trkpt>
      <trkpt lat="45.29537" lon="6.08959">
        <ele>1213.93</ele>
        <time>2020-06-23T13:35:08.000Z</time>
      </trkpt>
      <trkpt lat="45.29528" lon="6.08951">
        <ele>1213.46</ele>
        <time>2020-06-23T13:35:34.000Z</time>
      </trkpt>
      <trkpt lat="45.29523" lon="6.08936">
        <ele>1211.78</ele>
        <time>2020-06-23T13:35:57.000Z</time>
      </trkpt>
      <trkpt lat="45.29516" lon="6.08927">
        <ele>1210.98</ele>
        <time>2020-06-23T13:36:22.000Z</time>
      </trkpt>
      <trkpt lat="45.2951" lon="6.08913">
        <ele>1210.13</ele>
        <time>2020-06-23T13:36:43.000Z</time>
      </trkpt>
      <trkpt lat="45.29502" lon="6.08901">
        <ele>1209.73</ele>
        <time>2020-06-23T13:36:59.000Z</time>
      </trkpt>
      <trkpt lat="45.29501" lon="6.08884">
        <ele>1208.63</ele>
        <time>2020-06-23T13:37:13.000Z</time>
      </trkpt>
      <trkpt lat="45.29505" lon="6.08869">
        <ele>1207.16</ele>
        <time>2020-06-23T13:37:26.000Z</time>
      </trkpt>
      <trkpt lat="45.29509" lon="6.08853">
        <ele>1205.18</ele>
        <time>2020-06-23T13:37:42.000Z</time>
      </trkpt>
      <trkpt lat="45.2951" lon="6.08838">
        <ele>1203.98</ele>
        <time>2020-06-23T13:38:06.000Z</time>
      </trkpt>
      <trkpt lat="45.29516" lon="6.08825">
        <ele>1203.46</ele>
        <time>2020-06-23T13:38:20.000Z</time>
      </trkpt>
      <trkpt lat="45.29528" lon="6.08815">
        <ele>1202.29</ele>
        <time>2020-06-23T13:38:37.000Z</time>
      </trkpt>
      <trkpt lat="45.29519" lon="6.088">
        <ele>1201.14</ele>
        <time>2020-06-23T13:38:42.000Z</time>
      </trkpt>
      <trkpt lat="45.29526" lon="6.08789">
        <ele>1199.07</ele>
        <time>2020-06-23T13:38:47.000Z</time>
      </trkpt>
      <trkpt lat="45.2953" lon="6.08773">
        <ele>1197.19</ele>
        <time>2020-06-23T13:38:54.000Z</time>
      </trkpt>
      <trkpt lat="45.29535" lon="6.08761">
        <ele>1195.3</ele>
        <time>2020-06-23T13:39:01.000Z</time>
      </trkpt>
      <trkpt lat="45.29542" lon="6.08743">
        <ele>1192.59</ele>
        <time>2020-06-23T13:39:24.000Z</time>
      </trkpt>
      <trkpt lat="45.29546" lon="6.08726">
        <ele>1189.21</ele>
        <time>2020-06-23T13:39:40.000Z</time>
      </trkpt>
      <trkpt lat="45.29554" lon="6.08718">
        <ele>1185.16</ele>
        <time>2020-06-23T13:39:45.000Z</time>
      </trkpt>
      <trkpt lat="45.29559" lon="6.08707">
        <ele>1178.82</ele>
        <time>2020-06-23T13:39:53.000Z</time>
      </trkpt>
      <trkpt lat="45.29563" lon="6.08695">
        <ele>1175.69</ele>
        <time>2020-06-23T13:40:06.000Z</time>
      </trkpt>
      <trkpt lat="45.2957" lon="6.08681">
        <ele>1167.67</ele>
        <time>2020-06-23T13:40:39.000Z</time>
      </trkpt>
      <trkpt lat="45.29559" lon="6.08673">
        <ele>1162.59</ele>
        <time>2020-06-23T13:40:54.000Z</time>
      </trkpt>
      <trkpt lat="45.29561" lon="6.0866">
        <ele>1159.49</ele>
        <time>2020-06-23T13:41:20.000Z</time>
      </trkpt>
      <trkpt lat="45.29553" lon="6.08652">
        <ele>1158.47</ele>
        <time>2020-06-23T13:41:40.000Z</time>
      </trkpt>
      <trkpt lat="45.29543" lon="6.08647">
        <ele>1158.24</ele>
        <time>2020-06-23T13:41:57.000Z</time>
      </trkpt>
      <trkpt lat="45.29506" lon="6.08626">
        <ele>1145.67</ele>
        <time>2020-06-23T13:42:47.000Z</time>
      </trkpt>
      <trkpt lat="45.29497" lon="6.08634">
        <ele>1145.66</ele>
        <time>2020-06-23T13:42:55.000Z</time>
      </trkpt>
      <trkpt lat="45.29507" lon="6.08642">
        <ele>1145.46</ele>
        <time>2020-06-23T13:43:08.000Z</time>
      </trkpt>
      <trkpt lat="45.29515" lon="6.08656">
        <ele>1145.06</ele>
        <time>2020-06-23T13:43:16.000Z</time>
      </trkpt>
      <trkpt lat="45.29523" lon="6.08671">
        <ele>1144.29</ele>
        <time>2020-06-23T13:43:24.000Z</time>
      </trkpt>
      <trkpt lat="45.29534" lon="6.08684">
        <ele>1143.59</ele>
        <time>2020-06-23T13:43:35.000Z</time>
      </trkpt>
      <trkpt lat="45.29543" lon="6.08684">
        <ele>1142.87</ele>
        <time>2020-06-23T13:43:54.000Z</time>
      </trkpt>
      <trkpt lat="45.29552" lon="6.08683">
        <ele>1142.02</ele>
        <time>2020-06-23T13:44:13.000Z</time>
      </trkpt>
      <trkpt lat="45.29559" lon="6.08673">
        <ele>1139.93</ele>
        <time>2020-06-23T13:44:20.000Z</time>
      </trkpt>
      <trkpt lat="45.29564" lon="6.08663">
        <ele>1138.03</ele>
        <time>2020-06-23T13:44:28.000Z</time>
      </trkpt>
      <trkpt lat="45.29571" lon="6.08653">
        <ele>1136.22</ele>
        <time>2020-06-23T13:44:34.000Z</time>
      </trkpt>
      <trkpt lat="45.29577" lon="6.08643">
        <ele>1132.23</ele>
        <time>2020-06-23T13:44:43.000Z</time>
      </trkpt>
      <trkpt lat="45.29584" lon="6.08632">
        <ele>1126.84</ele>
        <time>2020-06-23T13:44:52.000Z</time>
      </trkpt>
      <trkpt lat="45.29588" lon="6.08621">
        <ele>1122.04</ele>
        <time>2020-06-23T13:45:01.000Z</time>
      </trkpt>
      <trkpt lat="45.29589" lon="6.08608">
        <ele>1116.59</ele>
        <time>2020-06-23T13:45:10.000Z</time>
      </trkpt>
      <trkpt lat="45.29592" lon="6.08595">
        <ele>1104.96</ele>
        <time>2020-06-23T13:45:19.000Z</time>
      </trkpt>
      <trkpt lat="45.29592" lon="6.08582">
        <ele>1093.97</ele>
        <time>2020-06-23T13:45:31.000Z</time>
      </trkpt>
      <trkpt lat="45.29593" lon="6.08568">
        <ele>1088.05</ele>
        <time>2020-06-23T13:45:41.000Z</time>
      </trkpt>
      <trkpt lat="45.29592" lon="6.08554">
        <ele>1085</ele>
        <time>2020-06-23T13:45:49.000Z</time>
      </trkpt>
      <trkpt lat="45.29588" lon="6.08542">
        <ele>1080.21</ele>
        <time>2020-06-23T13:45:57.000Z</time>
      </trkpt>
      <trkpt lat="45.29584" lon="6.08529">
        <ele>1074.73</ele>
        <time>2020-06-23T13:46:05.000Z</time>
      </trkpt>
      <trkpt lat="45.29578" lon="6.08519">
        <ele>1069.5</ele>
        <time>2020-06-23T13:46:14.000Z</time>
      </trkpt>
      <trkpt lat="45.29575" lon="6.08507">
        <ele>1061.69</ele>
        <time>2020-06-23T13:46:30.000Z</time>
      </trkpt>
      <trkpt lat="45.29579" lon="6.08495">
        <ele>1058.27</ele>
        <time>2020-06-23T13:46:41.000Z</time>
      </trkpt>
      <trkpt lat="45.29586" lon="6.08486">
        <ele>1054.96</ele>
        <time>2020-06-23T13:46:50.000Z</time>
      </trkpt>
      <trkpt lat="45.29593" lon="6.08476">
        <ele>1052.12</ele>
        <time>2020-06-23T13:46:59.000Z</time>
      </trkpt>
      <trkpt lat="45.29601" lon="6.08467">
        <ele>1049.08</ele>
        <time>2020-06-23T13:47:08.000Z</time>
      </trkpt>
      <trkpt lat="45.29608" lon="6.0846">
        <ele>1046.62</ele>
        <time>2020-06-23T13:47:16.000Z</time>
      </trkpt>
      <trkpt lat="45.29616" lon="6.08452">
        <ele>1042.51</ele>
        <time>2020-06-23T13:47:26.000Z</time>
      </trkpt>
      <trkpt lat="45.29624" lon="6.08444">
        <ele>1033.9</ele>
        <time>2020-06-23T13:47:42.000Z</time>
      </trkpt>
      <trkpt lat="45.29629" lon="6.08432">
        <ele>1027.75</ele>
        <time>2020-06-23T13:47:53.000Z</time>
      </trkpt>
      <trkpt lat="45.29633" lon="6.0842">
        <ele>1022.82</ele>
        <time>2020-06-23T13:48:02.000Z</time>
      </trkpt>
      <trkpt lat="45.29635" lon="6.08406">
        <ele>1018.6</ele>
        <time>2020-06-23T13:48:12.000Z</time>
      </trkpt>
      <trkpt lat="45.29639" lon="6.08394">
        <ele>1015.28</ele>
        <time>2020-06-23T13:48:22.000Z</time>
      </trkpt>
      <trkpt lat="45.29642" lon="6.08382">
        <ele>1010.53</ele>
        <time>2020-06-23T13:48:34.000Z</time>
      </trkpt>
      <trkpt lat="45.29645" lon="6.08369">
        <ele>1005.91</ele>
        <time>2020-06-23T13:48:45.000Z</time>
      </trkpt>
      <trkpt lat="45.29646" lon="6.08355">
        <ele>1002.58</ele>
        <time>2020-06-23T13:48:56.000Z</time>
      </trkpt>
      <trkpt lat="45.29646" lon="6.08342">
        <ele>1000.85</ele>
        <time>2020-06-23T13:49:04.000Z</time>
      </trkpt>
      <trkpt lat="45.29648" lon="6.08329">
        <ele>998.21</ele>
        <time>2020-06-23T13:49:13.000Z</time>
      </trkpt>
      <trkpt lat="45.29659" lon="6.08321">
        <ele>996.11</ele>
        <time>2020-06-23T13:49:37.000Z</time>
      </trkpt>
      <trkpt lat="45.29654" lon="6.08309">
        <ele>994.97</ele>
        <time>2020-06-23T13:49:44.000Z</time>
      </trkpt>
      <trkpt lat="45.29653" lon="6.08295">
        <ele>993.58</ele>
        <time>2020-06-23T13:49:52.000Z</time>
      </trkpt>
      <trkpt lat="45.29655" lon="6.08282">
        <ele>991.32</ele>
        <time>2020-06-23T13:50:02.000Z</time>
      </trkpt>
      <trkpt lat="45.29657" lon="6.08268">
        <ele>989.74</ele>
        <time>2020-06-23T13:50:12.000Z</time>
      </trkpt>
      <trkpt lat="45.29655" lon="6.08255">
        <ele>987.72</ele>
        <time>2020-06-23T13:50:22.000Z</time>
      </trkpt>
      <trkpt lat="45.29653" lon="6.08241">
        <ele>987.28</ele>
        <time>2020-06-23T13:50:31.000Z</time>
      </trkpt>
      <trkpt lat="45.29655" lon="6.08227">
        <ele>986.13</ele>
        <time>2020-06-23T13:50:39.000Z</time>
      </trkpt>
      <trkpt lat="45.29659" lon="6.08216">
        <ele>984.73</ele>
        <time>2020-06-23T13:50:49.000Z</time>
      </trkpt>
      <trkpt lat="45.29657" lon="6.08202">
        <ele>983.44</ele>
        <time>2020-06-23T13:50:56.000Z</time>
      </trkpt>
      <trkpt lat="45.29658" lon="6.08188">
        <ele>981.98</ele>
        <time>2020-06-23T13:51:05.000Z</time>
      </trkpt>
      <trkpt lat="45.29653" lon="6.08177">
        <ele>981.77</ele>
        <time>2020-06-23T13:51:17.000Z</time>
      </trkpt>
      <trkpt lat="45.29651" lon="6.08164">
        <ele>979.58</ele>
        <time>2020-06-23T13:51:37.000Z</time>
      </trkpt>
      <trkpt lat="45.29654" lon="6.08151">
        <ele>976.77</ele>
        <time>2020-06-23T13:51:45.000Z</time>
      </trkpt>
      <trkpt lat="45.29654" lon="6.08137">
        <ele>975.03</ele>
        <time>2020-06-23T13:51:54.000Z</time>
      </trkpt>
      <trkpt lat="45.29654" lon="6.08124">
        <ele>974.65</ele>
        <time>2020-06-23T13:52:03.000Z</time>
      </trkpt>
      <trkpt lat="45.29654" lon="6.08111">
        <ele>973.1</ele>
        <time>2020-06-23T13:52:13.000Z</time>
      </trkpt>
      <trkpt lat="45.29654" lon="6.08098">
        <ele>972.05</ele>
        <time>2020-06-23T13:52:22.000Z</time>
      </trkpt>
      <trkpt lat="45.29654" lon="6.08084">
        <ele>971.52</ele>
        <time>2020-06-23T13:52:31.000Z</time>
      </trkpt>
      <trkpt lat="45.29654" lon="6.08071">
        <ele>969.65</ele>
        <time>2020-06-23T13:52:40.000Z</time>
      </trkpt>
      <trkpt lat="45.29654" lon="6.08058">
        <ele>968.5</ele>
        <time>2020-06-23T13:52:48.000Z</time>
      </trkpt>
      <trkpt lat="45.29656" lon="6.08044">
        <ele>967.6</ele>
        <time>2020-06-23T13:52:57.000Z</time>
      </trkpt>
      <trkpt lat="45.29656" lon="6.08031">
        <ele>966.73</ele>
        <time>2020-06-23T13:53:04.000Z</time>
      </trkpt>
      <trkpt lat="45.29653" lon="6.08018">
        <ele>965.72</ele>
        <time>2020-06-23T13:53:14.000Z</time>
      </trkpt>
      <trkpt lat="45.29653" lon="6.08003">
        <ele>964.27</ele>
        <time>2020-06-23T13:53:23.000Z</time>
      </trkpt>
      <trkpt lat="45.29655" lon="6.07989">
        <ele>962.29</ele>
        <time>2020-06-23T13:53:33.000Z</time>
      </trkpt>
      <trkpt lat="45.29656" lon="6.07977">
        <ele>961.02</ele>
        <time>2020-06-23T13:53:42.000Z</time>
      </trkpt>
      <trkpt lat="45.2966" lon="6.07964">
        <ele>958.93</ele>
        <time>2020-06-23T13:53:51.000Z</time>
      </trkpt>
      <trkpt lat="45.29663" lon="6.07951">
        <ele>956.1</ele>
        <time>2020-06-23T13:53:59.000Z</time>
      </trkpt>
      <trkpt lat="45.29672" lon="6.07947">
        <ele>953.58</ele>
        <time>2020-06-23T13:54:10.000Z</time>
      </trkpt>
      <trkpt lat="45.29674" lon="6.07935">
        <ele>950.78</ele>
        <time>2020-06-23T13:54:38.000Z</time>
      </trkpt>
      <trkpt lat="45.29665" lon="6.07936">
        <ele>949.29</ele>
        <time>2020-06-23T13:54:48.000Z</time>
      </trkpt>
      <trkpt lat="45.29656" lon="6.0794">
        <ele>948.23</ele>
        <time>2020-06-23T13:54:56.000Z</time>
      </trkpt>
      <trkpt lat="45.29647" lon="6.07943">
        <ele>946.53</ele>
        <time>2020-06-23T13:55:06.000Z</time>
      </trkpt>
      <trkpt lat="45.29639" lon="6.07947">
        <ele>945.35</ele>
        <time>2020-06-23T13:55:13.000Z</time>
      </trkpt>
      <trkpt lat="45.2963" lon="6.07955">
        <ele>944.03</ele>
        <time>2020-06-23T13:55:22.000Z</time>
      </trkpt>
      <trkpt lat="45.29621" lon="6.07962">
        <ele>942.93</ele>
        <time>2020-06-23T13:55:30.000Z</time>
      </trkpt>
      <trkpt lat="45.29614" lon="6.0797">
        <ele>942.94</ele>
        <time>2020-06-23T13:56:01.000Z</time>
      </trkpt>
      <trkpt lat="45.29605" lon="6.0797">
        <ele>946.85</ele>
        <time>2020-06-23T13:57:08.000Z</time>
      </trkpt>
      <trkpt lat="45.29597" lon="6.07975">
        <ele>947.38</ele>
        <time>2020-06-23T13:57:16.000Z</time>
      </trkpt>
      <trkpt lat="45.29588" lon="6.07979">
        <ele>947.46</ele>
        <time>2020-06-23T13:57:23.000Z</time>
      </trkpt>
      <trkpt lat="45.29579" lon="6.07983">
        <ele>948.35</ele>
        <time>2020-06-23T13:57:31.000Z</time>
      </trkpt>
      <trkpt lat="45.2957" lon="6.07988">
        <ele>948.86</ele>
        <time>2020-06-23T13:57:40.000Z</time>
      </trkpt>
      <trkpt lat="45.29561" lon="6.07994">
        <ele>949.65</ele>
        <time>2020-06-23T13:57:47.000Z</time>
      </trkpt>
      <trkpt lat="45.29552" lon="6.07996">
        <ele>950.45</ele>
        <time>2020-06-23T13:57:56.000Z</time>
      </trkpt>
      <trkpt lat="45.29543" lon="6.07998">
        <ele>951.7</ele>
        <time>2020-06-23T13:58:03.000Z</time>
      </trkpt>
      <trkpt lat="45.29533" lon="6.08002">
        <ele>952.87</ele>
        <time>2020-06-23T13:58:12.000Z</time>
      </trkpt>
      <trkpt lat="45.29524" lon="6.08005">
        <ele>953.38</ele>
        <time>2020-06-23T13:58:21.000Z</time>
      </trkpt>
      <trkpt lat="45.29515" lon="6.08009">
        <ele>953.77</ele>
        <time>2020-06-23T13:58:30.000Z</time>
      </trkpt>
      <trkpt lat="45.29506" lon="6.08012">
        <ele>953.98</ele>
        <time>2020-06-23T13:58:38.000Z</time>
      </trkpt>
      <trkpt lat="45.29497" lon="6.08013">
        <ele>953.61</ele>
        <time>2020-06-23T13:58:47.000Z</time>
      </trkpt>
      <trkpt lat="45.29487" lon="6.08011">
        <ele>952.65</ele>
        <time>2020-06-23T13:58:56.000Z</time>
      </trkpt>
      <trkpt lat="45.29478" lon="6.08009">
        <ele>952.85</ele>
        <time>2020-06-23T13:59:13.000Z</time>
      </trkpt>
      <trkpt lat="45.29469" lon="6.08015">
        <ele>953.53</ele>
        <time>2020-06-23T13:59:21.000Z</time>
      </trkpt>
      <trkpt lat="45.29459" lon="6.08017">
        <ele>954.34</ele>
        <time>2020-06-23T13:59:30.000Z</time>
      </trkpt>
      <trkpt lat="45.2945" lon="6.08021">
        <ele>955.52</ele>
        <time>2020-06-23T13:59:37.000Z</time>
      </trkpt>
      <trkpt lat="45.2944" lon="6.08021">
        <ele>957.59</ele>
        <time>2020-06-23T13:59:45.000Z</time>
      </trkpt>
      <trkpt lat="45.2943" lon="6.08021">
        <ele>960.38</ele>
        <time>2020-06-23T13:59:54.000Z</time>
      </trkpt>
      <trkpt lat="45.2942" lon="6.08021">
        <ele>962.01</ele>
        <time>2020-06-23T14:00:02.000Z</time>
      </trkpt>
      <trkpt lat="45.2941" lon="6.08019">
        <ele>963.46</ele>
        <time>2020-06-23T14:00:11.000Z</time>
      </trkpt>
      <trkpt lat="45.29401" lon="6.08017">
        <ele>963.94</ele>
        <time>2020-06-23T14:00:19.000Z</time>
      </trkpt>
      <trkpt lat="45.29392" lon="6.08011">
        <ele>964.92</ele>
        <time>2020-06-23T14:00:29.000Z</time>
      </trkpt>
      <trkpt lat="45.29384" lon="6.08002">
        <ele>965.58</ele>
        <time>2020-06-23T14:00:39.000Z</time>
      </trkpt>
      <trkpt lat="45.29376" lon="6.07993">
        <ele>965.11</ele>
        <time>2020-06-23T14:00:48.000Z</time>
      </trkpt>
      <trkpt lat="45.29367" lon="6.07987">
        <ele>963.63</ele>
        <time>2020-06-23T14:00:57.000Z</time>
      </trkpt>
      <trkpt lat="45.29357" lon="6.07986">
        <ele>962.51</ele>
        <time>2020-06-23T14:01:04.000Z</time>
      </trkpt>
      <trkpt lat="45.29349" lon="6.07981">
        <ele>961.88</ele>
        <time>2020-06-23T14:01:14.000Z</time>
      </trkpt>
      <trkpt lat="45.2934" lon="6.07974">
        <ele>963.04</ele>
        <time>2020-06-23T14:01:25.000Z</time>
      </trkpt>
      <trkpt lat="45.29332" lon="6.07968">
        <ele>964.83</ele>
        <time>2020-06-23T14:01:37.000Z</time>
      </trkpt>
      <trkpt lat="45.29322" lon="6.07972">
        <ele>967.2</ele>
        <time>2020-06-23T14:01:49.000Z</time>
      </trkpt>
      <trkpt lat="45.29313" lon="6.07971">
        <ele>969.04</ele>
        <time>2020-06-23T14:02:00.000Z</time>
      </trkpt>
      <trkpt lat="45.29304" lon="6.07971">
        <ele>969.65</ele>
        <time>2020-06-23T14:02:14.000Z</time>
      </trkpt>
      <trkpt lat="45.29294" lon="6.0797">
        <ele>970.84</ele>
        <time>2020-06-23T14:02:28.000Z</time>
      </trkpt>
      <trkpt lat="45.29285" lon="6.07974">
        <ele>972.71</ele>
        <time>2020-06-23T14:02:44.000Z</time>
      </trkpt>
      <trkpt lat="45.29277" lon="6.07981">
        <ele>975.11</ele>
        <time>2020-06-23T14:02:59.000Z</time>
      </trkpt>
      <trkpt lat="45.29269" lon="6.07986">
        <ele>977.6</ele>
        <time>2020-06-23T14:03:13.000Z</time>
      </trkpt>
      <trkpt lat="45.29259" lon="6.07987">
        <ele>979.41</ele>
        <time>2020-06-23T14:03:23.000Z</time>
      </trkpt>
      <trkpt lat="45.29249" lon="6.07986">
        <ele>980.95</ele>
        <time>2020-06-23T14:03:33.000Z</time>
      </trkpt>
      <trkpt lat="45.2924" lon="6.07985">
        <ele>981.64</ele>
        <time>2020-06-23T14:03:40.000Z</time>
      </trkpt>
      <trkpt lat="45.29229" lon="6.07987">
        <ele>982.04</ele>
        <time>2020-06-23T14:03:47.000Z</time>
      </trkpt>
      <trkpt lat="45.29219" lon="6.07987">
        <ele>981.61</ele>
        <time>2020-06-23T14:03:58.000Z</time>
      </trkpt>
      <trkpt lat="45.2921" lon="6.07988">
        <ele>980.71</ele>
        <time>2020-06-23T14:04:07.000Z</time>
      </trkpt>
      <trkpt lat="45.29202" lon="6.07981">
        <ele>981.62</ele>
        <time>2020-06-23T14:04:21.000Z</time>
      </trkpt>
      <trkpt lat="45.29189" lon="6.07983">
        <ele>983.82</ele>
        <time>2020-06-23T14:04:46.000Z</time>
      </trkpt>
      <trkpt lat="45.29182" lon="6.07992">
        <ele>985.03</ele>
        <time>2020-06-23T14:04:58.000Z</time>
      </trkpt>
      <trkpt lat="45.29176" lon="6.08004">
        <ele>986.43</ele>
        <time>2020-06-23T14:05:12.000Z</time>
      </trkpt>
      <trkpt lat="45.29172" lon="6.08016">
        <ele>986.22</ele>
        <time>2020-06-23T14:05:23.000Z</time>
      </trkpt>
      <trkpt lat="45.29164" lon="6.08023">
        <ele>986.26</ele>
        <time>2020-06-23T14:05:32.000Z</time>
      </trkpt>
      <trkpt lat="45.29156" lon="6.08028">
        <ele>988.62</ele>
        <time>2020-06-23T14:05:44.000Z</time>
      </trkpt>
      <trkpt lat="45.29149" lon="6.08037">
        <ele>991.21</ele>
        <time>2020-06-23T14:05:58.000Z</time>
      </trkpt>
      <trkpt lat="45.29141" lon="6.08043">
        <ele>993.65</ele>
        <time>2020-06-23T14:06:11.000Z</time>
      </trkpt>
      <trkpt lat="45.29132" lon="6.08045">
        <ele>995.58</ele>
        <time>2020-06-23T14:06:22.000Z</time>
      </trkpt>
      <trkpt lat="45.29122" lon="6.08047">
        <ele>998.38</ele>
        <time>2020-06-23T14:06:35.000Z</time>
      </trkpt>
      <trkpt lat="45.29112" lon="6.08047">
        <ele>999.46</ele>
        <time>2020-06-23T14:06:45.000Z</time>
      </trkpt>
      <trkpt lat="45.29103" lon="6.08049">
        <ele>999.81</ele>
        <time>2020-06-23T14:06:55.000Z</time>
      </trkpt>
      <trkpt lat="45.29094" lon="6.08051">
        <ele>1000.43</ele>
        <time>2020-06-23T14:07:04.000Z</time>
      </trkpt>
      <trkpt lat="45.29085" lon="6.08048">
        <ele>1001.62</ele>
        <time>2020-06-23T14:07:15.000Z</time>
      </trkpt>
      <trkpt lat="45.29076" lon="6.08043">
        <ele>1003.1</ele>
        <time>2020-06-23T14:07:27.000Z</time>
      </trkpt>
      <trkpt lat="45.29067" lon="6.08039">
        <ele>1004.7</ele>
        <time>2020-06-23T14:07:40.000Z</time>
      </trkpt>
      <trkpt lat="45.29057" lon="6.08037">
        <ele>1005.75</ele>
        <time>2020-06-23T14:07:51.000Z</time>
      </trkpt>
      <trkpt lat="45.29048" lon="6.08036">
        <ele>1007.12</ele>
        <time>2020-06-23T14:08:00.000Z</time>
      </trkpt>
      <trkpt lat="45.29038" lon="6.08036">
        <ele>1008.03</ele>
        <time>2020-06-23T14:08:09.000Z</time>
      </trkpt>
      <trkpt lat="45.2903" lon="6.0803">
        <ele>1009.13</ele>
        <time>2020-06-23T14:08:21.000Z</time>
      </trkpt>
      <trkpt lat="45.29021" lon="6.08025">
        <ele>1010.02</ele>
        <time>2020-06-23T14:08:30.000Z</time>
      </trkpt>
      <trkpt lat="45.29015" lon="6.08015">
        <ele>1011.6</ele>
        <time>2020-06-23T14:08:40.000Z</time>
      </trkpt>
      <trkpt lat="45.29007" lon="6.08009">
        <ele>1013.5</ele>
        <time>2020-06-23T14:08:48.000Z</time>
      </trkpt>
      <trkpt lat="45.28999" lon="6.08003">
        <ele>1015.05</ele>
        <time>2020-06-23T14:09:00.000Z</time>
      </trkpt>
      <trkpt lat="45.28992" lon="6.07996">
        <ele>1016.82</ele>
        <time>2020-06-23T14:09:09.000Z</time>
      </trkpt>
      <trkpt lat="45.28984" lon="6.07987">
        <ele>1018.85</ele>
        <time>2020-06-23T14:09:16.000Z</time>
      </trkpt>
      <trkpt lat="45.28981" lon="6.07974">
        <ele>1020.93</ele>
        <time>2020-06-23T14:09:25.000Z</time>
      </trkpt>
      <trkpt lat="45.28979" lon="6.07961">
        <ele>1022.42</ele>
        <time>2020-06-23T14:09:33.000Z</time>
      </trkpt>
      <trkpt lat="45.28976" lon="6.07948">
        <ele>1023.42</ele>
        <time>2020-06-23T14:09:42.000Z</time>
      </trkpt>
      <trkpt lat="45.28971" lon="6.07936">
        <ele>1023</ele>
        <time>2020-06-23T14:09:51.000Z</time>
      </trkpt>
      <trkpt lat="45.28964" lon="6.07925">
        <ele>1021.87</ele>
        <time>2020-06-23T14:10:01.000Z</time>
      </trkpt>
      <trkpt lat="45.28957" lon="6.07916">
        <ele>1021.56</ele>
        <time>2020-06-23T14:10:10.000Z</time>
      </trkpt>
      <trkpt lat="45.28949" lon="6.07907">
        <ele>1020.74</ele>
        <time>2020-06-23T14:10:19.000Z</time>
      </trkpt>
      <trkpt lat="45.28941" lon="6.07898">
        <ele>1020.56</ele>
        <time>2020-06-23T14:10:26.000Z</time>
      </trkpt>
      <trkpt lat="45.28939" lon="6.07885">
        <ele>1020.39</ele>
        <time>2020-06-23T14:10:34.000Z</time>
      </trkpt>
      <trkpt lat="45.2894" lon="6.07872">
        <ele>1020.36</ele>
        <time>2020-06-23T14:10:42.000Z</time>
      </trkpt>
      <trkpt lat="45.28942" lon="6.07859">
        <ele>1019.99</ele>
        <time>2020-06-23T14:10:49.000Z</time>
      </trkpt>
      <trkpt lat="45.28935" lon="6.0785">
        <ele>1017.84</ele>
        <time>2020-06-23T14:10:59.000Z</time>
      </trkpt>
      <trkpt lat="45.28928" lon="6.0784">
        <ele>1015.74</ele>
        <time>2020-06-23T14:11:07.000Z</time>
      </trkpt>
      <trkpt lat="45.28925" lon="6.07827">
        <ele>1015.17</ele>
        <time>2020-06-23T14:11:15.000Z</time>
      </trkpt>
      <trkpt lat="45.28925" lon="6.07814">
        <ele>1014.9</ele>
        <time>2020-06-23T14:11:23.000Z</time>
      </trkpt>
      <trkpt lat="45.28923" lon="6.078">
        <ele>1014.56</ele>
        <time>2020-06-23T14:11:32.000Z</time>
      </trkpt>
      <trkpt lat="45.28917" lon="6.0779">
        <ele>1013.95</ele>
        <time>2020-06-23T14:11:43.000Z</time>
      </trkpt>
      <trkpt lat="45.28909" lon="6.07782">
        <ele>1013.86</ele>
        <time>2020-06-23T14:11:52.000Z</time>
      </trkpt>
      <trkpt lat="45.28902" lon="6.07774">
        <ele>1014.33</ele>
        <time>2020-06-23T14:12:01.000Z</time>
      </trkpt>
      <trkpt lat="45.28895" lon="6.07765">
        <ele>1015.05</ele>
        <time>2020-06-23T14:12:09.000Z</time>
      </trkpt>
      <trkpt lat="45.28887" lon="6.07755">
        <ele>1015.46</ele>
        <time>2020-06-23T14:12:16.000Z</time>
      </trkpt>
      <trkpt lat="45.28881" lon="6.07744">
        <ele>1015.19</ele>
        <time>2020-06-23T14:12:23.000Z</time>
      </trkpt>
      <trkpt lat="45.28875" lon="6.07733">
        <ele>1015.28</ele>
        <time>2020-06-23T14:12:32.000Z</time>
      </trkpt>
      <trkpt lat="45.2887" lon="6.07722">
        <ele>1015.75</ele>
        <time>2020-06-23T14:12:40.000Z</time>
      </trkpt>
      <trkpt lat="45.28862" lon="6.07715">
        <ele>1015.98</ele>
        <time>2020-06-23T14:12:48.000Z</time>
      </trkpt>
      <trkpt lat="45.28853" lon="6.07706">
        <ele>1015.98</ele>
        <time>2020-06-23T14:12:55.000Z</time>
      </trkpt>
      <trkpt lat="45.28844" lon="6.07704">
        <ele>1015.76</ele>
        <time>2020-06-23T14:13:03.000Z</time>
      </trkpt>
      <trkpt lat="45.28836" lon="6.07699">
        <ele>1015.22</ele>
        <time>2020-06-23T14:13:10.000Z</time>
      </trkpt>
      <trkpt lat="45.28828" lon="6.07689">
        <ele>1014.39</ele>
        <time>2020-06-23T14:13:19.000Z</time>
      </trkpt>
      <trkpt lat="45.2882" lon="6.07682">
        <ele>1013.97</ele>
        <time>2020-06-23T14:13:27.000Z</time>
      </trkpt>
      <trkpt lat="45.28811" lon="6.07681">
        <ele>1014.03</ele>
        <time>2020-06-23T14:13:35.000Z</time>
      </trkpt>
      <trkpt lat="45.28801" lon="6.07682">
        <ele>1014.01</ele>
        <time>2020-06-23T14:13:43.000Z</time>
      </trkpt>
      <trkpt lat="45.28791" lon="6.07685">
        <ele>1013.47</ele>
        <time>2020-06-23T14:13:50.000Z</time>
      </trkpt>
      <trkpt lat="45.28781" lon="6.07689">
        <ele>1012.53</ele>
        <time>2020-06-23T14:13:56.000Z</time>
      </trkpt>
      <trkpt lat="45.28773" lon="6.07694">
        <ele>1010.48</ele>
        <time>2020-06-23T14:14:04.000Z</time>
      </trkpt>
      <trkpt lat="45.28764" lon="6.07698">
        <ele>1008.4</ele>
        <time>2020-06-23T14:14:12.000Z</time>
      </trkpt>
      <trkpt lat="45.28755" lon="6.07704">
        <ele>1007.54</ele>
        <time>2020-06-23T14:14:20.000Z</time>
      </trkpt>
      <trkpt lat="45.28746" lon="6.0771">
        <ele>1006.59</ele>
        <time>2020-06-23T14:14:28.000Z</time>
      </trkpt>
      <trkpt lat="45.28738" lon="6.07717">
        <ele>1005.32</ele>
        <time>2020-06-23T14:14:35.000Z</time>
      </trkpt>
      <trkpt lat="45.28729" lon="6.07721">
        <ele>1003.72</ele>
        <time>2020-06-23T14:14:43.000Z</time>
      </trkpt>
      <trkpt lat="45.28721" lon="6.07728">
        <ele>1002.85</ele>
        <time>2020-06-23T14:14:52.000Z</time>
      </trkpt>
      <trkpt lat="45.28714" lon="6.07736">
        <ele>1002.46</ele>
        <time>2020-06-23T14:15:01.000Z</time>
      </trkpt>
      <trkpt lat="45.2871" lon="6.07748">
        <ele>1001.65</ele>
        <time>2020-06-23T14:15:10.000Z</time>
      </trkpt>
      <trkpt lat="45.28701" lon="6.07751">
        <ele>1002.29</ele>
        <time>2020-06-23T14:15:31.000Z</time>
      </trkpt>
      <trkpt lat="45.28694" lon="6.0776">
        <ele>1001.86</ele>
        <time>2020-06-23T14:15:41.000Z</time>
      </trkpt>
      <trkpt lat="45.28686" lon="6.07767">
        <ele>1002.74</ele>
        <time>2020-06-23T14:15:49.000Z</time>
      </trkpt>
      <trkpt lat="45.28677" lon="6.07773">
        <ele>1003.34</ele>
        <time>2020-06-23T14:15:58.000Z</time>
      </trkpt>
      <trkpt lat="45.28667" lon="6.07778">
        <ele>1003.85</ele>
        <time>2020-06-23T14:16:06.000Z</time>
      </trkpt>
      <trkpt lat="45.28658" lon="6.07777">
        <ele>1002.01</ele>
        <time>2020-06-23T14:16:17.000Z</time>
      </trkpt>
      <trkpt lat="45.28648" lon="6.07778">
        <ele>999.65</ele>
        <time>2020-06-23T14:16:33.000Z</time>
      </trkpt>
      <trkpt lat="45.28641" lon="6.0777">
        <ele>999.24</ele>
        <time>2020-06-23T14:16:46.000Z</time>
      </trkpt>
      <trkpt lat="45.28631" lon="6.07767">
        <ele>1000.54</ele>
        <time>2020-06-23T14:16:59.000Z</time>
      </trkpt>
      <trkpt lat="45.28621" lon="6.07765">
        <ele>1000.55</ele>
        <time>2020-06-23T14:17:07.000Z</time>
      </trkpt>
      <trkpt lat="45.28611" lon="6.07765">
        <ele>1001.12</ele>
        <time>2020-06-23T14:17:15.000Z</time>
      </trkpt>
      <trkpt lat="45.28602" lon="6.07761">
        <ele>1001.16</ele>
        <time>2020-06-23T14:17:27.000Z</time>
      </trkpt>
      <trkpt lat="45.28592" lon="6.07759">
        <ele>1001.12</ele>
        <time>2020-06-23T14:17:35.000Z</time>
      </trkpt>
      <trkpt lat="45.28583" lon="6.07755">
        <ele>1001.07</ele>
        <time>2020-06-23T14:17:42.000Z</time>
      </trkpt>
      <trkpt lat="45.28574" lon="6.07752">
        <ele>1000.84</ele>
        <time>2020-06-23T14:17:49.000Z</time>
      </trkpt>
      <trkpt lat="45.28565" lon="6.07752">
        <ele>1001.22</ele>
        <time>2020-06-23T14:18:00.000Z</time>
      </trkpt>
      <trkpt lat="45.28556" lon="6.07751">
        <ele>1001.25</ele>
        <time>2020-06-23T14:18:08.000Z</time>
      </trkpt>
      <trkpt lat="45.28547" lon="6.07751">
        <ele>1001.24</ele>
        <time>2020-06-23T14:18:15.000Z</time>
      </trkpt>
      <trkpt lat="45.28537" lon="6.07751">
        <ele>1001.74</ele>
        <time>2020-06-23T14:18:22.000Z</time>
      </trkpt>
      <trkpt lat="45.28528" lon="6.07748">
        <ele>1002.04</ele>
        <time>2020-06-23T14:18:32.000Z</time>
      </trkpt>
      <trkpt lat="45.28519" lon="6.07747">
        <ele>1002.14</ele>
        <time>2020-06-23T14:18:41.000Z</time>
      </trkpt>
      <trkpt lat="45.28509" lon="6.07746">
        <ele>1003.69</ele>
        <time>2020-06-23T14:18:47.000Z</time>
      </trkpt>
      <trkpt lat="45.28504" lon="6.07757">
        <ele>1002.74</ele>
        <time>2020-06-23T14:18:58.000Z</time>
      </trkpt>
      <trkpt lat="45.28499" lon="6.07769">
        <ele>1004.73</ele>
        <time>2020-06-23T14:19:04.000Z</time>
      </trkpt>
      <trkpt lat="45.28491" lon="6.07778">
        <ele>1004.61</ele>
        <time>2020-06-23T14:19:13.000Z</time>
      </trkpt>
      <trkpt lat="45.28484" lon="6.07787">
        <ele>1007.76</ele>
        <time>2020-06-23T14:19:24.000Z</time>
      </trkpt>
      <trkpt lat="45.28478" lon="6.07798">
        <ele>1010.7</ele>
        <time>2020-06-23T14:19:34.000Z</time>
      </trkpt>
      <trkpt lat="45.28469" lon="6.07803">
        <ele>1011.34</ele>
        <time>2020-06-23T14:19:43.000Z</time>
      </trkpt>
      <trkpt lat="45.2846" lon="6.07808">
        <ele>1012.13</ele>
        <time>2020-06-23T14:19:52.000Z</time>
      </trkpt>
      <trkpt lat="45.28451" lon="6.0781">
        <ele>1013.37</ele>
        <time>2020-06-23T14:20:01.000Z</time>
      </trkpt>
      <trkpt lat="45.28441" lon="6.07816">
        <ele>1014.8</ele>
        <time>2020-06-23T14:20:08.000Z</time>
      </trkpt>
      <trkpt lat="45.28433" lon="6.0782">
        <ele>1015.54</ele>
        <time>2020-06-23T14:20:20.000Z</time>
      </trkpt>
      <trkpt lat="45.28423" lon="6.07815">
        <ele>1015.24</ele>
        <time>2020-06-23T14:20:29.000Z</time>
      </trkpt>
      <trkpt lat="45.28414" lon="6.07808">
        <ele>1015.74</ele>
        <time>2020-06-23T14:20:34.000Z</time>
      </trkpt>
      <trkpt lat="45.28405" lon="6.07803">
        <ele>1016.13</ele>
        <time>2020-06-23T14:20:42.000Z</time>
      </trkpt>
      <trkpt lat="45.28396" lon="6.07804">
        <ele>1016.61</ele>
        <time>2020-06-23T14:20:48.000Z</time>
      </trkpt>
      <trkpt lat="45.28383" lon="6.078">
        <ele>1016.76</ele>
        <time>2020-06-23T14:21:00.000Z</time>
      </trkpt>
      <trkpt lat="45.28375" lon="6.07796">
        <ele>1016.98</ele>
        <time>2020-06-23T14:21:05.000Z</time>
      </trkpt>
      <trkpt lat="45.28365" lon="6.07794">
        <ele>1017.79</ele>
        <time>2020-06-23T14:21:14.000Z</time>
      </trkpt>
      <trkpt lat="45.28355" lon="6.07794">
        <ele>1017.71</ele>
        <time>2020-06-23T14:21:20.000Z</time>
      </trkpt>
      <trkpt lat="45.28345" lon="6.07795">
        <ele>1018.01</ele>
        <time>2020-06-23T14:21:28.000Z</time>
      </trkpt>
      <trkpt lat="45.28336" lon="6.07798">
        <ele>1018.46</ele>
        <time>2020-06-23T14:21:39.000Z</time>
      </trkpt>
      <trkpt lat="45.28328" lon="6.07804">
        <ele>1018.85</ele>
        <time>2020-06-23T14:21:48.000Z</time>
      </trkpt>
      <trkpt lat="45.28318" lon="6.07808">
        <ele>1019.52</ele>
        <time>2020-06-23T14:21:58.000Z</time>
      </trkpt>
      <trkpt lat="45.2831" lon="6.07813">
        <ele>1019.7</ele>
        <time>2020-06-23T14:22:06.000Z</time>
      </trkpt>
      <trkpt lat="45.28301" lon="6.07818">
        <ele>1020.01</ele>
        <time>2020-06-23T14:22:15.000Z</time>
      </trkpt>
      <trkpt lat="45.28291" lon="6.0782">
        <ele>1020.08</ele>
        <time>2020-06-23T14:22:25.000Z</time>
      </trkpt>
      <trkpt lat="45.28282" lon="6.07824">
        <ele>1020.53</ele>
        <time>2020-06-23T14:22:35.000Z</time>
      </trkpt>
      <trkpt lat="45.28273" lon="6.07827">
        <ele>1020.53</ele>
        <time>2020-06-23T14:22:41.000Z</time>
      </trkpt>
      <trkpt lat="45.28264" lon="6.07831">
        <ele>1020.82</ele>
        <time>2020-06-23T14:22:49.000Z</time>
      </trkpt>
      <trkpt lat="45.28255" lon="6.07838">
        <ele>1020.7</ele>
        <time>2020-06-23T14:22:58.000Z</time>
      </trkpt>
      <trkpt lat="45.28246" lon="6.07845">
        <ele>1020.73</ele>
        <time>2020-06-23T14:23:07.000Z</time>
      </trkpt>
      <trkpt lat="45.28236" lon="6.07847">
        <ele>1020.53</ele>
        <time>2020-06-23T14:23:15.000Z</time>
      </trkpt>
      <trkpt lat="45.28227" lon="6.07846">
        <ele>1020.69</ele>
        <time>2020-06-23T14:23:26.000Z</time>
      </trkpt>
      <trkpt lat="45.28218" lon="6.0784">
        <ele>1020.83</ele>
        <time>2020-06-23T14:23:36.000Z</time>
      </trkpt>
      <trkpt lat="45.28209" lon="6.07837">
        <ele>1020.36</ele>
        <time>2020-06-23T14:23:42.000Z</time>
      </trkpt>
      <trkpt lat="45.28201" lon="6.07829">
        <ele>1020.12</ele>
        <time>2020-06-23T14:23:50.000Z</time>
      </trkpt>
      <trkpt lat="45.28198" lon="6.07816">
        <ele>1020.37</ele>
        <time>2020-06-23T14:23:58.000Z</time>
      </trkpt>
      <trkpt lat="45.28194" lon="6.07804">
        <ele>1020.34</ele>
        <time>2020-06-23T14:24:07.000Z</time>
      </trkpt>
      <trkpt lat="45.28185" lon="6.07796">
        <ele>1020.72</ele>
        <time>2020-06-23T14:24:15.000Z</time>
      </trkpt>
      <trkpt lat="45.28177" lon="6.07788">
        <ele>1021.69</ele>
        <time>2020-06-23T14:24:23.000Z</time>
      </trkpt>
      <trkpt lat="45.28168" lon="6.07782">
        <ele>1021.8</ele>
        <time>2020-06-23T14:24:33.000Z</time>
      </trkpt>
      <trkpt lat="45.28159" lon="6.07778">
        <ele>1022.09</ele>
        <time>2020-06-23T14:24:41.000Z</time>
      </trkpt>
      <trkpt lat="45.2815" lon="6.07778">
        <ele>1022.26</ele>
        <time>2020-06-23T14:24:49.000Z</time>
      </trkpt>
      <trkpt lat="45.28141" lon="6.07782">
        <ele>1022.59</ele>
        <time>2020-06-23T14:25:01.000Z</time>
      </trkpt>
      <trkpt lat="45.28132" lon="6.07784">
        <ele>1022.25</ele>
        <time>2020-06-23T14:25:13.000Z</time>
      </trkpt>
      <trkpt lat="45.28124" lon="6.07776">
        <ele>1022.99</ele>
        <time>2020-06-23T14:25:21.000Z</time>
      </trkpt>
      <trkpt lat="45.28119" lon="6.07766">
        <ele>1023.36</ele>
        <time>2020-06-23T14:25:30.000Z</time>
      </trkpt>
      <trkpt lat="45.28114" lon="6.07755">
        <ele>1025.03</ele>
        <time>2020-06-23T14:25:38.000Z</time>
      </trkpt>
      <trkpt lat="45.28108" lon="6.07742">
        <ele>1027.35</ele>
        <time>2020-06-23T14:25:48.000Z</time>
      </trkpt>
      <trkpt lat="45.28113" lon="6.07754">
        <ele>1032.19</ele>
        <time>2020-06-23T14:26:43.000Z</time>
      </trkpt>
      <trkpt lat="45.2812" lon="6.07766">
        <ele>1034.42</ele>
        <time>2020-06-23T14:26:50.000Z</time>
      </trkpt>
      <trkpt lat="45.28113" lon="6.07755">
        <ele>1036.97</ele>
        <time>2020-06-23T14:27:11.000Z</time>
      </trkpt>
      <trkpt lat="45.28108" lon="6.07743">
        <ele>1037.33</ele>
        <time>2020-06-23T14:27:20.000Z</time>
      </trkpt>
      <trkpt lat="45.28107" lon="6.07729">
        <ele>1037.2</ele>
        <time>2020-06-23T14:27:32.000Z</time>
      </trkpt>
      <trkpt lat="45.28114" lon="6.0772">
        <ele>1038.19</ele>
        <time>2020-06-23T14:27:38.000Z</time>
      </trkpt>
      <trkpt lat="45.28119" lon="6.07709">
        <ele>1042.25</ele>
        <time>2020-06-23T14:27:45.000Z</time>
      </trkpt>
      <trkpt lat="45.28121" lon="6.07696">
        <ele>1046.37</ele>
        <time>2020-06-23T14:27:52.000Z</time>
      </trkpt>
      <trkpt lat="45.28127" lon="6.07685">
        <ele>1049.45</ele>
        <time>2020-06-23T14:28:00.000Z</time>
      </trkpt>
      <trkpt lat="45.2813" lon="6.07673">
        <ele>1051.15</ele>
        <time>2020-06-23T14:28:07.000Z</time>
      </trkpt>
      <trkpt lat="45.28131" lon="6.07659">
        <ele>1046.26</ele>
        <time>2020-06-23T14:28:21.000Z</time>
      </trkpt>
      <trkpt lat="45.28134" lon="6.07646">
        <ele>1042.18</ele>
        <time>2020-06-23T14:28:31.000Z</time>
      </trkpt>
      <trkpt lat="45.28142" lon="6.0764">
        <ele>1038.24</ele>
        <time>2020-06-23T14:28:41.000Z</time>
      </trkpt>
    </trkseg>
  </trk>
</gpx>